<?xml version="1.0" encoding="UTF-8"?>
<gpx version="1.1" creator="https://www.youtrack.es" xsi:schemaLocation="http://www.topografix.com/GPX/1/1 http://www.topografix.com/GPX/1/1/gpx.xsd http://www.garmin.com/xmlschemas/GpxExtensions/v3 http://www.garmin.com/xmlschemas/GpxExtensionsv3.xsd http://www.garmin.com/xmlschemas/TrackPointExtension/v1 http://www.garmin.com/xmlschemas/TrackPointExtensionv1.xsd" xmlns:gpxtpx="http://www.garmin.com/xmlschemas/TrackPointExtension/v1" xmlns:gpxx="http://www.garmin.com/xmlschemas/GpxExtensions/v3" xmlns:xsi="http://www.w3.org/2001/XMLSchema-instance">
  <metadata>
    <link href="https://www.youtrack.es">
      <text>YouTrack.es</text>
    </link>
    <time>2026-05-08T20:35:37Z</time>
  </metadata>
  <trk>
    <src>https://www.youtrack.es</src>
    <link href="https://www.youtrack.es/ruta/2357-getxo-balma-trans-euskalherria">
      <text>YouTrack.es</text>
    </link>
    <trkseg>
      <trkpt lat="43.340479" lon="-3.014147">
        <ele>5.028</ele>
        <time>45978-10-14T22:30:00Z</time>
      </trkpt>
      <trkpt lat="43.340352" lon="-3.014207">
        <ele>5.089</ele>
        <time>45978-10-14T22:30:00Z</time>
      </trkpt>
      <trkpt lat="43.337585" lon="-3.009915">
        <ele>10.617</ele>
        <time>45978-10-15T03:13:20Z</time>
      </trkpt>
      <trkpt lat="43.336796" lon="-3.009910">
        <ele>9.708</ele>
        <time>45978-10-15T03:46:40Z</time>
      </trkpt>
      <trkpt lat="43.335817" lon="-3.010230">
        <ele>9.173</ele>
        <time>45978-10-15T05:10:00Z</time>
      </trkpt>
      <trkpt lat="43.334986" lon="-3.010712">
        <ele>8.917</ele>
        <time>45978-10-15T06:16:40Z</time>
      </trkpt>
      <trkpt lat="43.329184" lon="-3.014545">
        <ele>6.124</ele>
        <time>45978-10-15T13:13:20Z</time>
      </trkpt>
      <trkpt lat="43.327718" lon="-3.015843">
        <ele>5.327</ele>
        <time>45978-10-15T15:10:00Z</time>
      </trkpt>
      <trkpt lat="43.325747" lon="-3.018208">
        <ele>5.088</ele>
        <time>45978-10-15T18:13:20Z</time>
      </trkpt>
      <trkpt lat="43.323639" lon="-3.016247">
        <ele>4.746</ele>
        <time>45978-10-15T21:16:40Z</time>
      </trkpt>
      <trkpt lat="43.322840" lon="-3.017979">
        <ele>4.351</ele>
        <time>45978-10-15T22:40:00Z</time>
      </trkpt>
      <trkpt lat="43.321675" lon="-3.016979">
        <ele>4.529</ele>
        <time>45978-10-16T00:20:00Z</time>
      </trkpt>
      <trkpt lat="43.321297" lon="-3.016806">
        <ele>5.318</ele>
        <time>45978-10-16T00:53:20Z</time>
      </trkpt>
      <trkpt lat="43.321000" lon="-3.017225">
        <ele>7.598</ele>
        <time>45978-10-16T01:10:00Z</time>
      </trkpt>
      <trkpt lat="43.319946" lon="-3.017583">
        <ele>26.517</ele>
        <time>45978-10-16T02:33:20Z</time>
      </trkpt>
      <trkpt lat="43.320036" lon="-3.017965">
        <ele>24.808</ele>
        <time>45978-10-16T02:50:00Z</time>
      </trkpt>
      <trkpt lat="43.319613" lon="-3.018118">
        <ele>28.622</ele>
        <time>45978-10-16T03:23:20Z</time>
      </trkpt>
      <trkpt lat="43.319379" lon="-3.018680">
        <ele>32.256</ele>
        <time>45978-10-16T03:56:40Z</time>
      </trkpt>
      <trkpt lat="43.320225" lon="-3.020617">
        <ele>37.183</ele>
        <time>45978-10-16T05:36:40Z</time>
      </trkpt>
      <trkpt lat="43.318684" lon="-3.021845">
        <ele>46.146</ele>
        <time>45978-10-16T07:33:20Z</time>
      </trkpt>
      <trkpt lat="43.318531" lon="-3.022115">
        <ele>47.097</ele>
        <time>45978-10-16T08:06:40Z</time>
      </trkpt>
      <trkpt lat="43.318342" lon="-3.022094">
        <ele>47.125</ele>
        <time>45978-10-16T08:06:40Z</time>
      </trkpt>
      <trkpt lat="43.316726" lon="-3.023064">
        <ele>51.090</ele>
        <time>45978-10-16T10:03:20Z</time>
      </trkpt>
      <trkpt lat="43.316294" lon="-3.023792">
        <ele>50.958</ele>
        <time>45978-10-16T10:53:20Z</time>
      </trkpt>
      <trkpt lat="43.316014" lon="-3.024805">
        <ele>51.018</ele>
        <time>45978-10-16T11:43:20Z</time>
      </trkpt>
      <trkpt lat="43.313913" lon="-3.027587">
        <ele>31.298</ele>
        <time>45978-10-16T15:03:20Z</time>
      </trkpt>
      <trkpt lat="43.313549" lon="-3.028456">
        <ele>33.817</ele>
        <time>45978-10-16T15:53:20Z</time>
      </trkpt>
      <trkpt lat="43.312213" lon="-3.030260">
        <ele>25.208</ele>
        <time>45978-10-16T18:06:40Z</time>
      </trkpt>
      <trkpt lat="43.311669" lon="-3.031498">
        <ele>34.762</ele>
        <time>45978-10-16T18:56:40Z</time>
      </trkpt>
      <trkpt lat="43.310672" lon="-3.032607">
        <ele>41.096</ele>
        <time>45978-10-16T20:36:40Z</time>
      </trkpt>
      <trkpt lat="43.310820" lon="-3.033152">
        <ele>43.023</ele>
        <time>45978-10-16T21:10:00Z</time>
      </trkpt>
      <trkpt lat="43.311528" lon="-3.034027">
        <ele>35.626</ele>
        <time>45978-10-16T22:00:00Z</time>
      </trkpt>
      <trkpt lat="43.311467" lon="-3.035240">
        <ele>44.447</ele>
        <time>45978-10-16T23:06:40Z</time>
      </trkpt>
      <trkpt lat="43.312035" lon="-3.037255">
        <ele>41.655</ele>
        <time>45978-10-17T00:46:40Z</time>
      </trkpt>
      <trkpt lat="43.312464" lon="-3.039555">
        <ele>45.160</ele>
        <time>45978-10-17T02:43:20Z</time>
      </trkpt>
      <trkpt lat="43.313610" lon="-3.043502">
        <ele>55.978</ele>
        <time>45978-10-17T06:20:00Z</time>
      </trkpt>
      <trkpt lat="43.313571" lon="-3.045524">
        <ele>55.354</ele>
        <time>45978-10-17T07:43:20Z</time>
      </trkpt>
      <trkpt lat="43.314222" lon="-3.047484">
        <ele>61.456</ele>
        <time>45978-10-17T09:40:00Z</time>
      </trkpt>
      <trkpt lat="43.314084" lon="-3.049272">
        <ele>61.811</ele>
        <time>45978-10-17T11:03:20Z</time>
      </trkpt>
      <trkpt lat="43.314199" lon="-3.049882">
        <ele>64.708</ele>
        <time>45978-10-17T11:36:40Z</time>
      </trkpt>
      <trkpt lat="43.314808" lon="-3.050822">
        <ele>66.226</ele>
        <time>45978-10-17T12:26:40Z</time>
      </trkpt>
      <trkpt lat="43.315135" lon="-3.051837">
        <ele>67.760</ele>
        <time>45978-10-17T13:33:20Z</time>
      </trkpt>
      <trkpt lat="43.315101" lon="-3.052403">
        <ele>69.187</ele>
        <time>45978-10-17T13:50:00Z</time>
      </trkpt>
      <trkpt lat="43.314670" lon="-3.053594">
        <ele>69.450</ele>
        <time>45978-10-17T14:56:40Z</time>
      </trkpt>
      <trkpt lat="43.314713" lon="-3.054455">
        <ele>71.081</ele>
        <time>45978-10-17T15:46:40Z</time>
      </trkpt>
      <trkpt lat="43.314911" lon="-3.054892">
        <ele>71.879</ele>
        <time>45978-10-17T16:03:20Z</time>
      </trkpt>
      <trkpt lat="43.315902" lon="-3.055362">
        <ele>75.034</ele>
        <time>45978-10-17T17:10:00Z</time>
      </trkpt>
      <trkpt lat="43.316437" lon="-3.055979">
        <ele>76.082</ele>
        <time>45978-10-17T18:00:00Z</time>
      </trkpt>
      <trkpt lat="43.317083" lon="-3.057914">
        <ele>82.537</ele>
        <time>45978-10-17T19:40:00Z</time>
      </trkpt>
      <trkpt lat="43.316961" lon="-3.059206">
        <ele>89.049</ele>
        <time>45978-10-17T20:46:40Z</time>
      </trkpt>
      <trkpt lat="43.317637" lon="-3.059967">
        <ele>87.213</ele>
        <time>45978-10-17T21:53:20Z</time>
      </trkpt>
      <trkpt lat="43.317198" lon="-3.062001">
        <ele>86.608</ele>
        <time>45978-10-17T23:33:20Z</time>
      </trkpt>
      <trkpt lat="43.317365" lon="-3.063129">
        <ele>87.844</ele>
        <time>45978-10-18T00:23:20Z</time>
      </trkpt>
      <trkpt lat="43.318848" lon="-3.064770">
        <ele>92.088</ele>
        <time>45978-10-18T02:36:40Z</time>
      </trkpt>
      <trkpt lat="43.319356" lon="-3.066292">
        <ele>96.065</ele>
        <time>45978-10-18T03:43:20Z</time>
      </trkpt>
      <trkpt lat="43.320666" lon="-3.067214">
        <ele>98.748</ele>
        <time>45978-10-18T05:23:20Z</time>
      </trkpt>
      <trkpt lat="43.321260" lon="-3.069810">
        <ele>103.959</ele>
        <time>45978-10-18T07:36:40Z</time>
      </trkpt>
      <trkpt lat="43.320889" lon="-3.071131">
        <ele>107.387</ele>
        <time>45978-10-18T08:43:20Z</time>
      </trkpt>
      <trkpt lat="43.320476" lon="-3.071543">
        <ele>108.452</ele>
        <time>45978-10-18T09:33:20Z</time>
      </trkpt>
      <trkpt lat="43.320002" lon="-3.071672">
        <ele>110.210</ele>
        <time>45978-10-18T09:50:00Z</time>
      </trkpt>
      <trkpt lat="43.319595" lon="-3.071597">
        <ele>110.488</ele>
        <time>45978-10-18T10:23:20Z</time>
      </trkpt>
      <trkpt lat="43.318875" lon="-3.071174">
        <ele>112.124</ele>
        <time>45978-10-18T11:13:20Z</time>
      </trkpt>
      <trkpt lat="43.318212" lon="-3.071387">
        <ele>115.326</ele>
        <time>45978-10-18T12:03:20Z</time>
      </trkpt>
      <trkpt lat="43.318005" lon="-3.071682">
        <ele>115.108</ele>
        <time>45978-10-18T12:20:00Z</time>
      </trkpt>
      <trkpt lat="43.317470" lon="-3.073824">
        <ele>121.549</ele>
        <time>45978-10-18T14:16:40Z</time>
      </trkpt>
      <trkpt lat="43.317442" lon="-3.074403">
        <ele>125.023</ele>
        <time>45978-10-18T14:50:00Z</time>
      </trkpt>
      <trkpt lat="43.315793" lon="-3.074982">
        <ele>132.160</ele>
        <time>45978-10-18T16:30:00Z</time>
      </trkpt>
      <trkpt lat="43.315356" lon="-3.074797">
        <ele>132.673</ele>
        <time>45978-10-18T17:03:20Z</time>
      </trkpt>
      <trkpt lat="43.315069" lon="-3.073889">
        <ele>136.074</ele>
        <time>45978-10-18T17:53:20Z</time>
      </trkpt>
      <trkpt lat="43.314726" lon="-3.073418">
        <ele>137.652</ele>
        <time>45978-10-18T18:26:40Z</time>
      </trkpt>
      <trkpt lat="43.313588" lon="-3.072746">
        <ele>140.047</ele>
        <time>45978-10-18T19:50:00Z</time>
      </trkpt>
      <trkpt lat="43.313325" lon="-3.072689">
        <ele>140.475</ele>
        <time>45978-10-18T20:06:40Z</time>
      </trkpt>
      <trkpt lat="43.312122" lon="-3.073087">
        <ele>140.881</ele>
        <time>45978-10-18T21:30:00Z</time>
      </trkpt>
      <trkpt lat="43.311587" lon="-3.073507">
        <ele>142.161</ele>
        <time>45978-10-18T22:20:00Z</time>
      </trkpt>
      <trkpt lat="43.311489" lon="-3.073455">
        <ele>141.717</ele>
        <time>45978-10-18T22:20:00Z</time>
      </trkpt>
      <trkpt lat="43.311670" lon="-3.072364">
        <ele>135.808</ele>
        <time>45978-10-18T23:26:40Z</time>
      </trkpt>
      <trkpt lat="43.311275" lon="-3.070912">
        <ele>132.089</ele>
        <time>45978-10-19T00:33:20Z</time>
      </trkpt>
      <trkpt lat="43.310814" lon="-3.067679">
        <ele>149.213</ele>
        <time>45978-10-19T03:20:00Z</time>
      </trkpt>
      <trkpt lat="43.310608" lon="-3.067513">
        <ele>151.480</ele>
        <time>45978-10-19T03:36:40Z</time>
      </trkpt>
      <trkpt lat="43.309118" lon="-3.067712">
        <ele>162.963</ele>
        <time>45978-10-19T05:16:40Z</time>
      </trkpt>
      <trkpt lat="43.308524" lon="-3.067546">
        <ele>172.584</ele>
        <time>45978-10-19T05:50:00Z</time>
      </trkpt>
      <trkpt lat="43.307930" lon="-3.067840">
        <ele>181.132</ele>
        <time>45978-10-19T06:40:00Z</time>
      </trkpt>
      <trkpt lat="43.307732" lon="-3.067686">
        <ele>184.047</ele>
        <time>45978-10-19T06:56:40Z</time>
      </trkpt>
      <trkpt lat="43.306779" lon="-3.064641">
        <ele>194.055</ele>
        <time>45978-10-19T09:26:40Z</time>
      </trkpt>
      <trkpt lat="43.306126" lon="-3.064038">
        <ele>195.935</ele>
        <time>45978-10-19T10:33:20Z</time>
      </trkpt>
      <trkpt lat="43.305765" lon="-3.063389">
        <ele>197.086</ele>
        <time>45978-10-19T11:06:40Z</time>
      </trkpt>
      <trkpt lat="43.305645" lon="-3.062221">
        <ele>201.014</ele>
        <time>45978-10-19T11:56:40Z</time>
      </trkpt>
      <trkpt lat="43.305370" lon="-3.061513">
        <ele>203.008</ele>
        <time>45978-10-19T12:46:40Z</time>
      </trkpt>
      <trkpt lat="43.305146" lon="-3.061241">
        <ele>204.134</ele>
        <time>45978-10-19T13:03:20Z</time>
      </trkpt>
      <trkpt lat="43.304269" lon="-3.060886">
        <ele>208.078</ele>
        <time>45978-10-19T14:10:00Z</time>
      </trkpt>
      <trkpt lat="43.303581" lon="-3.059729">
        <ele>206.735</ele>
        <time>45978-10-19T15:16:40Z</time>
      </trkpt>
      <trkpt lat="43.303289" lon="-3.058702">
        <ele>204.718</ele>
        <time>45978-10-19T16:06:40Z</time>
      </trkpt>
      <trkpt lat="43.303446" lon="-3.057523">
        <ele>197.299</ele>
        <time>45978-10-19T17:13:20Z</time>
      </trkpt>
      <trkpt lat="43.303093" lon="-3.056885">
        <ele>184.337</ele>
        <time>45978-10-19T17:46:40Z</time>
      </trkpt>
      <trkpt lat="43.302717" lon="-3.054513">
        <ele>173.072</ele>
        <time>45978-10-19T19:43:20Z</time>
      </trkpt>
      <trkpt lat="43.302605" lon="-3.054277">
        <ele>171.280</ele>
        <time>45978-10-19T20:00:00Z</time>
      </trkpt>
      <trkpt lat="43.301908" lon="-3.053852">
        <ele>169.694</ele>
        <time>45978-10-19T20:50:00Z</time>
      </trkpt>
      <trkpt lat="43.301702" lon="-3.053415">
        <ele>162.757</ele>
        <time>45978-10-19T21:23:20Z</time>
      </trkpt>
      <trkpt lat="43.300876" lon="-3.052919">
        <ele>150.022</ele>
        <time>45978-10-19T22:13:20Z</time>
      </trkpt>
      <trkpt lat="43.300756" lon="-3.052647">
        <ele>149.008</ele>
        <time>45978-10-19T22:30:00Z</time>
      </trkpt>
      <trkpt lat="43.300800" lon="-3.051444">
        <ele>147.610</ele>
        <time>45978-10-19T23:36:40Z</time>
      </trkpt>
      <trkpt lat="43.300930" lon="-3.051019">
        <ele>144.274</ele>
        <time>45978-10-19T23:53:20Z</time>
      </trkpt>
      <trkpt lat="43.301878" lon="-3.049935">
        <ele>145.371</ele>
        <time>45978-10-20T01:16:40Z</time>
      </trkpt>
      <trkpt lat="43.301985" lon="-3.049628">
        <ele>142.534</ele>
        <time>45978-10-20T01:33:20Z</time>
      </trkpt>
      <trkpt lat="43.301937" lon="-3.048777">
        <ele>139.195</ele>
        <time>45978-10-20T02:06:40Z</time>
      </trkpt>
      <trkpt lat="43.300724" lon="-3.046835">
        <ele>135.653</ele>
        <time>45978-10-20T04:20:00Z</time>
      </trkpt>
      <trkpt lat="43.300181" lon="-3.045444">
        <ele>137.168</ele>
        <time>45978-10-20T05:43:20Z</time>
      </trkpt>
      <trkpt lat="43.299863" lon="-3.045133">
        <ele>134.416</ele>
        <time>45978-10-20T06:00:00Z</time>
      </trkpt>
      <trkpt lat="43.298988" lon="-3.044807">
        <ele>129.281</ele>
        <time>45978-10-20T07:06:40Z</time>
      </trkpt>
      <trkpt lat="43.298595" lon="-3.044407">
        <ele>129.161</ele>
        <time>45978-10-20T07:40:00Z</time>
      </trkpt>
      <trkpt lat="43.298379" lon="-3.043689">
        <ele>136.217</ele>
        <time>45978-10-20T08:13:20Z</time>
      </trkpt>
      <trkpt lat="43.298465" lon="-3.042639">
        <ele>130.608</ele>
        <time>45978-10-20T09:20:00Z</time>
      </trkpt>
      <trkpt lat="43.298552" lon="-3.042360">
        <ele>126.479</ele>
        <time>45978-10-20T09:20:00Z</time>
      </trkpt>
      <trkpt lat="43.299073" lon="-3.042571">
        <ele>128.743</ele>
        <time>45978-10-20T10:10:00Z</time>
      </trkpt>
      <trkpt lat="43.299144" lon="-3.042835">
        <ele>130.530</ele>
        <time>45978-10-20T10:10:00Z</time>
      </trkpt>
      <trkpt lat="43.299012" lon="-3.043106">
        <ele>130.323</ele>
        <time>45978-10-20T10:26:40Z</time>
      </trkpt>
      <trkpt lat="43.298811" lon="-3.043149">
        <ele>135.014</ele>
        <time>45978-10-20T10:43:20Z</time>
      </trkpt>
      <trkpt lat="43.298464" lon="-3.043095">
        <ele>139.832</ele>
        <time>45978-10-20T11:16:40Z</time>
      </trkpt>
      <trkpt lat="43.298220" lon="-3.042853">
        <ele>143.447</ele>
        <time>45978-10-20T11:33:20Z</time>
      </trkpt>
      <trkpt lat="43.297680" lon="-3.042830">
        <ele>145.315</ele>
        <time>45978-10-20T12:06:40Z</time>
      </trkpt>
      <trkpt lat="43.297748" lon="-3.041240">
        <ele>154.783</ele>
        <time>45978-10-20T13:30:00Z</time>
      </trkpt>
      <trkpt lat="43.297097" lon="-3.039080">
        <ele>165.225</ele>
        <time>45978-10-20T15:26:40Z</time>
      </trkpt>
      <trkpt lat="43.296784" lon="-3.038835">
        <ele>168.017</ele>
        <time>45978-10-20T15:43:20Z</time>
      </trkpt>
      <trkpt lat="43.296612" lon="-3.038916">
        <ele>169.008</ele>
        <time>45978-10-20T16:00:00Z</time>
      </trkpt>
      <trkpt lat="43.295749" lon="-3.039766">
        <ele>177.789</ele>
        <time>45978-10-20T17:06:40Z</time>
      </trkpt>
      <trkpt lat="43.295355" lon="-3.039432">
        <ele>180.393</ele>
        <time>45978-10-20T17:40:00Z</time>
      </trkpt>
      <trkpt lat="43.295091" lon="-3.039551">
        <ele>184.810</ele>
        <time>45978-10-20T17:56:40Z</time>
      </trkpt>
      <trkpt lat="43.294365" lon="-3.036910">
        <ele>195.793</ele>
        <time>45978-10-20T20:26:40Z</time>
      </trkpt>
      <trkpt lat="43.294079" lon="-3.036784">
        <ele>197.634</ele>
        <time>45978-10-20T20:43:20Z</time>
      </trkpt>
      <trkpt lat="43.293340" lon="-3.037152">
        <ele>204.242</ele>
        <time>45978-10-20T21:33:20Z</time>
      </trkpt>
      <trkpt lat="43.293125" lon="-3.036390">
        <ele>206.027</ele>
        <time>45978-10-20T22:06:40Z</time>
      </trkpt>
      <trkpt lat="43.292441" lon="-3.036256">
        <ele>212.265</ele>
        <time>45978-10-20T22:56:40Z</time>
      </trkpt>
      <trkpt lat="43.292515" lon="-3.034154">
        <ele>220.943</ele>
        <time>45978-10-21T00:36:40Z</time>
      </trkpt>
      <trkpt lat="43.292212" lon="-3.033375">
        <ele>223.264</ele>
        <time>45978-10-21T01:26:40Z</time>
      </trkpt>
      <trkpt lat="43.290331" lon="-3.031151">
        <ele>236.110</ele>
        <time>45978-10-21T04:13:20Z</time>
      </trkpt>
      <trkpt lat="43.289813" lon="-3.030738">
        <ele>237.708</ele>
        <time>45978-10-21T05:03:20Z</time>
      </trkpt>
      <trkpt lat="43.289500" lon="-3.030603">
        <ele>240.575</ele>
        <time>45978-10-21T05:20:00Z</time>
      </trkpt>
      <trkpt lat="43.289025" lon="-3.031071">
        <ele>243.239</ele>
        <time>45978-10-21T05:53:20Z</time>
      </trkpt>
      <trkpt lat="43.288827" lon="-3.031000">
        <ele>246.476</ele>
        <time>45978-10-21T06:10:00Z</time>
      </trkpt>
      <trkpt lat="43.288617" lon="-3.029593">
        <ele>248.519</ele>
        <time>45978-10-21T07:33:20Z</time>
      </trkpt>
      <trkpt lat="43.288272" lon="-3.028896">
        <ele>251.890</ele>
        <time>45978-10-21T08:06:40Z</time>
      </trkpt>
      <trkpt lat="43.288079" lon="-3.028854">
        <ele>252.928</ele>
        <time>45978-10-21T08:23:20Z</time>
      </trkpt>
      <trkpt lat="43.288014" lon="-3.028978">
        <ele>252.823</ele>
        <time>45978-10-21T08:23:20Z</time>
      </trkpt>
      <trkpt lat="43.287359" lon="-3.031080">
        <ele>261.641</ele>
        <time>45978-10-21T10:20:00Z</time>
      </trkpt>
      <trkpt lat="43.286110" lon="-3.030883">
        <ele>267.129</ele>
        <time>45978-10-21T11:43:20Z</time>
      </trkpt>
      <trkpt lat="43.285284" lon="-3.030008">
        <ele>272.400</ele>
        <time>45978-10-21T12:50:00Z</time>
      </trkpt>
      <trkpt lat="43.284967" lon="-3.029159">
        <ele>267.720</ele>
        <time>45978-10-21T13:40:00Z</time>
      </trkpt>
      <trkpt lat="43.284984" lon="-3.027181">
        <ele>252.308</ele>
        <time>45978-10-21T15:20:00Z</time>
      </trkpt>
      <trkpt lat="43.283797" lon="-3.026840">
        <ele>246.383</ele>
        <time>45978-10-21T16:43:20Z</time>
      </trkpt>
      <trkpt lat="43.283473" lon="-3.025932">
        <ele>239.847</ele>
        <time>45978-10-21T17:33:20Z</time>
      </trkpt>
      <trkpt lat="43.282977" lon="-3.026011">
        <ele>235.564</ele>
        <time>45978-10-21T18:06:40Z</time>
      </trkpt>
      <trkpt lat="43.282528" lon="-3.024927">
        <ele>241.217</ele>
        <time>45978-10-21T19:13:20Z</time>
      </trkpt>
      <trkpt lat="43.282703" lon="-3.024339">
        <ele>243.018</ele>
        <time>45978-10-21T19:46:40Z</time>
      </trkpt>
      <trkpt lat="43.282594" lon="-3.024111">
        <ele>245.316</ele>
        <time>45978-10-21T20:03:20Z</time>
      </trkpt>
      <trkpt lat="43.282286" lon="-3.024022">
        <ele>249.111</ele>
        <time>45978-10-21T20:20:00Z</time>
      </trkpt>
      <trkpt lat="43.282491" lon="-3.024398">
        <ele>251.989</ele>
        <time>45978-10-21T20:36:40Z</time>
      </trkpt>
      <trkpt lat="43.282007" lon="-3.025421">
        <ele>264.369</ele>
        <time>45978-10-21T21:43:20Z</time>
      </trkpt>
      <trkpt lat="43.282114" lon="-3.024499">
        <ele>272.604</ele>
        <time>45978-10-21T22:33:20Z</time>
      </trkpt>
      <trkpt lat="43.281683" lon="-3.024262">
        <ele>278.024</ele>
        <time>45978-10-21T23:06:40Z</time>
      </trkpt>
      <trkpt lat="43.280727" lon="-3.024112">
        <ele>290.308</ele>
        <time>45978-10-22T00:13:20Z</time>
      </trkpt>
      <trkpt lat="43.280609" lon="-3.023781">
        <ele>292.937</ele>
        <time>45978-10-22T00:30:00Z</time>
      </trkpt>
      <trkpt lat="43.280644" lon="-3.022827">
        <ele>298.141</ele>
        <time>45978-10-22T01:20:00Z</time>
      </trkpt>
      <trkpt lat="43.280316" lon="-3.022399">
        <ele>301.228</ele>
        <time>45978-10-22T01:36:40Z</time>
      </trkpt>
      <trkpt lat="43.279852" lon="-3.022239">
        <ele>304.371</ele>
        <time>45978-10-22T02:26:40Z</time>
      </trkpt>
      <trkpt lat="43.279138" lon="-3.022984">
        <ele>310.982</ele>
        <time>45978-10-22T03:16:40Z</time>
      </trkpt>
      <trkpt lat="43.278901" lon="-3.023062">
        <ele>312.610</ele>
        <time>45978-10-22T03:33:20Z</time>
      </trkpt>
      <trkpt lat="43.278474" lon="-3.022012">
        <ele>316.945</ele>
        <time>45978-10-22T04:23:20Z</time>
      </trkpt>
      <trkpt lat="43.278889" lon="-3.019898">
        <ele>319.743</ele>
        <time>45978-10-22T06:20:00Z</time>
      </trkpt>
      <trkpt lat="43.278763" lon="-3.019837">
        <ele>320.269</ele>
        <time>45978-10-22T06:36:40Z</time>
      </trkpt>
      <trkpt lat="43.278064" lon="-3.020366">
        <ele>324.504</ele>
        <time>45978-10-22T07:26:40Z</time>
      </trkpt>
      <trkpt lat="43.277938" lon="-3.020313">
        <ele>326.024</ele>
        <time>45978-10-22T07:26:40Z</time>
      </trkpt>
      <trkpt lat="43.277262" lon="-3.019674">
        <ele>336.908</ele>
        <time>45978-10-22T08:33:20Z</time>
      </trkpt>
      <trkpt lat="43.276906" lon="-3.018770">
        <ele>345.867</ele>
        <time>45978-10-22T09:23:20Z</time>
      </trkpt>
      <trkpt lat="43.276634" lon="-3.018593">
        <ele>346.911</ele>
        <time>45978-10-22T09:40:00Z</time>
      </trkpt>
      <trkpt lat="43.276808" lon="-3.019006">
        <ele>352.358</ele>
        <time>45978-10-22T09:56:40Z</time>
      </trkpt>
      <trkpt lat="43.276844" lon="-3.019649">
        <ele>359.511</ele>
        <time>45978-10-22T10:30:00Z</time>
      </trkpt>
      <trkpt lat="43.276536" lon="-3.019275">
        <ele>364.892</ele>
        <time>45978-10-22T11:03:20Z</time>
      </trkpt>
      <trkpt lat="43.275549" lon="-3.019929">
        <ele>362.820</ele>
        <time>45978-10-22T12:10:00Z</time>
      </trkpt>
      <trkpt lat="43.275102" lon="-3.017750">
        <ele>375.435</ele>
        <time>45978-10-22T14:06:40Z</time>
      </trkpt>
      <trkpt lat="43.274770" lon="-3.016992">
        <ele>379.073</ele>
        <time>45978-10-22T14:56:40Z</time>
      </trkpt>
      <trkpt lat="43.273847" lon="-3.016366">
        <ele>387.324</ele>
        <time>45978-10-22T16:03:20Z</time>
      </trkpt>
      <trkpt lat="43.273294" lon="-3.016997">
        <ele>393.004</ele>
        <time>45978-10-22T16:53:20Z</time>
      </trkpt>
      <trkpt lat="43.273087" lon="-3.018265">
        <ele>401.714</ele>
        <time>45978-10-22T18:00:00Z</time>
      </trkpt>
      <trkpt lat="43.273465" lon="-3.017422">
        <ele>407.508</ele>
        <time>45978-10-22T18:50:00Z</time>
      </trkpt>
      <trkpt lat="43.273823" lon="-3.017443">
        <ele>411.123</ele>
        <time>45978-10-22T19:06:40Z</time>
      </trkpt>
      <trkpt lat="43.274062" lon="-3.018746">
        <ele>423.697</ele>
        <time>45978-10-22T20:13:20Z</time>
      </trkpt>
      <trkpt lat="43.274244" lon="-3.021136">
        <ele>447.574</ele>
        <time>45978-10-22T22:10:00Z</time>
      </trkpt>
      <trkpt lat="43.275114" lon="-3.023207">
        <ele>464.787</ele>
        <time>45978-10-23T00:06:40Z</time>
      </trkpt>
      <trkpt lat="43.275298" lon="-3.024401">
        <ele>473.818</ele>
        <time>45978-10-23T01:13:20Z</time>
      </trkpt>
      <trkpt lat="43.275302" lon="-3.025648">
        <ele>479.756</ele>
        <time>45978-10-23T02:03:20Z</time>
      </trkpt>
      <trkpt lat="43.276012" lon="-3.028860">
        <ele>510.431</ele>
        <time>45978-10-23T04:50:00Z</time>
      </trkpt>
      <trkpt lat="43.276241" lon="-3.029024">
        <ele>513.569</ele>
        <time>45978-10-23T05:06:40Z</time>
      </trkpt>
      <trkpt lat="43.276403" lon="-3.030005">
        <ele>519.857</ele>
        <time>45978-10-23T05:56:40Z</time>
      </trkpt>
      <trkpt lat="43.276883" lon="-3.031048">
        <ele>525.000</ele>
        <time>45978-10-23T07:03:20Z</time>
      </trkpt>
      <trkpt lat="43.277280" lon="-3.031497">
        <ele>529.120</ele>
        <time>45978-10-23T07:36:40Z</time>
      </trkpt>
      <trkpt lat="43.277697" lon="-3.032802">
        <ele>535.208</ele>
        <time>45978-10-23T08:43:20Z</time>
      </trkpt>
      <trkpt lat="43.277805" lon="-3.033849">
        <ele>541.796</ele>
        <time>45978-10-23T09:33:20Z</time>
      </trkpt>
      <trkpt lat="43.277598" lon="-3.035175">
        <ele>541.730</ele>
        <time>45978-10-23T10:40:00Z</time>
      </trkpt>
      <trkpt lat="43.278319" lon="-3.035884">
        <ele>539.987</ele>
        <time>45978-10-23T11:46:40Z</time>
      </trkpt>
      <trkpt lat="43.278290" lon="-3.036232">
        <ele>536.880</ele>
        <time>45978-10-23T12:03:20Z</time>
      </trkpt>
      <trkpt lat="43.278758" lon="-3.036776">
        <ele>529.211</ele>
        <time>45978-10-23T12:36:40Z</time>
      </trkpt>
      <trkpt lat="43.278862" lon="-3.037133">
        <ele>523.139</ele>
        <time>45978-10-23T12:53:20Z</time>
      </trkpt>
      <trkpt lat="43.278090" lon="-3.037908">
        <ele>524.794</ele>
        <time>45978-10-23T14:00:00Z</time>
      </trkpt>
      <trkpt lat="43.278040" lon="-3.038185">
        <ele>523.952</ele>
        <time>45978-10-23T14:16:40Z</time>
      </trkpt>
      <trkpt lat="43.277575" lon="-3.038679">
        <ele>518.615</ele>
        <time>45978-10-23T14:50:00Z</time>
      </trkpt>
      <trkpt lat="43.277161" lon="-3.039811">
        <ele>500.065</ele>
        <time>45978-10-23T15:56:40Z</time>
      </trkpt>
      <trkpt lat="43.277331" lon="-3.040502">
        <ele>497.011</ele>
        <time>45978-10-23T16:30:00Z</time>
      </trkpt>
      <trkpt lat="43.276512" lon="-3.041096">
        <ele>496.208</ele>
        <time>45978-10-23T17:36:40Z</time>
      </trkpt>
      <trkpt lat="43.275944" lon="-3.041873">
        <ele>505.182</ele>
        <time>45978-10-23T18:26:40Z</time>
      </trkpt>
      <trkpt lat="43.275507" lon="-3.042722">
        <ele>505.386</ele>
        <time>45978-10-23T19:16:40Z</time>
      </trkpt>
      <trkpt lat="43.275608" lon="-3.043337">
        <ele>500.923</ele>
        <time>45978-10-23T19:50:00Z</time>
      </trkpt>
      <trkpt lat="43.276022" lon="-3.043895">
        <ele>496.146</ele>
        <time>45978-10-23T20:40:00Z</time>
      </trkpt>
      <trkpt lat="43.276288" lon="-3.044963">
        <ele>489.277</ele>
        <time>45978-10-23T21:30:00Z</time>
      </trkpt>
      <trkpt lat="43.277235" lon="-3.046274">
        <ele>480.675</ele>
        <time>45978-10-23T22:53:20Z</time>
      </trkpt>
      <trkpt lat="43.276993" lon="-3.046403">
        <ele>479.990</ele>
        <time>45978-10-23T23:10:00Z</time>
      </trkpt>
      <trkpt lat="43.276976" lon="-3.046710">
        <ele>476.028</ele>
        <time>45978-10-23T23:26:40Z</time>
      </trkpt>
      <trkpt lat="43.277880" lon="-3.047956">
        <ele>462.879</ele>
        <time>45978-10-24T00:50:00Z</time>
      </trkpt>
      <trkpt lat="43.278667" lon="-3.048717">
        <ele>453.005</ele>
        <time>45978-10-24T01:56:40Z</time>
      </trkpt>
      <trkpt lat="43.279022" lon="-3.049648">
        <ele>452.525</ele>
        <time>45978-10-24T02:46:40Z</time>
      </trkpt>
      <trkpt lat="43.279193" lon="-3.050562">
        <ele>458.808</ele>
        <time>45978-10-24T03:36:40Z</time>
      </trkpt>
      <trkpt lat="43.279010" lon="-3.051145">
        <ele>463.568</ele>
        <time>45978-10-24T04:10:00Z</time>
      </trkpt>
      <trkpt lat="43.279086" lon="-3.052641">
        <ele>461.732</ele>
        <time>45978-10-24T05:16:40Z</time>
      </trkpt>
      <trkpt lat="43.279305" lon="-3.053774">
        <ele>459.649</ele>
        <time>45978-10-24T06:23:20Z</time>
      </trkpt>
      <trkpt lat="43.279708" lon="-3.054316">
        <ele>456.352</ele>
        <time>45978-10-24T06:56:40Z</time>
      </trkpt>
      <trkpt lat="43.279495" lon="-3.054486">
        <ele>457.013</ele>
        <time>45978-10-24T07:13:20Z</time>
      </trkpt>
      <trkpt lat="43.280199" lon="-3.057512">
        <ele>464.151</ele>
        <time>45978-10-24T09:43:20Z</time>
      </trkpt>
      <trkpt lat="43.280494" lon="-3.057779">
        <ele>463.086</ele>
        <time>45978-10-24T10:16:40Z</time>
      </trkpt>
      <trkpt lat="43.280169" lon="-3.058928">
        <ele>466.594</ele>
        <time>45978-10-24T11:06:40Z</time>
      </trkpt>
      <trkpt lat="43.280193" lon="-3.059284">
        <ele>466.898</ele>
        <time>45978-10-24T11:23:20Z</time>
      </trkpt>
      <trkpt lat="43.280293" lon="-3.060060">
        <ele>468.315</ele>
        <time>45978-10-24T12:13:20Z</time>
      </trkpt>
      <trkpt lat="43.280792" lon="-3.061438">
        <ele>474.226</ele>
        <time>45978-10-24T13:20:00Z</time>
      </trkpt>
      <trkpt lat="43.281005" lon="-3.061218">
        <ele>475.308</ele>
        <time>45978-10-24T13:36:40Z</time>
      </trkpt>
      <trkpt lat="43.281278" lon="-3.061551">
        <ele>474.680</ele>
        <time>45978-10-24T14:10:00Z</time>
      </trkpt>
      <trkpt lat="43.281941" lon="-3.061884">
        <ele>468.774</ele>
        <time>45978-10-24T15:00:00Z</time>
      </trkpt>
      <trkpt lat="43.282196" lon="-3.062874">
        <ele>470.161</ele>
        <time>45978-10-24T15:50:00Z</time>
      </trkpt>
      <trkpt lat="43.282705" lon="-3.063653">
        <ele>461.624</ele>
        <time>45978-10-24T16:40:00Z</time>
      </trkpt>
      <trkpt lat="43.283091" lon="-3.065641">
        <ele>452.635</ele>
        <time>45978-10-24T18:20:00Z</time>
      </trkpt>
      <trkpt lat="43.283395" lon="-3.065804">
        <ele>454.943</ele>
        <time>45978-10-24T18:36:40Z</time>
      </trkpt>
      <trkpt lat="43.283795" lon="-3.066717">
        <ele>457.688</ele>
        <time>45978-10-24T19:26:40Z</time>
      </trkpt>
      <trkpt lat="43.284303" lon="-3.066513">
        <ele>458.096</ele>
        <time>45978-10-24T20:00:00Z</time>
      </trkpt>
      <trkpt lat="43.285081" lon="-3.066800">
        <ele>458.827</ele>
        <time>45978-10-24T21:06:40Z</time>
      </trkpt>
      <trkpt lat="43.285535" lon="-3.067184">
        <ele>459.868</ele>
        <time>45978-10-24T21:40:00Z</time>
      </trkpt>
      <trkpt lat="43.286163" lon="-3.068266">
        <ele>460.414</ele>
        <time>45978-10-24T22:46:40Z</time>
      </trkpt>
      <trkpt lat="43.286328" lon="-3.071060">
        <ele>463.508</ele>
        <time>45978-10-25T01:33:20Z</time>
      </trkpt>
      <trkpt lat="43.285721" lon="-3.074125">
        <ele>466.093</ele>
        <time>45978-10-25T03:46:40Z</time>
      </trkpt>
      <trkpt lat="43.285338" lon="-3.075068">
        <ele>467.977</ele>
        <time>45978-10-25T04:20:00Z</time>
      </trkpt>
      <trkpt lat="43.284086" lon="-3.075068">
        <ele>477.884</ele>
        <time>45978-10-25T06:33:20Z</time>
      </trkpt>
      <trkpt lat="43.283394" lon="-3.075515">
        <ele>479.217</ele>
        <time>45978-10-25T06:50:00Z</time>
      </trkpt>
      <trkpt lat="43.283155" lon="-3.075939">
        <ele>481.058</ele>
        <time>45978-10-25T07:23:20Z</time>
      </trkpt>
      <trkpt lat="43.283583" lon="-3.078002">
        <ele>488.476</ele>
        <time>45978-10-25T09:03:20Z</time>
      </trkpt>
      <trkpt lat="43.282925" lon="-3.077044">
        <ele>499.551</ele>
        <time>45978-10-25T09:53:20Z</time>
      </trkpt>
      <trkpt lat="43.282499" lon="-3.076798">
        <ele>505.719</ele>
        <time>45978-10-25T10:26:40Z</time>
      </trkpt>
      <trkpt lat="43.282117" lon="-3.076780">
        <ele>510.333</ele>
        <time>45978-10-25T11:00:00Z</time>
      </trkpt>
      <trkpt lat="43.281793" lon="-3.077509">
        <ele>514.323</ele>
        <time>45978-10-25T11:33:20Z</time>
      </trkpt>
      <trkpt lat="43.281167" lon="-3.078023">
        <ele>516.315</ele>
        <time>45978-10-25T12:23:20Z</time>
      </trkpt>
      <trkpt lat="43.280675" lon="-3.078835">
        <ele>520.708</ele>
        <time>45978-10-25T13:13:20Z</time>
      </trkpt>
      <trkpt lat="43.280117" lon="-3.079346">
        <ele>529.264</ele>
        <time>45978-10-25T14:03:20Z</time>
      </trkpt>
      <trkpt lat="43.278603" lon="-3.075635">
        <ele>566.478</ele>
        <time>45978-10-25T17:40:00Z</time>
      </trkpt>
      <trkpt lat="43.278143" lon="-3.075243">
        <ele>572.335</ele>
        <time>45978-10-25T18:13:20Z</time>
      </trkpt>
      <trkpt lat="43.277190" lon="-3.075719">
        <ele>584.718</ele>
        <time>45978-10-25T19:20:00Z</time>
      </trkpt>
      <trkpt lat="43.276603" lon="-3.075632">
        <ele>590.869</ele>
        <time>45978-10-25T19:53:20Z</time>
      </trkpt>
      <trkpt lat="43.276191" lon="-3.075390">
        <ele>595.737</ele>
        <time>45978-10-25T20:26:40Z</time>
      </trkpt>
      <trkpt lat="43.275725" lon="-3.075483">
        <ele>598.612</ele>
        <time>45978-10-25T21:00:00Z</time>
      </trkpt>
      <trkpt lat="43.275038" lon="-3.076212">
        <ele>608.180</ele>
        <time>45978-10-25T22:06:40Z</time>
      </trkpt>
      <trkpt lat="43.274123" lon="-3.077607">
        <ele>624.316</ele>
        <time>45978-10-25T23:30:00Z</time>
      </trkpt>
      <trkpt lat="43.273606" lon="-3.077722">
        <ele>628.576</ele>
        <time>45978-10-26T00:03:20Z</time>
      </trkpt>
      <trkpt lat="43.273142" lon="-3.077345">
        <ele>633.113</ele>
        <time>45978-10-26T00:36:40Z</time>
      </trkpt>
      <trkpt lat="43.272827" lon="-3.077311">
        <ele>635.208</ele>
        <time>45978-10-26T01:10:00Z</time>
      </trkpt>
      <trkpt lat="43.272155" lon="-3.078342">
        <ele>647.242</ele>
        <time>45978-10-26T02:16:40Z</time>
      </trkpt>
      <trkpt lat="43.271512" lon="-3.078659">
        <ele>654.696</ele>
        <time>45978-10-26T02:50:00Z</time>
      </trkpt>
      <trkpt lat="43.271404" lon="-3.078526">
        <ele>657.463</ele>
        <time>45978-10-26T03:06:40Z</time>
      </trkpt>
      <trkpt lat="43.271495" lon="-3.077913">
        <ele>661.216</ele>
        <time>45978-10-26T03:40:00Z</time>
      </trkpt>
      <trkpt lat="43.270930" lon="-3.076086">
        <ele>674.927</ele>
        <time>45978-10-26T05:20:00Z</time>
      </trkpt>
      <trkpt lat="43.270461" lon="-3.075345">
        <ele>679.785</ele>
        <time>45978-10-26T06:10:00Z</time>
      </trkpt>
      <trkpt lat="43.269654" lon="-3.074956">
        <ele>683.030</ele>
        <time>45978-10-26T07:00:00Z</time>
      </trkpt>
      <trkpt lat="43.268347" lon="-3.074905">
        <ele>689.438</ele>
        <time>45978-10-26T08:23:20Z</time>
      </trkpt>
      <trkpt lat="43.267342" lon="-3.075526">
        <ele>692.079</ele>
        <time>45978-10-26T09:46:40Z</time>
      </trkpt>
      <trkpt lat="43.265992" lon="-3.075775">
        <ele>694.005</ele>
        <time>45978-10-26T11:10:00Z</time>
      </trkpt>
      <trkpt lat="43.264407" lon="-3.076546">
        <ele>692.325</ele>
        <time>45978-10-26T13:06:40Z</time>
      </trkpt>
      <trkpt lat="43.263143" lon="-3.076252">
        <ele>685.508</ele>
        <time>45978-10-26T14:30:00Z</time>
      </trkpt>
      <trkpt lat="43.262594" lon="-3.076285">
        <ele>681.158</ele>
        <time>45978-10-26T15:03:20Z</time>
      </trkpt>
      <trkpt lat="43.262069" lon="-3.076586">
        <ele>675.632</ele>
        <time>45978-10-26T15:53:20Z</time>
      </trkpt>
      <trkpt lat="43.262044" lon="-3.076831">
        <ele>673.769</ele>
        <time>45978-10-26T15:53:20Z</time>
      </trkpt>
      <trkpt lat="43.262561" lon="-3.077806">
        <ele>671.242</ele>
        <time>45978-10-26T17:00:00Z</time>
      </trkpt>
      <trkpt lat="43.262807" lon="-3.078678">
        <ele>668.493</ele>
        <time>45978-10-26T17:50:00Z</time>
      </trkpt>
      <trkpt lat="43.263523" lon="-3.079231">
        <ele>666.661</ele>
        <time>45978-10-26T18:40:00Z</time>
      </trkpt>
      <trkpt lat="43.264170" lon="-3.080525">
        <ele>663.576</ele>
        <time>45978-10-26T19:46:40Z</time>
      </trkpt>
      <trkpt lat="43.264944" lon="-3.081414">
        <ele>653.844</ele>
        <time>45978-10-26T21:10:00Z</time>
      </trkpt>
      <trkpt lat="43.264969" lon="-3.082894">
        <ele>650.427</ele>
        <time>45978-10-26T22:16:40Z</time>
      </trkpt>
      <trkpt lat="43.265097" lon="-3.083114">
        <ele>647.168</ele>
        <time>45978-10-26T22:16:40Z</time>
      </trkpt>
      <trkpt lat="43.266382" lon="-3.084713">
        <ele>631.014</ele>
        <time>45978-10-27T00:30:00Z</time>
      </trkpt>
      <trkpt lat="43.267015" lon="-3.085130">
        <ele>624.808</ele>
        <time>45978-10-27T01:20:00Z</time>
      </trkpt>
      <trkpt lat="43.267328" lon="-3.085769">
        <ele>623.293</ele>
        <time>45978-10-27T01:53:20Z</time>
      </trkpt>
      <trkpt lat="43.268612" lon="-3.087129">
        <ele>622.027</ele>
        <time>45978-10-27T04:23:20Z</time>
      </trkpt>
      <trkpt lat="43.268890" lon="-3.087589">
        <ele>624.254</ele>
        <time>45978-10-27T04:40:00Z</time>
      </trkpt>
      <trkpt lat="43.269280" lon="-3.088853">
        <ele>607.177</ele>
        <time>45978-10-27T05:46:40Z</time>
      </trkpt>
      <trkpt lat="43.270626" lon="-3.089243">
        <ele>609.568</ele>
        <time>45978-10-27T07:26:40Z</time>
      </trkpt>
      <trkpt lat="43.270829" lon="-3.089145">
        <ele>615.766</ele>
        <time>45978-10-27T07:43:20Z</time>
      </trkpt>
      <trkpt lat="43.271152" lon="-3.088431">
        <ele>620.881</ele>
        <time>45978-10-27T08:16:40Z</time>
      </trkpt>
      <trkpt lat="43.271381" lon="-3.088424">
        <ele>619.879</ele>
        <time>45978-10-27T08:33:20Z</time>
      </trkpt>
      <trkpt lat="43.271605" lon="-3.088555">
        <ele>621.793</ele>
        <time>45978-10-27T08:50:00Z</time>
      </trkpt>
      <trkpt lat="43.271853" lon="-3.088499">
        <ele>626.365</ele>
        <time>45978-10-27T09:06:40Z</time>
      </trkpt>
      <trkpt lat="43.272758" lon="-3.089257">
        <ele>621.421</ele>
        <time>45978-10-27T10:13:20Z</time>
      </trkpt>
      <trkpt lat="43.273301" lon="-3.089354">
        <ele>618.008</ele>
        <time>45978-10-27T11:03:20Z</time>
      </trkpt>
      <trkpt lat="43.273746" lon="-3.089901">
        <ele>612.680</ele>
        <time>45978-10-27T11:36:40Z</time>
      </trkpt>
      <trkpt lat="43.273806" lon="-3.090290">
        <ele>611.934</ele>
        <time>45978-10-27T11:53:20Z</time>
      </trkpt>
      <trkpt lat="43.274296" lon="-3.090835">
        <ele>609.691</ele>
        <time>45978-10-27T12:43:20Z</time>
      </trkpt>
      <trkpt lat="43.274464" lon="-3.091744">
        <ele>611.414</ele>
        <time>45978-10-27T13:33:20Z</time>
      </trkpt>
      <trkpt lat="43.275652" lon="-3.094407">
        <ele>600.035</ele>
        <time>45978-10-27T16:20:00Z</time>
      </trkpt>
      <trkpt lat="43.276546" lon="-3.095050">
        <ele>591.443</ele>
        <time>45978-10-27T17:10:00Z</time>
      </trkpt>
      <trkpt lat="43.276806" lon="-3.095071">
        <ele>592.588</ele>
        <time>45978-10-27T17:26:40Z</time>
      </trkpt>
      <trkpt lat="43.277377" lon="-3.095855">
        <ele>585.996</ele>
        <time>45978-10-27T18:33:20Z</time>
      </trkpt>
      <trkpt lat="43.277713" lon="-3.095833">
        <ele>584.611</ele>
        <time>45978-10-27T18:50:00Z</time>
      </trkpt>
      <trkpt lat="43.278357" lon="-3.095482">
        <ele>588.921</ele>
        <time>45978-10-27T20:13:20Z</time>
      </trkpt>
      <trkpt lat="43.278575" lon="-3.095058">
        <ele>589.103</ele>
        <time>45978-10-27T20:30:00Z</time>
      </trkpt>
      <trkpt lat="43.278767" lon="-3.094275">
        <ele>588.508</ele>
        <time>45978-10-27T21:20:00Z</time>
      </trkpt>
      <trkpt lat="43.278541" lon="-3.092887">
        <ele>583.172</ele>
        <time>45978-09-18T18:10:00Z</time>
      </trkpt>
      <trkpt lat="43.278754" lon="-3.092697">
        <ele>578.626</ele>
        <time>45568-02-07T20:00:00Z</time>
      </trkpt>
      <trkpt lat="43.279968" lon="-3.093019">
        <ele>582.033</ele>
        <time>45978-10-27T23:16:40Z</time>
      </trkpt>
      <trkpt lat="43.281231" lon="-3.094192">
        <ele>598.046</ele>
        <time>45978-10-28T00:56:40Z</time>
      </trkpt>
      <trkpt lat="43.281763" lon="-3.094450">
        <ele>604.367</ele>
        <time>45978-10-28T01:46:40Z</time>
      </trkpt>
      <trkpt lat="43.282196" lon="-3.094328">
        <ele>612.695</ele>
        <time>45978-10-28T02:20:00Z</time>
      </trkpt>
      <trkpt lat="43.282514" lon="-3.094758">
        <ele>613.070</ele>
        <time>45978-10-28T03:10:00Z</time>
      </trkpt>
      <trkpt lat="43.283103" lon="-3.094185">
        <ele>617.758</ele>
        <time>45978-10-28T04:00:00Z</time>
      </trkpt>
      <trkpt lat="43.283567" lon="-3.093003">
        <ele>628.439</ele>
        <time>45978-08-21T17:40:00Z</time>
      </trkpt>
      <trkpt lat="43.283823" lon="-3.092873">
        <ele>630.401</ele>
        <time>45309-10-11T21:06:40Z</time>
      </trkpt>
      <trkpt lat="43.284141" lon="-3.093869">
        <ele>631.021</ele>
        <time>45978-10-28T05:56:40Z</time>
      </trkpt>
      <trkpt lat="43.284021" lon="-3.094335">
        <ele>631.008</ele>
        <time>45978-10-28T06:13:20Z</time>
      </trkpt>
      <trkpt lat="43.283245" lon="-3.095308">
        <ele>629.924</ele>
        <time>45978-10-28T07:20:00Z</time>
      </trkpt>
      <trkpt lat="43.283041" lon="-3.095947">
        <ele>628.488</ele>
        <time>45978-10-28T08:10:00Z</time>
      </trkpt>
      <trkpt lat="43.284547" lon="-3.096693">
        <ele>619.165</ele>
        <time>45978-10-28T09:50:00Z</time>
      </trkpt>
      <trkpt lat="43.285283" lon="-3.096900">
        <ele>605.218</ele>
        <time>45978-10-28T10:40:00Z</time>
      </trkpt>
      <trkpt lat="43.285612" lon="-3.097587">
        <ele>603.129</ele>
        <time>45978-10-28T11:30:00Z</time>
      </trkpt>
      <trkpt lat="43.286247" lon="-3.097911">
        <ele>598.247</ele>
        <time>45978-10-28T12:03:20Z</time>
      </trkpt>
      <trkpt lat="43.285680" lon="-3.098245">
        <ele>590.972</ele>
        <time>45978-10-28T12:36:40Z</time>
      </trkpt>
      <trkpt lat="43.284663" lon="-3.097831">
        <ele>581.030</ele>
        <time>45978-10-28T13:43:20Z</time>
      </trkpt>
      <trkpt lat="43.284412" lon="-3.097860">
        <ele>578.393</ele>
        <time>45978-10-28T14:16:40Z</time>
      </trkpt>
      <trkpt lat="43.284188" lon="-3.098032">
        <ele>576.465</ele>
        <time>45978-10-28T14:33:20Z</time>
      </trkpt>
      <trkpt lat="43.283802" lon="-3.098941">
        <ele>566.921</ele>
        <time>45978-10-28T15:23:20Z</time>
      </trkpt>
      <trkpt lat="43.283046" lon="-3.098884">
        <ele>559.108</ele>
        <time>45978-10-28T16:30:00Z</time>
      </trkpt>
      <trkpt lat="43.282983" lon="-3.100109">
        <ele>548.350</ele>
        <time>45978-10-28T17:20:00Z</time>
      </trkpt>
      <trkpt lat="43.283437" lon="-3.102968">
        <ele>522.694</ele>
        <time>45978-10-28T19:33:20Z</time>
      </trkpt>
      <trkpt lat="43.283140" lon="-3.103613">
        <ele>528.841</ele>
        <time>45978-10-28T20:23:20Z</time>
      </trkpt>
      <trkpt lat="43.283811" lon="-3.104591">
        <ele>505.214</ele>
        <time>45978-10-28T20:56:40Z</time>
      </trkpt>
      <trkpt lat="43.283887" lon="-3.105073">
        <ele>500.735</ele>
        <time>45978-10-28T21:30:00Z</time>
      </trkpt>
      <trkpt lat="43.283948" lon="-3.106310">
        <ele>492.753</ele>
        <time>45978-10-28T22:36:40Z</time>
      </trkpt>
      <trkpt lat="43.283777" lon="-3.109222">
        <ele>480.818</ele>
        <time>45978-10-29T00:50:00Z</time>
      </trkpt>
      <trkpt lat="43.283884" lon="-3.110291">
        <ele>473.426</ele>
        <time>45978-10-29T01:40:00Z</time>
      </trkpt>
      <trkpt lat="43.284100" lon="-3.110863">
        <ele>470.613</ele>
        <time>45978-10-29T02:30:00Z</time>
      </trkpt>
      <trkpt lat="43.283693" lon="-3.111307">
        <ele>467.043</ele>
        <time>45978-10-29T02:03:20Z</time>
      </trkpt>
      <trkpt lat="43.283641" lon="-3.111629">
        <ele>466.207</ele>
        <time>45978-10-29T02:20:00Z</time>
      </trkpt>
      <trkpt lat="43.284144" lon="-3.111989">
        <ele>463.308</ele>
        <time>45978-10-29T02:36:40Z</time>
      </trkpt>
      <trkpt lat="43.284435" lon="-3.111759">
        <ele>460.742</ele>
        <time>45978-10-29T03:10:00Z</time>
      </trkpt>
      <trkpt lat="43.284528" lon="-3.111360">
        <ele>455.236</ele>
        <time>45978-10-29T03:26:40Z</time>
      </trkpt>
      <trkpt lat="43.284415" lon="-3.110164">
        <ele>447.593</ele>
        <time>45978-10-29T04:16:40Z</time>
      </trkpt>
      <trkpt lat="43.284597" lon="-3.108918">
        <ele>437.816</ele>
        <time>45978-10-29T05:23:20Z</time>
      </trkpt>
      <trkpt lat="43.284783" lon="-3.109972">
        <ele>429.667</ele>
        <time>45978-10-06T01:26:40Z</time>
      </trkpt>
      <trkpt lat="43.285475" lon="-3.110917">
        <ele>420.135</ele>
        <time>45978-10-29T07:20:00Z</time>
      </trkpt>
      <trkpt lat="43.285202" lon="-3.109630">
        <ele>411.970</ele>
        <time>45978-10-29T08:43:20Z</time>
      </trkpt>
      <trkpt lat="43.285437" lon="-3.108657">
        <ele>405.188</ele>
        <time>45978-10-29T09:16:40Z</time>
      </trkpt>
      <trkpt lat="43.285405" lon="-3.107790">
        <ele>397.481</ele>
        <time>45978-10-29T09:50:00Z</time>
      </trkpt>
      <trkpt lat="43.285775" lon="-3.108678">
        <ele>391.161</ele>
        <time>45978-10-29T10:40:00Z</time>
      </trkpt>
      <trkpt lat="43.285708" lon="-3.109963">
        <ele>388.717</ele>
        <time>45978-10-29T11:46:40Z</time>
      </trkpt>
      <trkpt lat="43.286389" lon="-3.111255">
        <ele>389.508</ele>
        <time>45978-10-29T13:10:00Z</time>
      </trkpt>
      <trkpt lat="43.286266" lon="-3.111766">
        <ele>386.599</ele>
        <time>45978-10-29T14:00:00Z</time>
      </trkpt>
      <trkpt lat="43.285807" lon="-3.112177">
        <ele>380.263</ele>
        <time>46672-02-08T17:36:40Z</time>
      </trkpt>
      <trkpt lat="43.286578" lon="-3.111894">
        <ele>368.310</ele>
        <time>45978-10-29T14:50:00Z</time>
      </trkpt>
      <trkpt lat="43.286788" lon="-3.111597">
        <ele>364.733</ele>
        <time>45978-10-29T15:23:20Z</time>
      </trkpt>
      <trkpt lat="43.286700" lon="-3.111990">
        <ele>360.164</ele>
        <time>45978-10-29T15:40:00Z</time>
      </trkpt>
      <trkpt lat="43.286050" lon="-3.112861">
        <ele>350.722</ele>
        <time>45978-10-29T17:03:20Z</time>
      </trkpt>
      <trkpt lat="43.286560" lon="-3.114372">
        <ele>340.277</ele>
        <time>45978-10-29T18:26:40Z</time>
      </trkpt>
      <trkpt lat="43.286641" lon="-3.115147">
        <ele>332.965</ele>
        <time>45978-10-29T18:43:20Z</time>
      </trkpt>
      <trkpt lat="43.286583" lon="-3.116083">
        <ele>331.251</ele>
        <time>45978-10-29T19:33:20Z</time>
      </trkpt>
      <trkpt lat="43.286197" lon="-3.116900">
        <ele>324.901</ele>
        <time>45978-10-29T20:23:20Z</time>
      </trkpt>
      <trkpt lat="43.285102" lon="-3.117211">
        <ele>318.111</ele>
        <time>45978-10-29T21:30:00Z</time>
      </trkpt>
      <trkpt lat="43.284530" lon="-3.118891">
        <ele>311.508</ele>
        <time>45978-10-29T23:10:00Z</time>
      </trkpt>
      <trkpt lat="43.283532" lon="-3.120383">
        <ele>291.996</ele>
        <time>45978-10-30T00:50:00Z</time>
      </trkpt>
      <trkpt lat="43.282825" lon="-3.120472">
        <ele>288.060</ele>
        <time>45978-10-30T01:23:20Z</time>
      </trkpt>
      <trkpt lat="43.282372" lon="-3.120380">
        <ele>284.697</ele>
        <time>45978-10-30T01:56:40Z</time>
      </trkpt>
      <trkpt lat="43.282071" lon="-3.119733">
        <ele>286.370</ele>
        <time>45978-10-30T02:46:40Z</time>
      </trkpt>
      <trkpt lat="43.281666" lon="-3.119732">
        <ele>285.021</ele>
        <time>45978-10-30T03:03:20Z</time>
      </trkpt>
      <trkpt lat="43.280955" lon="-3.118902">
        <ele>282.969</ele>
        <time>45978-10-30T04:10:00Z</time>
      </trkpt>
      <trkpt lat="43.280469" lon="-3.116698">
        <ele>263.114</ele>
        <time>45978-10-30T06:06:40Z</time>
      </trkpt>
      <trkpt lat="43.280446" lon="-3.115853">
        <ele>258.452</ele>
        <time>45978-10-30T06:40:00Z</time>
      </trkpt>
      <trkpt lat="43.280653" lon="-3.115241">
        <ele>253.287</ele>
        <time>45978-10-30T07:13:20Z</time>
      </trkpt>
      <trkpt lat="43.280062" lon="-3.114362">
        <ele>244.042</ele>
        <time>45978-10-30T08:20:00Z</time>
      </trkpt>
      <trkpt lat="43.279979" lon="-3.113376">
        <ele>237.926</ele>
        <time>45978-10-30T09:10:00Z</time>
      </trkpt>
      <trkpt lat="43.279791" lon="-3.113015">
        <ele>235.608</ele>
        <time>45978-10-30T09:26:40Z</time>
      </trkpt>
      <trkpt lat="43.279674" lon="-3.113136">
        <ele>233.059</ele>
        <time>45978-10-30T09:26:40Z</time>
      </trkpt>
      <trkpt lat="43.279853" lon="-3.115014">
        <ele>222.483</ele>
        <time>45978-10-30T11:06:40Z</time>
      </trkpt>
      <trkpt lat="43.279436" lon="-3.115585">
        <ele>217.020</ele>
        <time>45978-10-30T11:40:00Z</time>
      </trkpt>
      <trkpt lat="43.279333" lon="-3.116363">
        <ele>211.783</ele>
        <time>45978-10-30T12:13:20Z</time>
      </trkpt>
      <trkpt lat="43.279305" lon="-3.115211">
        <ele>206.884</ele>
        <time>45978-10-30T13:20:00Z</time>
      </trkpt>
      <trkpt lat="43.279136" lon="-3.115103">
        <ele>204.072</ele>
        <time>45978-10-30T13:36:40Z</time>
      </trkpt>
      <trkpt lat="43.278724" lon="-3.116402">
        <ele>189.467</ele>
        <time>45978-10-30T14:43:20Z</time>
      </trkpt>
      <trkpt lat="43.278887" lon="-3.117138">
        <ele>187.725</ele>
        <time>45978-10-30T15:16:40Z</time>
      </trkpt>
      <trkpt lat="43.278748" lon="-3.117577">
        <ele>190.146</ele>
        <time>45978-10-30T15:50:00Z</time>
      </trkpt>
      <trkpt lat="43.278319" lon="-3.118122">
        <ele>185.888</ele>
        <time>45978-10-30T16:23:20Z</time>
      </trkpt>
      <trkpt lat="43.277709" lon="-3.118352">
        <ele>183.216</ele>
        <time>45978-10-30T16:56:40Z</time>
      </trkpt>
      <trkpt lat="43.277358" lon="-3.119047">
        <ele>178.208</ele>
        <time>45978-10-30T17:46:40Z</time>
      </trkpt>
      <trkpt lat="43.276622" lon="-3.119497">
        <ele>166.535</ele>
        <time>45978-10-30T18:36:40Z</time>
      </trkpt>
      <trkpt lat="43.276303" lon="-3.120200">
        <ele>159.679</ele>
        <time>45978-10-30T19:26:40Z</time>
      </trkpt>
      <trkpt lat="43.275566" lon="-3.120651">
        <ele>145.966</ele>
        <time>45978-10-30T20:16:40Z</time>
      </trkpt>
      <trkpt lat="43.275129" lon="-3.121110">
        <ele>137.779</ele>
        <time>45978-10-30T20:50:00Z</time>
      </trkpt>
      <trkpt lat="43.273942" lon="-3.120768">
        <ele>122.910</ele>
        <time>45978-10-30T22:13:20Z</time>
      </trkpt>
      <trkpt lat="43.273761" lon="-3.119699">
        <ele>120.128</ele>
        <time>45978-10-30T23:03:20Z</time>
      </trkpt>
      <trkpt lat="43.273246" lon="-3.118726">
        <ele>121.463</ele>
        <time>45978-10-31T00:10:00Z</time>
      </trkpt>
      <trkpt lat="43.273202" lon="-3.117914">
        <ele>121.861</ele>
        <time>45978-10-31T00:43:20Z</time>
      </trkpt>
      <trkpt lat="43.272426" lon="-3.117386">
        <ele>118.176</ele>
        <time>45978-10-31T01:50:00Z</time>
      </trkpt>
      <trkpt lat="43.272230" lon="-3.117345">
        <ele>115.190</ele>
        <time>45978-10-31T02:06:40Z</time>
      </trkpt>
      <trkpt lat="43.272107" lon="-3.117474">
        <ele>113.519</ele>
        <time>45978-10-31T02:06:40Z</time>
      </trkpt>
      <trkpt lat="43.272099" lon="-3.117991">
        <ele>108.408</ele>
        <time>45978-10-31T02:40:00Z</time>
      </trkpt>
      <trkpt lat="43.271530" lon="-3.117625">
        <ele>100.388</ele>
        <time>45232-03-07T10:13:20Z</time>
      </trkpt>
      <trkpt lat="43.271708" lon="-3.118208">
        <ele>99.612</ele>
        <time>45978-10-31T03:13:20Z</time>
      </trkpt>
      <trkpt lat="43.271625" lon="-3.118669">
        <ele>97.079</ele>
        <time>45978-10-31T03:46:40Z</time>
      </trkpt>
      <trkpt lat="43.271356" lon="-3.118636">
        <ele>98.822</ele>
        <time>45978-10-31T04:03:20Z</time>
      </trkpt>
      <trkpt lat="43.271063" lon="-3.118810">
        <ele>98.183</ele>
        <time>45978-10-31T04:36:40Z</time>
      </trkpt>
      <trkpt lat="43.270483" lon="-3.120120">
        <ele>96.091</ele>
        <time>45978-10-31T05:26:40Z</time>
      </trkpt>
      <trkpt lat="43.270589" lon="-3.120816">
        <ele>94.766</ele>
        <time>45318-07-03T03:40:00Z</time>
      </trkpt>
      <trkpt lat="43.271091" lon="-3.121226">
        <ele>93.364</ele>
        <time>45978-10-31T06:33:20Z</time>
      </trkpt>
      <trkpt lat="43.271015" lon="-3.121769">
        <ele>90.416</ele>
        <time>45978-10-31T07:06:40Z</time>
      </trkpt>
      <trkpt lat="43.271319" lon="-3.122061">
        <ele>94.376</ele>
        <time>45978-10-31T07:06:40Z</time>
      </trkpt>
      <trkpt lat="43.271122" lon="-3.122187">
        <ele>97.113</ele>
        <time>45978-10-31T07:06:40Z</time>
      </trkpt>
      <trkpt lat="43.271336" lon="-3.123076">
        <ele>98.808</ele>
        <time>45978-10-31T07:56:40Z</time>
      </trkpt>
      <trkpt lat="43.271902" lon="-3.123931">
        <ele>96.972</ele>
        <time>45978-10-31T08:46:40Z</time>
      </trkpt>
      <trkpt lat="43.272242" lon="-3.125373">
        <ele>91.546</ele>
        <time>45978-10-31T10:10:00Z</time>
      </trkpt>
      <trkpt lat="43.273229" lon="-3.127203">
        <ele>85.923</ele>
        <time>45978-10-31T11:50:00Z</time>
      </trkpt>
      <trkpt lat="43.273707" lon="-3.128695">
        <ele>84.326</ele>
        <time>45978-10-31T13:13:20Z</time>
      </trkpt>
      <trkpt lat="43.275060" lon="-3.130205">
        <ele>78.587</ele>
        <time>45978-10-31T15:26:40Z</time>
      </trkpt>
      <trkpt lat="43.274894" lon="-3.131947">
        <ele>73.675</ele>
        <time>45978-09-26T20:03:20Z</time>
      </trkpt>
      <trkpt lat="43.275150" lon="-3.132960">
        <ele>79.070</ele>
        <time>45978-10-31T16:50:00Z</time>
      </trkpt>
      <trkpt lat="43.275616" lon="-3.133556">
        <ele>74.018</ele>
        <time>45978-10-31T18:13:20Z</time>
      </trkpt>
      <trkpt lat="43.276420" lon="-3.134046">
        <ele>67.979</ele>
        <time>45978-10-31T19:03:20Z</time>
      </trkpt>
      <trkpt lat="43.276688" lon="-3.134474">
        <ele>68.705</ele>
        <time>45978-10-31T19:36:40Z</time>
      </trkpt>
      <trkpt lat="43.276789" lon="-3.136153">
        <ele>53.425</ele>
        <time>45978-10-31T21:00:00Z</time>
      </trkpt>
      <trkpt lat="43.276919" lon="-3.136362">
        <ele>58.308</ele>
        <time>45978-10-31T21:00:00Z</time>
      </trkpt>
      <trkpt lat="43.278031" lon="-3.136474">
        <ele>63.268</ele>
        <time>45978-10-31T22:23:20Z</time>
      </trkpt>
      <trkpt lat="43.278278" lon="-3.136613">
        <ele>62.852</ele>
        <time>45978-10-31T22:40:00Z</time>
      </trkpt>
      <trkpt lat="43.278662" lon="-3.137379">
        <ele>61.979</ele>
        <time>45978-10-31T23:30:00Z</time>
      </trkpt>
      <trkpt lat="43.278202" lon="-3.138857">
        <ele>65.422</ele>
        <time>45978-11-01T00:36:40Z</time>
      </trkpt>
      <trkpt lat="43.278334" lon="-3.139783">
        <ele>57.243</ele>
        <time>45978-11-01T01:26:40Z</time>
      </trkpt>
      <trkpt lat="43.278211" lon="-3.140270">
        <ele>65.881</ele>
        <time>45978-11-01T02:00:00Z</time>
      </trkpt>
      <trkpt lat="43.277324" lon="-3.140963">
        <ele>65.446</ele>
        <time>45978-11-01T03:06:40Z</time>
      </trkpt>
      <trkpt lat="43.277230" lon="-3.141310">
        <ele>67.124</ele>
        <time>45978-11-01T03:23:20Z</time>
      </trkpt>
      <trkpt lat="43.277179" lon="-3.142275">
        <ele>66.067</ele>
        <time>45978-11-01T04:13:20Z</time>
      </trkpt>
      <trkpt lat="43.277619" lon="-3.143955">
        <ele>73.181</ele>
        <time>45978-11-01T05:36:40Z</time>
      </trkpt>
      <trkpt lat="43.276994" lon="-3.145931">
        <ele>78.819</ele>
        <time>45978-11-01T07:16:40Z</time>
      </trkpt>
      <trkpt lat="43.276767" lon="-3.147570">
        <ele>82.708</ele>
        <time>45978-11-01T08:40:00Z</time>
      </trkpt>
      <trkpt lat="43.278680" lon="-3.153497">
        <ele>93.917</ele>
        <time>45978-11-01T13:56:40Z</time>
      </trkpt>
      <trkpt lat="43.279142" lon="-3.155605">
        <ele>99.861</ele>
        <time>45978-11-01T15:36:40Z</time>
      </trkpt>
      <trkpt lat="43.279584" lon="-3.156868">
        <ele>104.388</ele>
        <time>45978-11-01T17:00:00Z</time>
      </trkpt>
      <trkpt lat="43.280331" lon="-3.157814">
        <ele>106.181</ele>
        <time>45978-11-01T18:06:40Z</time>
      </trkpt>
      <trkpt lat="43.281115" lon="-3.158433">
        <ele>110.122</ele>
        <time>45978-11-01T18:56:40Z</time>
      </trkpt>
      <trkpt lat="43.281840" lon="-3.159259">
        <ele>113.070</ele>
        <time>45978-11-01T20:03:20Z</time>
      </trkpt>
      <trkpt lat="43.282174" lon="-3.159797">
        <ele>114.385</ele>
        <time>45978-11-01T20:36:40Z</time>
      </trkpt>
      <trkpt lat="43.282543" lon="-3.160921">
        <ele>127.643</ele>
        <time>45978-11-01T21:43:20Z</time>
      </trkpt>
      <trkpt lat="43.282543" lon="-3.160921">
        <ele>127.692</ele>
        <time>45978-11-01T21:43:20Z</time>
      </trkpt>
      <trkpt lat="43.282491" lon="-3.162302">
        <ele>124.473</ele>
        <time>45981-07-07T03:06:40Z</time>
      </trkpt>
      <trkpt lat="43.281981" lon="-3.163652">
        <ele>121.620</ele>
        <time>45981-07-07T04:13:20Z</time>
      </trkpt>
      <trkpt lat="43.281552" lon="-3.164177">
        <ele>124.108</ele>
        <time>45981-07-07T04:46:40Z</time>
      </trkpt>
      <trkpt lat="43.280964" lon="-3.164454">
        <ele>124.550</ele>
        <time>45981-07-07T05:36:40Z</time>
      </trkpt>
      <trkpt lat="43.278918" lon="-3.164507">
        <ele>119.854</ele>
        <time>45981-07-07T07:50:00Z</time>
      </trkpt>
      <trkpt lat="43.278265" lon="-3.164784">
        <ele>122.191</ele>
        <time>45981-07-07T08:40:00Z</time>
      </trkpt>
      <trkpt lat="43.276705" lon="-3.165048">
        <ele>126.134</ele>
        <time>45981-07-07T10:20:00Z</time>
      </trkpt>
      <trkpt lat="43.273394" lon="-3.164219">
        <ele>134.665</ele>
        <time>45981-07-07T14:13:20Z</time>
      </trkpt>
      <trkpt lat="43.271520" lon="-3.161031">
        <ele>139.443</ele>
        <time>45981-07-07T17:33:20Z</time>
      </trkpt>
      <trkpt lat="43.270422" lon="-3.159923">
        <ele>141.318</ele>
        <time>45981-07-07T18:56:40Z</time>
      </trkpt>
      <trkpt lat="43.269765" lon="-3.158909">
        <ele>142.987</ele>
        <time>45981-07-07T20:03:20Z</time>
      </trkpt>
      <trkpt lat="43.269460" lon="-3.158696">
        <ele>144.633</ele>
        <time>45981-07-07T20:20:00Z</time>
      </trkpt>
      <trkpt lat="43.268843" lon="-3.158593">
        <ele>149.023</ele>
        <time>45981-07-07T21:10:00Z</time>
      </trkpt>
      <trkpt lat="43.268713" lon="-3.158336">
        <ele>150.215</ele>
        <time>45981-07-07T21:26:40Z</time>
      </trkpt>
      <trkpt lat="43.268127" lon="-3.159135">
        <ele>163.608</ele>
        <time>45981-07-07T22:16:40Z</time>
      </trkpt>
      <trkpt lat="43.268433" lon="-3.160412">
        <ele>178.684</ele>
        <time>45981-07-07T23:23:20Z</time>
      </trkpt>
      <trkpt lat="43.268320" lon="-3.161136">
        <ele>186.768</ele>
        <time>45981-07-08T00:13:20Z</time>
      </trkpt>
      <trkpt lat="43.268694" lon="-3.161134">
        <ele>191.865</ele>
        <time>45981-07-08T00:46:40Z</time>
      </trkpt>
      <trkpt lat="43.269490" lon="-3.162148">
        <ele>204.558</ele>
        <time>45981-07-08T01:36:40Z</time>
      </trkpt>
      <trkpt lat="43.270146" lon="-3.163513">
        <ele>218.559</ele>
        <time>45981-07-08T03:16:40Z</time>
      </trkpt>
      <trkpt lat="43.270725" lon="-3.166381">
        <ele>245.317</ele>
        <time>45981-07-08T05:30:00Z</time>
      </trkpt>
      <trkpt lat="43.270583" lon="-3.168286">
        <ele>263.152</ele>
        <time>45981-07-08T06:53:20Z</time>
      </trkpt>
      <trkpt lat="43.270675" lon="-3.168519">
        <ele>263.371</ele>
        <time>45981-07-08T07:26:40Z</time>
      </trkpt>
      <trkpt lat="43.271337" lon="-3.168914">
        <ele>275.473</ele>
        <time>45981-07-08T08:00:00Z</time>
      </trkpt>
      <trkpt lat="43.271315" lon="-3.169070">
        <ele>278.485</ele>
        <time>45981-07-08T08:16:40Z</time>
      </trkpt>
      <trkpt lat="43.271662" lon="-3.169517">
        <ele>284.513</ele>
        <time>45981-07-08T08:33:20Z</time>
      </trkpt>
      <trkpt lat="43.271257" lon="-3.170864">
        <ele>296.608</ele>
        <time>45981-07-08T09:56:40Z</time>
      </trkpt>
      <trkpt lat="43.270822" lon="-3.173366">
        <ele>319.078</ele>
        <time>45981-07-08T11:53:20Z</time>
      </trkpt>
      <trkpt lat="43.271055" lon="-3.174968">
        <ele>325.292</ele>
        <time>45981-07-08T13:16:40Z</time>
      </trkpt>
      <trkpt lat="43.270899" lon="-3.177966">
        <ele>339.129</ele>
        <time>45981-07-08T15:46:40Z</time>
      </trkpt>
      <trkpt lat="43.271044" lon="-3.178694">
        <ele>345.762</ele>
        <time>45981-07-08T16:20:00Z</time>
      </trkpt>
      <trkpt lat="43.270767" lon="-3.179488">
        <ele>353.143</ele>
        <time>45981-07-08T17:10:00Z</time>
      </trkpt>
      <trkpt lat="43.270660" lon="-3.180400">
        <ele>360.971</ele>
        <time>45981-07-08T17:43:20Z</time>
      </trkpt>
      <trkpt lat="43.271029" lon="-3.180915">
        <ele>366.296</ele>
        <time>45981-07-08T18:33:20Z</time>
      </trkpt>
      <trkpt lat="43.271184" lon="-3.181595">
        <ele>370.835</ele>
        <time>45981-07-08T19:06:40Z</time>
      </trkpt>
      <trkpt lat="43.271055" lon="-3.182982">
        <ele>380.516</ele>
        <time>45981-07-08T20:13:20Z</time>
      </trkpt>
      <trkpt lat="43.270585" lon="-3.184572">
        <ele>385.976</ele>
        <time>45981-07-08T21:36:40Z</time>
      </trkpt>
      <trkpt lat="43.270351" lon="-3.186073">
        <ele>395.013</ele>
        <time>45981-07-08T22:43:20Z</time>
      </trkpt>
      <trkpt lat="43.270418" lon="-3.188285">
        <ele>410.308</ele>
        <time>45981-07-09T00:40:00Z</time>
      </trkpt>
      <trkpt lat="43.270842" lon="-3.186408">
        <ele>411.322</ele>
        <time>45981-07-09T02:03:20Z</time>
      </trkpt>
      <trkpt lat="43.271647" lon="-3.186434">
        <ele>418.996</ele>
        <time>45981-07-09T03:10:00Z</time>
      </trkpt>
      <trkpt lat="43.271839" lon="-3.186734">
        <ele>422.643</ele>
        <time>45981-07-09T03:26:40Z</time>
      </trkpt>
      <trkpt lat="43.271890" lon="-3.187810">
        <ele>431.166</ele>
        <time>45981-07-09T04:16:40Z</time>
      </trkpt>
      <trkpt lat="43.271940" lon="-3.189628">
        <ele>439.277</ele>
        <time>45981-07-09T05:40:00Z</time>
      </trkpt>
      <trkpt lat="43.271716" lon="-3.190485">
        <ele>445.085</ele>
        <time>45981-07-09T06:30:00Z</time>
      </trkpt>
      <trkpt lat="43.271784" lon="-3.190716">
        <ele>446.010</ele>
        <time>45981-07-09T06:46:40Z</time>
      </trkpt>
      <trkpt lat="43.272543" lon="-3.190634">
        <ele>454.499</ele>
        <time>45981-07-09T07:20:00Z</time>
      </trkpt>
      <trkpt lat="43.272787" lon="-3.190779">
        <ele>459.249</ele>
        <time>45981-07-09T07:36:40Z</time>
      </trkpt>
      <trkpt lat="43.272988" lon="-3.191234">
        <ele>464.202</ele>
        <time>45981-07-09T08:10:00Z</time>
      </trkpt>
      <trkpt lat="43.272974" lon="-3.191803">
        <ele>470.022</ele>
        <time>45981-07-09T08:43:20Z</time>
      </trkpt>
      <trkpt lat="43.273414" lon="-3.193483">
        <ele>489.208</ele>
        <time>45981-07-09T10:06:40Z</time>
      </trkpt>
      <trkpt lat="43.273473" lon="-3.194781">
        <ele>502.595</ele>
        <time>45981-07-09T11:13:20Z</time>
      </trkpt>
      <trkpt lat="43.274530" lon="-3.195245">
        <ele>512.619</ele>
        <time>45981-07-09T12:20:00Z</time>
      </trkpt>
      <trkpt lat="43.274495" lon="-3.196249">
        <ele>518.826</ele>
        <time>45981-07-09T13:10:00Z</time>
      </trkpt>
      <trkpt lat="43.274791" lon="-3.197087">
        <ele>527.939</ele>
        <time>45981-07-09T14:00:00Z</time>
      </trkpt>
      <trkpt lat="43.274660" lon="-3.197278">
        <ele>532.660</ele>
        <time>45981-07-09T14:00:00Z</time>
      </trkpt>
      <trkpt lat="43.272656" lon="-3.198392">
        <ele>539.368</ele>
        <time>45981-07-09T16:30:00Z</time>
      </trkpt>
      <trkpt lat="43.272893" lon="-3.202922">
        <ele>546.443</ele>
        <time>45981-07-09T20:23:20Z</time>
      </trkpt>
      <trkpt lat="43.272643" lon="-3.203516">
        <ele>547.762</ele>
        <time>45981-07-09T20:56:40Z</time>
      </trkpt>
      <trkpt lat="43.272107" lon="-3.203648">
        <ele>548.066</ele>
        <time>45981-07-09T21:46:40Z</time>
      </trkpt>
      <trkpt lat="43.271441" lon="-3.204677">
        <ele>550.729</ele>
        <time>45981-05-21T10:50:00Z</time>
      </trkpt>
      <trkpt lat="43.271216" lon="-3.204800">
        <ele>551.821</ele>
        <time>45981-07-09T22:53:20Z</time>
      </trkpt>
      <trkpt lat="43.270201" lon="-3.204568">
        <ele>553.008</ele>
        <time>45981-07-09T23:43:20Z</time>
      </trkpt>
      <trkpt lat="43.269635" lon="-3.204596">
        <ele>554.157</ele>
        <time>45981-07-10T00:33:20Z</time>
      </trkpt>
      <trkpt lat="43.269398" lon="-3.205054">
        <ele>554.661</ele>
        <time>45981-07-10T01:06:40Z</time>
      </trkpt>
      <trkpt lat="43.269389" lon="-3.205881">
        <ele>554.628</ele>
        <time>45981-07-10T01:40:00Z</time>
      </trkpt>
      <trkpt lat="43.269214" lon="-3.206144">
        <ele>558.331</ele>
        <time>45981-07-10T01:56:40Z</time>
      </trkpt>
      <trkpt lat="43.268900" lon="-3.206369">
        <ele>569.682</ele>
        <time>45981-07-10T02:13:20Z</time>
      </trkpt>
      <trkpt lat="43.268695" lon="-3.206231">
        <ele>574.240</ele>
        <time>45981-07-10T02:30:00Z</time>
      </trkpt>
      <trkpt lat="43.267963" lon="-3.206368">
        <ele>586.395</ele>
        <time>45981-07-10T03:20:00Z</time>
      </trkpt>
      <trkpt lat="43.266873" lon="-3.207745">
        <ele>581.144</ele>
        <time>45981-07-10T05:00:00Z</time>
      </trkpt>
      <trkpt lat="43.267786" lon="-3.209211">
        <ele>579.032</ele>
        <time>45981-07-10T06:40:00Z</time>
      </trkpt>
      <trkpt lat="43.268485" lon="-3.209752">
        <ele>581.292</ele>
        <time>45981-07-10T07:30:00Z</time>
      </trkpt>
      <trkpt lat="43.269348" lon="-3.211644">
        <ele>548.111</ele>
        <time>45981-07-10T09:10:00Z</time>
      </trkpt>
      <trkpt lat="43.269531" lon="-3.212413">
        <ele>537.808</ele>
        <time>45981-07-10T10:00:00Z</time>
      </trkpt>
      <trkpt lat="43.269933" lon="-3.212901">
        <ele>535.164</ele>
        <time>45981-07-10T10:33:20Z</time>
      </trkpt>
      <trkpt lat="43.270185" lon="-3.213679">
        <ele>535.478</ele>
        <time>45981-07-10T11:06:40Z</time>
      </trkpt>
      <trkpt lat="43.270989" lon="-3.214793">
        <ele>546.335</ele>
        <time>45981-07-10T12:30:00Z</time>
      </trkpt>
      <trkpt lat="43.270701" lon="-3.215093">
        <ele>540.238</ele>
        <time>45981-07-10T12:46:40Z</time>
      </trkpt>
      <trkpt lat="43.270917" lon="-3.216442">
        <ele>534.869</ele>
        <time>45981-07-10T14:10:00Z</time>
      </trkpt>
      <trkpt lat="43.269867" lon="-3.218878">
        <ele>531.967</ele>
        <time>45981-07-10T16:23:20Z</time>
      </trkpt>
      <trkpt lat="43.269823" lon="-3.219825">
        <ele>528.362</ele>
        <time>45981-07-10T17:13:20Z</time>
      </trkpt>
      <trkpt lat="43.269606" lon="-3.220059">
        <ele>532.091</ele>
        <time>45981-07-10T17:30:00Z</time>
      </trkpt>
      <trkpt lat="43.268986" lon="-3.220139">
        <ele>529.971</ele>
        <time>45981-07-10T18:20:00Z</time>
      </trkpt>
      <trkpt lat="43.268300" lon="-3.220738">
        <ele>541.441</ele>
        <time>45981-07-10T19:10:00Z</time>
      </trkpt>
      <trkpt lat="43.267846" lon="-3.220808">
        <ele>539.615</ele>
        <time>45981-07-10T19:43:20Z</time>
      </trkpt>
      <trkpt lat="43.267688" lon="-3.221357">
        <ele>540.408</ele>
        <time>45981-07-10T20:16:40Z</time>
      </trkpt>
      <trkpt lat="43.267355" lon="-3.221453">
        <ele>541.918</ele>
        <time>45981-07-10T20:33:20Z</time>
      </trkpt>
      <trkpt lat="43.266157" lon="-3.221453">
        <ele>545.672</ele>
        <time>45981-07-10T21:56:40Z</time>
      </trkpt>
      <trkpt lat="43.265514" lon="-3.220954">
        <ele>545.489</ele>
        <time>45981-07-10T22:46:40Z</time>
      </trkpt>
      <trkpt lat="43.264143" lon="-3.220650">
        <ele>531.312</ele>
        <time>45981-07-11T00:10:00Z</time>
      </trkpt>
      <trkpt lat="43.263670" lon="-3.221043">
        <ele>525.013</ele>
        <time>45981-07-11T01:00:00Z</time>
      </trkpt>
      <trkpt lat="43.263547" lon="-3.221377">
        <ele>522.481</ele>
        <time>45981-07-11T01:16:40Z</time>
      </trkpt>
      <trkpt lat="43.263852" lon="-3.222653">
        <ele>526.646</ele>
        <time>45981-07-11T02:06:40Z</time>
      </trkpt>
      <trkpt lat="43.264478" lon="-3.224191">
        <ele>531.425</ele>
        <time>45981-07-11T03:46:40Z</time>
      </trkpt>
      <trkpt lat="43.264603" lon="-3.225903">
        <ele>518.163</ele>
        <time>45981-07-11T03:46:40Z</time>
      </trkpt>
      <trkpt lat="43.264941" lon="-3.226777">
        <ele>511.744</ele>
        <time>45981-07-11T03:46:40Z</time>
      </trkpt>
      <trkpt lat="43.264725" lon="-3.228251">
        <ele>494.418</ele>
        <time>45981-07-11T03:46:40Z</time>
      </trkpt>
      <trkpt lat="43.266567" lon="-3.228897">
        <ele>481.108</ele>
        <time>45981-07-11T03:46:40Z</time>
      </trkpt>
      <trkpt lat="43.267220" lon="-3.229703">
        <ele>471.987</ele>
        <time>45981-07-11T03:46:40Z</time>
      </trkpt>
      <trkpt lat="43.268178" lon="-3.231398">
        <ele>457.111</ele>
        <time>45981-07-11T03:46:40Z</time>
      </trkpt>
      <trkpt lat="43.269157" lon="-3.231466">
        <ele>468.718</ele>
        <time>45981-07-11T03:46:40Z</time>
      </trkpt>
      <trkpt lat="43.269987" lon="-3.231185">
        <ele>478.761</ele>
        <time>45981-07-11T03:46:40Z</time>
      </trkpt>
      <trkpt lat="43.270789" lon="-3.231314">
        <ele>482.752</ele>
        <time>45981-07-11T03:46:40Z</time>
      </trkpt>
      <trkpt lat="43.271005" lon="-3.231876">
        <ele>486.870</ele>
        <time>45981-07-11T03:46:40Z</time>
      </trkpt>
      <trkpt lat="43.271636" lon="-3.232155">
        <ele>495.495</ele>
        <time>45981-07-11T15:10:00Z</time>
      </trkpt>
      <trkpt lat="43.271958" lon="-3.232067">
        <ele>498.824</ele>
        <time>45981-07-11T15:26:40Z</time>
      </trkpt>
      <trkpt lat="43.272192" lon="-3.232942">
        <ele>486.473</ele>
        <time>45981-07-11T16:16:40Z</time>
      </trkpt>
      <trkpt lat="43.272956" lon="-3.233070">
        <ele>479.185</ele>
        <time>45981-07-11T17:06:40Z</time>
      </trkpt>
      <trkpt lat="43.273444" lon="-3.233493">
        <ele>474.513</ele>
        <time>45981-07-11T17:40:00Z</time>
      </trkpt>
      <trkpt lat="43.273291" lon="-3.234075">
        <ele>468.608</ele>
        <time>45981-07-11T18:13:20Z</time>
      </trkpt>
      <trkpt lat="43.273509" lon="-3.234779">
        <ele>457.888</ele>
        <time>45981-07-11T18:46:40Z</time>
      </trkpt>
      <trkpt lat="43.273532" lon="-3.235456">
        <ele>448.622</ele>
        <time>45981-07-11T19:20:00Z</time>
      </trkpt>
      <trkpt lat="43.272747" lon="-3.238010">
        <ele>400.549</ele>
        <time>45981-07-11T21:33:20Z</time>
      </trkpt>
      <trkpt lat="43.272442" lon="-3.238347">
        <ele>397.412</ele>
        <time>45981-07-11T22:06:40Z</time>
      </trkpt>
      <trkpt lat="43.272593" lon="-3.239228">
        <ele>383.093</ele>
        <time>45981-07-11T22:56:40Z</time>
      </trkpt>
      <trkpt lat="43.272209" lon="-3.239916">
        <ele>374.611</ele>
        <time>45981-07-11T23:30:00Z</time>
      </trkpt>
      <trkpt lat="43.271692" lon="-3.240396">
        <ele>376.066</ele>
        <time>45981-07-12T00:20:00Z</time>
      </trkpt>
      <trkpt lat="43.271177" lon="-3.241387">
        <ele>376.095</ele>
        <time>45981-07-12T01:10:00Z</time>
      </trkpt>
      <trkpt lat="43.270925" lon="-3.241558">
        <ele>380.192</ele>
        <time>45981-07-12T01:43:20Z</time>
      </trkpt>
      <trkpt lat="43.270038" lon="-3.244659">
        <ele>345.573</ele>
        <time>45981-07-12T04:13:20Z</time>
      </trkpt>
      <trkpt lat="43.269538" lon="-3.245281">
        <ele>337.520</ele>
        <time>45981-07-12T05:03:20Z</time>
      </trkpt>
      <trkpt lat="43.269993" lon="-3.246127">
        <ele>314.008</ele>
        <time>45981-07-12T05:53:20Z</time>
      </trkpt>
      <trkpt lat="43.269973" lon="-3.246744">
        <ele>307.640</ele>
        <time>45981-07-12T06:26:40Z</time>
      </trkpt>
      <trkpt lat="43.270307" lon="-3.247823">
        <ele>295.654</ele>
        <time>45981-07-12T07:16:40Z</time>
      </trkpt>
      <trkpt lat="43.270201" lon="-3.248184">
        <ele>286.881</ele>
        <time>45981-07-12T07:33:20Z</time>
      </trkpt>
      <trkpt lat="43.270946" lon="-3.248973">
        <ele>279.694</ele>
        <time>45981-07-12T08:40:00Z</time>
      </trkpt>
      <trkpt lat="43.270497" lon="-3.249316">
        <ele>267.335</ele>
        <time>45981-07-12T09:13:20Z</time>
      </trkpt>
      <trkpt lat="43.271000" lon="-3.251218">
        <ele>234.023</ele>
        <time>45981-07-12T10:53:20Z</time>
      </trkpt>
      <trkpt lat="43.270938" lon="-3.252269">
        <ele>220.418</ele>
        <time>45981-07-12T12:00:00Z</time>
      </trkpt>
      <trkpt lat="43.271350" lon="-3.253201">
        <ele>205.947</ele>
        <time>45981-07-12T12:50:00Z</time>
      </trkpt>
      <trkpt lat="43.270921" lon="-3.253915">
        <ele>190.461</ele>
        <time>45981-07-12T13:23:20Z</time>
      </trkpt>
      <trkpt lat="43.270260" lon="-3.254119">
        <ele>176.121</ele>
        <time>45981-07-12T14:13:20Z</time>
      </trkpt>
      <trkpt lat="43.271369" lon="-3.256300">
        <ele>144.013</ele>
        <time>45981-07-12T16:26:40Z</time>
      </trkpt>
      <trkpt lat="43.270660" lon="-3.257084">
        <ele>141.808</ele>
        <time>45981-07-12T17:16:40Z</time>
      </trkpt>
      <trkpt lat="43.270309" lon="-3.257242">
        <ele>142.027</ele>
        <time>45981-07-12T17:50:00Z</time>
      </trkpt>
      <trkpt lat="43.269827" lon="-3.257172">
        <ele>143.031</ele>
        <time>45981-07-12T18:40:00Z</time>
      </trkpt>
      <trkpt lat="43.269345" lon="-3.258355">
        <ele>145.078</ele>
        <time>45981-07-12T19:30:00Z</time>
      </trkpt>
      <trkpt lat="43.269773" lon="-3.259442">
        <ele>150.381</ele>
        <time>45981-07-12T20:20:00Z</time>
      </trkpt>
      <trkpt lat="43.269960" lon="-3.261926">
        <ele>165.022</ele>
        <time>45981-07-12T22:50:00Z</time>
      </trkpt>
      <trkpt lat="43.270630" lon="-3.263418">
        <ele>174.140</ele>
        <time>45981-07-12T23:23:20Z</time>
      </trkpt>
      <trkpt lat="43.270672" lon="-3.264135">
        <ele>178.395</ele>
        <time>45981-07-13T00:30:00Z</time>
      </trkpt>
      <trkpt lat="43.270971" lon="-3.264881">
        <ele>181.624</ele>
        <time>45981-07-13T00:46:40Z</time>
      </trkpt>
      <trkpt lat="43.271429" lon="-3.265521">
        <ele>186.742</ele>
        <time>45981-07-13T01:36:40Z</time>
      </trkpt>
      <trkpt lat="43.271333" lon="-3.266629">
        <ele>193.722</ele>
        <time>45981-07-13T02:43:20Z</time>
      </trkpt>
      <trkpt lat="43.271737" lon="-3.267303">
        <ele>198.614</ele>
        <time>45981-07-13T03:16:40Z</time>
      </trkpt>
      <trkpt lat="43.271899" lon="-3.269983">
        <ele>217.708</ele>
        <time>45981-07-13T05:46:40Z</time>
      </trkpt>
      <trkpt lat="43.272007" lon="-3.270098">
        <ele>219.785</ele>
        <time>45981-07-13T06:03:20Z</time>
      </trkpt>
      <trkpt lat="43.272157" lon="-3.269949">
        <ele>222.899</ele>
        <time>45981-07-13T06:20:00Z</time>
      </trkpt>
      <trkpt lat="43.272752" lon="-3.268555">
        <ele>232.076</ele>
        <time>45981-07-13T07:10:00Z</time>
      </trkpt>
      <trkpt lat="43.273276" lon="-3.266578">
        <ele>243.359</ele>
        <time>45981-07-13T09:06:40Z</time>
      </trkpt>
      <trkpt lat="43.273526" lon="-3.266206">
        <ele>246.930</ele>
        <time>45981-07-13T09:40:00Z</time>
      </trkpt>
      <trkpt lat="43.273663" lon="-3.266258">
        <ele>247.498</ele>
        <time>45981-07-13T09:56:40Z</time>
      </trkpt>
      <trkpt lat="43.273493" lon="-3.267001">
        <ele>248.363</ele>
        <time>45981-07-13T10:46:40Z</time>
      </trkpt>
      <trkpt lat="43.273928" lon="-3.267380">
        <ele>254.862</ele>
        <time>45981-07-13T11:03:20Z</time>
      </trkpt>
      <trkpt lat="43.274333" lon="-3.269018">
        <ele>270.881</ele>
        <time>45981-07-13T12:26:40Z</time>
      </trkpt>
      <trkpt lat="43.274491" lon="-3.272006">
        <ele>279.761</ele>
        <time>45981-07-13T14:40:00Z</time>
      </trkpt>
      <trkpt lat="43.274671" lon="-3.272392">
        <ele>283.317</ele>
        <time>45981-07-13T15:13:20Z</time>
      </trkpt>
      <trkpt lat="43.274498" lon="-3.274398">
        <ele>302.708</ele>
        <time>45981-07-13T16:53:20Z</time>
      </trkpt>
      <trkpt lat="43.274236" lon="-3.275604">
        <ele>315.339</ele>
        <time>45981-07-13T17:43:20Z</time>
      </trkpt>
      <trkpt lat="43.274477" lon="-3.278536">
        <ele>342.323</ele>
        <time>45981-07-13T20:13:20Z</time>
      </trkpt>
      <trkpt lat="43.273827" lon="-3.280573">
        <ele>356.470</ele>
        <time>45981-07-13T21:53:20Z</time>
      </trkpt>
      <trkpt lat="43.272898" lon="-3.282554">
        <ele>354.753</ele>
        <time>45981-07-13T23:50:00Z</time>
      </trkpt>
      <trkpt lat="43.272777" lon="-3.284046">
        <ele>350.644</ele>
        <time>45981-04-01T15:33:20Z</time>
      </trkpt>
      <trkpt lat="43.272865" lon="-3.284663">
        <ele>352.382</ele>
        <time>45981-03-26T10:30:00Z</time>
      </trkpt>
      <trkpt lat="43.272657" lon="-3.284800">
        <ele>353.257</ele>
        <time>44331-04-20T16:36:40Z</time>
      </trkpt>
      <trkpt lat="43.271896" lon="-3.284796">
        <ele>358.616</ele>
        <time>45981-07-14T02:36:40Z</time>
      </trkpt>
      <trkpt lat="43.271638" lon="-3.285005">
        <ele>358.795</ele>
        <time>45981-07-14T03:10:00Z</time>
      </trkpt>
      <trkpt lat="43.271405" lon="-3.285360">
        <ele>356.649</ele>
        <time>45981-04-20T12:03:20Z</time>
      </trkpt>
      <trkpt lat="43.270772" lon="-3.287462">
        <ele>353.123</ele>
        <time>45981-07-14T05:23:20Z</time>
      </trkpt>
      <trkpt lat="43.270797" lon="-3.289376">
        <ele>355.908</ele>
        <time>45334-07-10T19:56:40Z</time>
      </trkpt>
      <trkpt lat="43.271663" lon="-3.291262">
        <ele>363.520</ele>
        <time>45981-07-14T09:00:00Z</time>
      </trkpt>
      <trkpt lat="43.271601" lon="-3.291668">
        <ele>360.924</ele>
        <time>45981-05-19T14:23:20Z</time>
      </trkpt>
      <trkpt lat="43.270806" lon="-3.292319">
        <ele>355.551</ele>
        <time>45981-04-02T07:56:40Z</time>
      </trkpt>
      <trkpt lat="43.270710" lon="-3.292982">
        <ele>354.544</ele>
        <time>45981-04-02T10:43:20Z</time>
      </trkpt>
      <trkpt lat="43.270369" lon="-3.293142">
        <ele>354.595</ele>
        <time>45981-05-18T02:16:40Z</time>
      </trkpt>
      <trkpt lat="43.270062" lon="-3.293690">
        <ele>358.243</ele>
        <time>45981-07-14T11:30:00Z</time>
      </trkpt>
      <trkpt lat="43.269050" lon="-3.294684">
        <ele>367.978</ele>
        <time>45981-07-14T12:36:40Z</time>
      </trkpt>
      <trkpt lat="43.268564" lon="-3.295564">
        <ele>373.747</ele>
        <time>45981-03-19T08:46:40Z</time>
      </trkpt>
      <trkpt lat="43.268397" lon="-3.295456">
        <ele>376.899</ele>
        <time>45981-07-14T13:43:20Z</time>
      </trkpt>
      <trkpt lat="43.268372" lon="-3.295073">
        <ele>378.307</ele>
        <time>45981-05-18T01:43:20Z</time>
      </trkpt>
      <trkpt lat="43.268077" lon="-3.294541">
        <ele>381.127</ele>
        <time>46812-10-31T00:06:40Z</time>
      </trkpt>
      <trkpt lat="43.267994" lon="-3.293781">
        <ele>382.808</ele>
        <time>45981-07-14T14:50:00Z</time>
      </trkpt>
      <trkpt lat="43.266683" lon="-3.292827">
        <ele>392.030</ele>
        <time>45981-07-14T16:46:40Z</time>
      </trkpt>
      <trkpt lat="43.266629" lon="-3.292267">
        <ele>395.724</ele>
        <time>45981-07-14T17:20:00Z</time>
      </trkpt>
      <trkpt lat="43.266305" lon="-3.291884">
        <ele>399.231</ele>
        <time>45567-04-30T11:53:20Z</time>
      </trkpt>
      <trkpt lat="43.266363" lon="-3.291221">
        <ele>402.074</ele>
        <time>45981-07-14T18:26:40Z</time>
      </trkpt>
      <trkpt lat="43.266001" lon="-3.291278">
        <ele>404.885</ele>
        <time>45659-08-12T09:43:20Z</time>
      </trkpt>
      <trkpt lat="43.265619" lon="-3.290986">
        <ele>408.843</ele>
        <time>46812-11-03T17:00:00Z</time>
      </trkpt>
      <trkpt lat="43.265556" lon="-3.290541">
        <ele>411.038</ele>
        <time>46812-11-04T04:06:40Z</time>
      </trkpt>
      <trkpt lat="43.265040" lon="-3.290055">
        <ele>411.037</ele>
        <time>45981-07-14T19:50:00Z</time>
      </trkpt>
      <trkpt lat="43.264795" lon="-3.288592">
        <ele>414.545</ele>
        <time>45981-05-26T05:33:20Z</time>
      </trkpt>
      <trkpt lat="43.264291" lon="-3.287314">
        <ele>419.147</ele>
        <time>45540-01-06T17:40:00Z</time>
      </trkpt>
      <trkpt lat="43.264383" lon="-3.286708">
        <ele>418.911</ele>
        <time>45981-07-14T22:20:00Z</time>
      </trkpt>
      <trkpt lat="43.263842" lon="-3.287633">
        <ele>427.308</ele>
        <time>45981-07-14T23:10:00Z</time>
      </trkpt>
      <trkpt lat="43.263730" lon="-3.289125">
        <ele>438.495</ele>
        <time>45981-04-05T22:36:40Z</time>
      </trkpt>
      <trkpt lat="43.263203" lon="-3.290974">
        <ele>450.449</ele>
        <time>45981-07-15T02:13:20Z</time>
      </trkpt>
      <trkpt lat="43.263303" lon="-3.292614">
        <ele>461.696</ele>
        <time>45981-07-15T03:20:00Z</time>
      </trkpt>
      <trkpt lat="43.262928" lon="-3.293557">
        <ele>467.899</ele>
        <time>45981-07-15T04:10:00Z</time>
      </trkpt>
      <trkpt lat="43.262633" lon="-3.292452">
        <ele>474.160</ele>
        <time>45981-07-15T05:00:00Z</time>
      </trkpt>
      <trkpt lat="43.262085" lon="-3.291592">
        <ele>482.168</ele>
        <time>45981-07-15T05:50:00Z</time>
      </trkpt>
      <trkpt lat="43.261947" lon="-3.291107">
        <ele>485.493</ele>
        <time>45981-07-15T06:23:20Z</time>
      </trkpt>
      <trkpt lat="43.261776" lon="-3.290925">
        <ele>487.032</ele>
        <time>45981-07-15T06:40:00Z</time>
      </trkpt>
      <trkpt lat="43.261519" lon="-3.291233">
        <ele>491.743</ele>
        <time>45981-07-15T06:56:40Z</time>
      </trkpt>
      <trkpt lat="43.261616" lon="-3.291851">
        <ele>494.564</ele>
        <time>45981-07-15T07:30:00Z</time>
      </trkpt>
      <trkpt lat="43.261455" lon="-3.293048">
        <ele>502.410</ele>
        <time>45981-07-15T08:36:40Z</time>
      </trkpt>
      <trkpt lat="43.260899" lon="-3.294064">
        <ele>512.308</ele>
        <time>45981-07-15T09:26:40Z</time>
      </trkpt>
      <trkpt lat="43.261123" lon="-3.295248">
        <ele>519.885</ele>
        <time>45981-07-15T10:33:20Z</time>
      </trkpt>
      <trkpt lat="43.260906" lon="-3.297631">
        <ele>537.419</ele>
        <time>45981-07-15T12:30:00Z</time>
      </trkpt>
      <trkpt lat="43.260543" lon="-3.296790">
        <ele>543.616</ele>
        <time>45981-07-15T13:20:00Z</time>
      </trkpt>
      <trkpt lat="43.260396" lon="-3.296597">
        <ele>546.079</ele>
        <time>45981-07-15T13:36:40Z</time>
      </trkpt>
      <trkpt lat="43.260264" lon="-3.296639">
        <ele>547.420</ele>
        <time>45981-07-15T13:36:40Z</time>
      </trkpt>
      <trkpt lat="43.260182" lon="-3.298768">
        <ele>562.038</ele>
        <time>45981-07-15T15:33:20Z</time>
      </trkpt>
      <trkpt lat="43.260404" lon="-3.300444">
        <ele>573.493</ele>
        <time>45981-07-15T16:56:40Z</time>
      </trkpt>
      <trkpt lat="43.260846" lon="-3.301458">
        <ele>582.782</ele>
        <time>45981-07-15T17:46:40Z</time>
      </trkpt>
      <trkpt lat="43.260719" lon="-3.302193">
        <ele>588.294</ele>
        <time>45981-07-15T18:20:00Z</time>
      </trkpt>
      <trkpt lat="43.260142" lon="-3.302797">
        <ele>595.257</ele>
        <time>45981-07-15T19:10:00Z</time>
      </trkpt>
      <trkpt lat="43.259694" lon="-3.301515">
        <ele>605.822</ele>
        <time>45981-07-15T20:16:40Z</time>
      </trkpt>
      <trkpt lat="43.259438" lon="-3.301429">
        <ele>607.808</ele>
        <time>45981-07-15T20:33:20Z</time>
      </trkpt>
      <trkpt lat="43.259528" lon="-3.303528">
        <ele>623.230</ele>
        <time>45981-07-15T22:30:00Z</time>
      </trkpt>
      <trkpt lat="43.260343" lon="-3.304608">
        <ele>632.754</ele>
        <time>45981-07-15T23:36:40Z</time>
      </trkpt>
      <trkpt lat="43.260596" lon="-3.306528">
        <ele>645.691</ele>
        <time>45981-07-16T01:16:40Z</time>
      </trkpt>
      <trkpt lat="43.260975" lon="-3.307694">
        <ele>644.734</ele>
        <time>45981-07-16T02:23:20Z</time>
      </trkpt>
      <trkpt lat="43.262025" lon="-3.308747">
        <ele>635.585</ele>
        <time>45981-07-16T03:46:40Z</time>
      </trkpt>
      <trkpt lat="43.262150" lon="-3.309399">
        <ele>631.493</ele>
        <time>45981-07-16T04:20:00Z</time>
      </trkpt>
      <trkpt lat="43.262243" lon="-3.309523">
        <ele>630.498</ele>
        <time>45981-07-16T04:36:40Z</time>
      </trkpt>
      <trkpt lat="43.263058" lon="-3.309675">
        <ele>623.757</ele>
        <time>45981-07-16T05:26:40Z</time>
      </trkpt>
      <trkpt lat="43.263826" lon="-3.310913">
        <ele>612.894</ele>
        <time>45981-07-16T06:50:00Z</time>
      </trkpt>
      <trkpt lat="43.264646" lon="-3.310522">
        <ele>607.157</ele>
        <time>45981-07-16T07:40:00Z</time>
      </trkpt>
      <trkpt lat="43.265188" lon="-3.311660">
        <ele>597.822</ele>
        <time>45981-07-16T08:46:40Z</time>
      </trkpt>
      <trkpt lat="43.265239" lon="-3.312870">
        <ele>588.708</ele>
        <time>45981-07-16T09:53:20Z</time>
      </trkpt>
      <trkpt lat="43.265476" lon="-3.313153">
        <ele>586.570</ele>
        <time>45981-07-16T10:10:00Z</time>
      </trkpt>
      <trkpt lat="43.265524" lon="-3.313954">
        <ele>579.174</ele>
        <time>45981-07-16T11:00:00Z</time>
      </trkpt>
      <trkpt lat="43.265896" lon="-3.314548">
        <ele>575.491</ele>
        <time>45981-07-16T11:33:20Z</time>
      </trkpt>
      <trkpt lat="43.265462" lon="-3.315617">
        <ele>564.894</ele>
        <time>45981-07-16T12:40:00Z</time>
      </trkpt>
      <trkpt lat="43.265256" lon="-3.316743">
        <ele>557.115</ele>
        <time>45981-07-16T13:30:00Z</time>
      </trkpt>
      <trkpt lat="43.264717" lon="-3.318259">
        <ele>546.013</ele>
        <time>45981-07-16T14:53:20Z</time>
      </trkpt>
      <trkpt lat="43.264443" lon="-3.319402">
        <ele>538.978</ele>
        <time>45981-07-16T15:43:20Z</time>
      </trkpt>
      <trkpt lat="43.264461" lon="-3.319923">
        <ele>536.027</ele>
        <time>45981-07-16T16:16:40Z</time>
      </trkpt>
      <trkpt lat="43.263788" lon="-3.320437">
        <ele>537.882</ele>
        <time>45981-07-16T17:06:40Z</time>
      </trkpt>
      <trkpt lat="43.263296" lon="-3.320616">
        <ele>536.643</ele>
        <time>45981-07-16T17:40:00Z</time>
      </trkpt>
      <trkpt lat="43.262884" lon="-3.320583">
        <ele>528.317</ele>
        <time>45981-07-16T18:13:20Z</time>
      </trkpt>
      <trkpt lat="43.262215" lon="-3.321062">
        <ele>512.008</ele>
        <time>45981-07-16T19:03:20Z</time>
      </trkpt>
      <trkpt lat="43.261755" lon="-3.322447">
        <ele>498.679</ele>
        <time>45981-07-16T20:10:00Z</time>
      </trkpt>
      <trkpt lat="43.261738" lon="-3.323794">
        <ele>482.483</ele>
        <time>45981-07-16T21:16:40Z</time>
      </trkpt>
      <trkpt lat="43.261143" lon="-3.323911">
        <ele>471.430</ele>
        <time>45981-07-16T22:06:40Z</time>
      </trkpt>
      <trkpt lat="43.260889" lon="-3.323213">
        <ele>464.663</ele>
        <time>45981-07-16T22:40:00Z</time>
      </trkpt>
      <trkpt lat="43.260378" lon="-3.324329">
        <ele>446.454</ele>
        <time>45981-07-16T23:46:40Z</time>
      </trkpt>
      <trkpt lat="43.260370" lon="-3.324621">
        <ele>443.932</ele>
        <time>45981-07-16T23:46:40Z</time>
      </trkpt>
      <trkpt lat="43.260669" lon="-3.325465">
        <ele>438.377</ele>
        <time>45981-07-17T00:36:40Z</time>
      </trkpt>
      <trkpt lat="43.260997" lon="-3.325688">
        <ele>437.556</ele>
        <time>45981-07-17T01:10:00Z</time>
      </trkpt>
      <trkpt lat="43.261280" lon="-3.325701">
        <ele>437.515</ele>
        <time>45981-07-17T01:26:40Z</time>
      </trkpt>
      <trkpt lat="43.262486" lon="-3.325275">
        <ele>439.065</ele>
        <time>45981-07-17T02:50:00Z</time>
      </trkpt>
      <trkpt lat="43.263199" lon="-3.324568">
        <ele>441.811</ele>
        <time>45981-07-17T03:56:40Z</time>
      </trkpt>
      <trkpt lat="43.264287" lon="-3.324574">
        <ele>436.108</ele>
        <time>45981-07-17T05:03:20Z</time>
      </trkpt>
      <trkpt lat="43.265729" lon="-3.323235">
        <ele>425.022</ele>
        <time>45981-07-17T07:00:00Z</time>
      </trkpt>
      <trkpt lat="43.266107" lon="-3.323254">
        <ele>424.746</ele>
        <time>45981-07-17T07:16:40Z</time>
      </trkpt>
      <trkpt lat="43.266461" lon="-3.323062">
        <ele>418.343</ele>
        <time>45981-07-17T07:50:00Z</time>
      </trkpt>
      <trkpt lat="43.267462" lon="-3.323192">
        <ele>407.526</ele>
        <time>45981-07-17T08:56:40Z</time>
      </trkpt>
      <trkpt lat="43.267696" lon="-3.324341">
        <ele>410.827</ele>
        <time>45981-07-17T09:46:40Z</time>
      </trkpt>
      <trkpt lat="43.267607" lon="-3.325300">
        <ele>409.075</ele>
        <time>45981-07-17T10:36:40Z</time>
      </trkpt>
      <trkpt lat="43.267768" lon="-3.325983">
        <ele>415.910</ele>
        <time>45981-07-17T11:10:00Z</time>
      </trkpt>
      <trkpt lat="43.267772" lon="-3.327704">
        <ele>413.589</ele>
        <time>45981-07-17T12:33:20Z</time>
      </trkpt>
      <trkpt lat="43.267859" lon="-3.327915">
        <ele>413.339</ele>
        <time>45981-07-17T12:50:00Z</time>
      </trkpt>
      <trkpt lat="43.268403" lon="-3.328196">
        <ele>413.001</ele>
        <time>45981-07-17T13:40:00Z</time>
      </trkpt>
      <trkpt lat="43.268359" lon="-3.329371">
        <ele>409.021</ele>
        <time>45981-07-17T14:30:00Z</time>
      </trkpt>
      <trkpt lat="43.268971" lon="-3.330596">
        <ele>403.208</ele>
        <time>45981-07-17T15:36:40Z</time>
      </trkpt>
      <trkpt lat="43.269249" lon="-3.330824">
        <ele>402.484</ele>
        <time>45981-07-17T16:10:00Z</time>
      </trkpt>
      <trkpt lat="43.270125" lon="-3.332551">
        <ele>412.598</ele>
        <time>45981-07-17T17:50:00Z</time>
      </trkpt>
      <trkpt lat="43.270918" lon="-3.333112">
        <ele>415.625</ele>
        <time>45981-07-17T18:40:00Z</time>
      </trkpt>
      <trkpt lat="43.271190" lon="-3.333885">
        <ele>427.438</ele>
        <time>45981-07-17T19:30:00Z</time>
      </trkpt>
      <trkpt lat="43.271200" lon="-3.334738">
        <ele>440.759</ele>
        <time>45981-07-17T20:03:20Z</time>
      </trkpt>
      <trkpt lat="43.270940" lon="-3.336105">
        <ele>457.817</ele>
        <time>45981-07-17T21:26:40Z</time>
      </trkpt>
      <trkpt lat="43.270678" lon="-3.336467">
        <ele>461.812</ele>
        <time>45981-07-17T21:43:20Z</time>
      </trkpt>
      <trkpt lat="43.270590" lon="-3.337086">
        <ele>467.241</ele>
        <time>45981-07-17T22:16:40Z</time>
      </trkpt>
      <trkpt lat="43.270345" lon="-3.337204">
        <ele>469.244</ele>
        <time>45981-07-17T22:33:20Z</time>
      </trkpt>
      <trkpt lat="43.270199" lon="-3.337600">
        <ele>470.405</ele>
        <time>45981-07-17T22:50:00Z</time>
      </trkpt>
      <trkpt lat="43.269333" lon="-3.338482">
        <ele>464.215</ele>
        <time>45981-07-18T00:13:20Z</time>
      </trkpt>
      <trkpt lat="43.268897" lon="-3.338564">
        <ele>461.308</ele>
        <time>45981-07-18T00:46:40Z</time>
      </trkpt>
      <trkpt lat="43.268460" lon="-3.339027">
        <ele>456.155</ele>
        <time>45981-07-18T01:20:00Z</time>
      </trkpt>
      <trkpt lat="43.268110" lon="-3.339769">
        <ele>458.259</ele>
        <time>45981-07-18T01:53:20Z</time>
      </trkpt>
      <trkpt lat="43.267249" lon="-3.340798">
        <ele>459.946</ele>
        <time>45981-07-18T03:16:40Z</time>
      </trkpt>
      <trkpt lat="43.267122" lon="-3.341530">
        <ele>458.169</ele>
        <time>45981-07-18T03:50:00Z</time>
      </trkpt>
      <trkpt lat="43.267540" lon="-3.342413">
        <ele>456.390</ele>
        <time>45981-07-18T04:40:00Z</time>
      </trkpt>
      <trkpt lat="43.268596" lon="-3.343663">
        <ele>462.348</ele>
        <time>45981-07-18T06:20:00Z</time>
      </trkpt>
      <trkpt lat="43.269809" lon="-3.343880">
        <ele>469.153</ele>
        <time>45981-07-18T07:43:20Z</time>
      </trkpt>
      <trkpt lat="43.270689" lon="-3.344225">
        <ele>468.852</ele>
        <time>45981-07-18T08:33:20Z</time>
      </trkpt>
      <trkpt lat="43.271633" lon="-3.344071">
        <ele>473.258</ele>
        <time>45981-07-18T09:40:00Z</time>
      </trkpt>
      <trkpt lat="43.271822" lon="-3.344918">
        <ele>474.752</ele>
        <time>45981-07-18T10:30:00Z</time>
      </trkpt>
      <trkpt lat="43.270514" lon="-3.347024">
        <ele>453.017</ele>
        <time>45981-07-18T12:43:20Z</time>
      </trkpt>
      <trkpt lat="43.269970" lon="-3.348776">
        <ele>437.108</ele>
        <time>45981-07-18T14:23:20Z</time>
      </trkpt>
      <trkpt lat="43.269327" lon="-3.348608">
        <ele>440.266</ele>
        <time>45981-07-18T14:56:40Z</time>
      </trkpt>
      <trkpt lat="43.268954" lon="-3.348691">
        <ele>442.470</ele>
        <time>45981-07-18T15:30:00Z</time>
      </trkpt>
      <trkpt lat="43.268508" lon="-3.349478">
        <ele>443.557</ele>
        <time>45981-07-18T16:20:00Z</time>
      </trkpt>
      <trkpt lat="43.267605" lon="-3.352137">
        <ele>443.910</ele>
        <time>45981-07-18T18:50:00Z</time>
      </trkpt>
      <trkpt lat="43.268601" lon="-3.352551">
        <ele>425.151</ele>
        <time>45981-07-18T19:56:40Z</time>
      </trkpt>
      <trkpt lat="43.268642" lon="-3.352694">
        <ele>424.599</ele>
        <time>45981-07-18T19:56:40Z</time>
      </trkpt>
      <trkpt lat="43.267934" lon="-3.353882">
        <ele>424.884</ele>
        <time>45981-07-18T21:20:00Z</time>
      </trkpt>
      <trkpt lat="43.267640" lon="-3.355227">
        <ele>422.273</ele>
        <time>45981-07-18T22:26:40Z</time>
      </trkpt>
      <trkpt lat="43.267118" lon="-3.355201">
        <ele>419.917</ele>
        <time>45981-07-18T23:00:00Z</time>
      </trkpt>
      <trkpt lat="43.265991" lon="-3.356097">
        <ele>406.987</ele>
        <time>45981-07-19T00:23:20Z</time>
      </trkpt>
      <trkpt lat="43.265104" lon="-3.355949">
        <ele>401.415</ele>
        <time>45981-07-19T01:30:00Z</time>
      </trkpt>
      <trkpt lat="43.264549" lon="-3.356343">
        <ele>395.208</ele>
        <time>45981-07-19T02:20:00Z</time>
      </trkpt>
      <trkpt lat="43.264080" lon="-3.356088">
        <ele>388.622</ele>
        <time>45981-07-19T02:53:20Z</time>
      </trkpt>
      <trkpt lat="43.262782" lon="-3.356426">
        <ele>374.386</ele>
        <time>45981-07-19T04:16:40Z</time>
      </trkpt>
      <trkpt lat="43.262128" lon="-3.356807">
        <ele>370.163</ele>
        <time>45981-07-19T05:06:40Z</time>
      </trkpt>
      <trkpt lat="43.261871" lon="-3.357476">
        <ele>364.886</ele>
        <time>45981-07-19T05:40:00Z</time>
      </trkpt>
      <trkpt lat="43.261346" lon="-3.356962">
        <ele>358.437</ele>
        <time>45981-07-19T06:30:00Z</time>
      </trkpt>
      <trkpt lat="43.260938" lon="-3.356981">
        <ele>355.675</ele>
        <time>45981-07-19T06:46:40Z</time>
      </trkpt>
      <trkpt lat="43.260456" lon="-3.356764">
        <ele>348.490</ele>
        <time>45981-07-19T07:20:00Z</time>
      </trkpt>
      <trkpt lat="43.260058" lon="-3.356286">
        <ele>340.249</ele>
        <time>45981-07-19T08:10:00Z</time>
      </trkpt>
      <trkpt lat="43.259989" lon="-3.355642">
        <ele>334.478</ele>
        <time>45981-07-19T08:43:20Z</time>
      </trkpt>
      <trkpt lat="43.259798" lon="-3.356487">
        <ele>328.833</ele>
        <time>45981-07-19T09:16:40Z</time>
      </trkpt>
      <trkpt lat="43.259696" lon="-3.356430">
        <ele>326.326</ele>
        <time>45981-07-19T09:33:20Z</time>
      </trkpt>
      <trkpt lat="43.259738" lon="-3.357282">
        <ele>323.508</ele>
        <time>45981-07-19T10:06:40Z</time>
      </trkpt>
      <trkpt lat="43.260081" lon="-3.357941">
        <ele>321.048</ele>
        <time>45981-07-19T10:40:00Z</time>
      </trkpt>
      <trkpt lat="43.261413" lon="-3.358923">
        <ele>322.452</ele>
        <time>45981-07-19T12:36:40Z</time>
      </trkpt>
      <trkpt lat="43.262291" lon="-3.361503">
        <ele>306.289</ele>
        <time>45981-07-19T14:50:00Z</time>
      </trkpt>
      <trkpt lat="43.263809" lon="-3.363245">
        <ele>302.232</ele>
        <time>45981-07-19T17:03:20Z</time>
      </trkpt>
      <trkpt lat="43.263455" lon="-3.363786">
        <ele>306.783</ele>
        <time>45981-07-19T17:36:40Z</time>
      </trkpt>
      <trkpt lat="43.263282" lon="-3.364441">
        <ele>313.561</ele>
        <time>45981-07-19T18:10:00Z</time>
      </trkpt>
      <trkpt lat="43.264405" lon="-3.365166">
        <ele>325.776</ele>
        <time>45981-07-19T19:33:20Z</time>
      </trkpt>
      <trkpt lat="43.265346" lon="-3.366771">
        <ele>335.635</ele>
        <time>45981-07-19T21:13:20Z</time>
      </trkpt>
      <trkpt lat="43.264175" lon="-3.367421">
        <ele>346.028</ele>
        <time>45981-07-19T22:36:40Z</time>
      </trkpt>
      <trkpt lat="43.263044" lon="-3.369814">
        <ele>357.689</ele>
        <time>45981-07-20T01:06:40Z</time>
      </trkpt>
      <trkpt lat="43.262692" lon="-3.369811">
        <ele>359.817</ele>
        <time>45981-07-20T01:23:20Z</time>
      </trkpt>
      <trkpt lat="43.261641" lon="-3.370646">
        <ele>366.108</ele>
        <time>45981-07-20T02:46:40Z</time>
      </trkpt>
      <trkpt lat="43.261483" lon="-3.370706">
        <ele>365.283</ele>
        <time>45981-07-20T03:03:20Z</time>
      </trkpt>
      <trkpt lat="43.261364" lon="-3.370580">
        <ele>363.867</ele>
        <time>45981-07-20T03:03:20Z</time>
      </trkpt>
      <trkpt lat="43.260788" lon="-3.370847">
        <ele>355.764</ele>
        <time>45981-07-20T03:53:20Z</time>
      </trkpt>
      <trkpt lat="43.260837" lon="-3.372059">
        <ele>352.347</ele>
        <time>45981-07-20T04:43:20Z</time>
      </trkpt>
      <trkpt lat="43.260679" lon="-3.372295">
        <ele>349.628</ele>
        <time>45981-07-20T05:00:00Z</time>
      </trkpt>
      <trkpt lat="43.260288" lon="-3.371922">
        <ele>344.316</ele>
        <time>45981-07-20T05:33:20Z</time>
      </trkpt>
      <trkpt lat="43.259570" lon="-3.371805">
        <ele>336.411</ele>
        <time>45981-07-20T06:23:20Z</time>
      </trkpt>
      <trkpt lat="43.259023" lon="-3.370069">
        <ele>321.370</ele>
        <time>45981-07-20T08:03:20Z</time>
      </trkpt>
      <trkpt lat="43.257945" lon="-3.368517">
        <ele>306.973</ele>
        <time>45981-07-20T09:43:20Z</time>
      </trkpt>
      <trkpt lat="43.257644" lon="-3.368628">
        <ele>302.985</ele>
        <time>45981-07-20T10:00:00Z</time>
      </trkpt>
      <trkpt lat="43.257454" lon="-3.369009">
        <ele>300.013</ele>
        <time>45981-07-20T10:33:20Z</time>
      </trkpt>
      <trkpt lat="43.257578" lon="-3.370463">
        <ele>293.008</ele>
        <time>45981-07-20T11:40:00Z</time>
      </trkpt>
      <trkpt lat="43.257295" lon="-3.370753">
        <ele>289.058</ele>
        <time>45981-07-20T11:56:40Z</time>
      </trkpt>
      <trkpt lat="43.257065" lon="-3.370464">
        <ele>285.042</ele>
        <time>45981-07-20T12:30:00Z</time>
      </trkpt>
      <trkpt lat="43.257008" lon="-3.370018">
        <ele>281.759</ele>
        <time>45981-07-20T12:46:40Z</time>
      </trkpt>
      <trkpt lat="43.256567" lon="-3.369889">
        <ele>279.932</ele>
        <time>45981-07-20T13:20:00Z</time>
      </trkpt>
      <trkpt lat="43.256231" lon="-3.368274">
        <ele>261.543</ele>
        <time>45981-07-20T14:10:00Z</time>
      </trkpt>
      <trkpt lat="43.255615" lon="-3.367794">
        <ele>252.981</ele>
        <time>45981-07-20T14:43:20Z</time>
      </trkpt>
      <trkpt lat="43.254932" lon="-3.368247">
        <ele>247.876</ele>
        <time>45981-07-20T15:50:00Z</time>
      </trkpt>
      <trkpt lat="43.254563" lon="-3.368186">
        <ele>249.465</ele>
        <time>45981-07-20T16:06:40Z</time>
      </trkpt>
      <trkpt lat="43.254104" lon="-3.367111">
        <ele>241.989</ele>
        <time>45981-07-20T16:23:20Z</time>
      </trkpt>
      <trkpt lat="43.253914" lon="-3.366927">
        <ele>240.306</ele>
        <time>45981-07-20T16:40:00Z</time>
      </trkpt>
      <trkpt lat="43.253724" lon="-3.366973">
        <ele>240.926</ele>
        <time>45981-07-20T16:40:00Z</time>
      </trkpt>
      <trkpt lat="43.253165" lon="-3.368094">
        <ele>229.108</ele>
        <time>45981-07-20T17:46:40Z</time>
      </trkpt>
      <trkpt lat="43.252572" lon="-3.368339">
        <ele>227.399</ele>
        <time>45981-07-20T18:20:00Z</time>
      </trkpt>
      <trkpt lat="43.252456" lon="-3.369224">
        <ele>222.973</ele>
        <time>45981-07-20T18:53:20Z</time>
      </trkpt>
      <trkpt lat="43.252842" lon="-3.370811">
        <ele>218.370</ele>
        <time>46813-03-24T10:46:40Z</time>
      </trkpt>
      <trkpt lat="43.252559" lon="-3.371042">
        <ele>212.013</ele>
        <time>46813-03-24T16:20:00Z</time>
      </trkpt>
      <trkpt lat="43.252196" lon="-3.372403">
        <ele>197.734</ele>
        <time>46813-03-24T21:53:20Z</time>
      </trkpt>
      <trkpt lat="43.252285" lon="-3.372961">
        <ele>195.142</ele>
        <time>46813-03-25T14:33:20Z</time>
      </trkpt>
      <trkpt lat="43.251922" lon="-3.372584">
        <ele>186.247</ele>
        <time>46813-03-26T07:13:20Z</time>
      </trkpt>
      <trkpt lat="43.251710" lon="-3.372669">
        <ele>181.396</ele>
        <time>46813-03-26T12:46:40Z</time>
      </trkpt>
      <trkpt lat="43.251303" lon="-3.373422">
        <ele>174.273</ele>
        <time>46813-03-26T23:53:20Z</time>
      </trkpt>
      <trkpt lat="43.251418" lon="-3.374066">
        <ele>169.285</ele>
        <time>46813-03-27T11:00:00Z</time>
      </trkpt>
      <trkpt lat="43.251719" lon="-3.374163">
        <ele>165.813</ele>
        <time>46813-03-27T22:06:40Z</time>
      </trkpt>
      <trkpt lat="43.251321" lon="-3.374297">
        <ele>161.808</ele>
        <time>46813-03-28T09:13:20Z</time>
      </trkpt>
      <trkpt lat="43.250640" lon="-3.374005">
        <ele>152.158</ele>
        <time>46813-03-28T20:20:00Z</time>
      </trkpt>
      <trkpt lat="43.250490" lon="-3.374066">
        <ele>150.942</ele>
        <time>46813-03-29T01:53:20Z</time>
      </trkpt>
      <trkpt lat="43.250109" lon="-3.374758">
        <ele>150.569</ele>
        <time>46813-03-30T00:06:40Z</time>
      </trkpt>
      <trkpt lat="43.249516" lon="-3.375111">
        <ele>144.022</ele>
        <time>46813-03-31T04:53:20Z</time>
      </trkpt>
      <trkpt lat="43.249537" lon="-3.375881">
        <ele>143.043</ele>
        <time>46813-03-31T21:33:20Z</time>
      </trkpt>
      <trkpt lat="43.248757" lon="-3.376715">
        <ele>133.481</ele>
        <time>46813-04-02T06:53:20Z</time>
      </trkpt>
      <trkpt lat="43.248593" lon="-3.377201">
        <ele>130.046</ele>
        <time>46813-04-02T23:33:20Z</time>
      </trkpt>
      <trkpt lat="43.248577" lon="-3.376339">
        <ele>127.975</ele>
        <time>46813-04-03T16:13:20Z</time>
      </trkpt>
      <trkpt lat="43.249236" lon="-3.375026">
        <ele>125.116</ele>
        <time>46813-04-04T14:26:40Z</time>
      </trkpt>
      <trkpt lat="43.249132" lon="-3.373001">
        <ele>119.876</ele>
        <time>45981-07-21T16:16:40Z</time>
      </trkpt>
      <trkpt lat="43.248931" lon="-3.372675">
        <ele>121.213</ele>
        <time>45981-07-21T16:33:20Z</time>
      </trkpt>
      <trkpt lat="43.246647" lon="-3.371002">
        <ele>125.008</ele>
        <time>45981-07-21T19:20:00Z</time>
      </trkpt>
      <trkpt lat="43.245995" lon="-3.370868">
        <ele>127.252</ele>
        <time>45981-07-21T20:10:00Z</time>
      </trkpt>
      <trkpt lat="43.245552" lon="-3.370083">
        <ele>123.016</ele>
        <time>45981-07-21T21:00:00Z</time>
      </trkpt>
      <trkpt lat="43.244238" lon="-3.369008">
        <ele>125.633</ele>
        <time>45981-07-21T22:40:00Z</time>
      </trkpt>
      <trkpt lat="43.243037" lon="-3.367559">
        <ele>129.986</ele>
        <time>45981-07-22T00:20:00Z</time>
      </trkpt>
      <trkpt lat="43.242589" lon="-3.365455">
        <ele>137.487</ele>
        <time>45981-07-22T02:16:40Z</time>
      </trkpt>
      <trkpt lat="43.242406" lon="-3.365078">
        <ele>139.065</ele>
        <time>45981-07-22T02:33:20Z</time>
      </trkpt>
      <trkpt lat="43.241294" lon="-3.363876">
        <ele>144.830</ele>
        <time>45981-07-22T04:13:20Z</time>
      </trkpt>
      <trkpt lat="43.241260" lon="-3.363494">
        <ele>144.039</ele>
        <time>45981-07-22T04:30:00Z</time>
      </trkpt>
      <trkpt lat="43.241841" lon="-3.362111">
        <ele>141.359</ele>
        <time>45981-07-22T05:53:20Z</time>
      </trkpt>
      <trkpt lat="43.241879" lon="-3.360516">
        <ele>142.303</ele>
        <time>45981-07-22T07:00:00Z</time>
      </trkpt>
      <trkpt lat="43.240852" lon="-3.358002">
        <ele>143.723</ele>
        <time>45981-07-22T09:30:00Z</time>
      </trkpt>
      <trkpt lat="43.239210" lon="-3.356335">
        <ele>137.008</ele>
        <time>45981-07-22T11:43:20Z</time>
      </trkpt>
      <trkpt lat="43.238236" lon="-3.355750">
        <ele>138.036</ele>
        <time>45981-07-22T12:50:00Z</time>
      </trkpt>
      <trkpt lat="43.238031" lon="-3.356594">
        <ele>137.070</ele>
        <time>45981-07-22T13:40:00Z</time>
      </trkpt>
      <trkpt lat="43.238094" lon="-3.357220">
        <ele>137.077</ele>
        <time>45981-07-22T14:13:20Z</time>
      </trkpt>
      <trkpt lat="43.237657" lon="-3.358013">
        <ele>138.080</ele>
        <time>45984-04-02T02:16:40Z</time>
      </trkpt>
      <trkpt lat="43.237868" lon="-3.358670">
        <ele>137.372</ele>
        <time>45984-04-02T02:50:00Z</time>
      </trkpt>
      <trkpt lat="43.238031" lon="-3.358864">
        <ele>138.713</ele>
        <time>45984-04-02T03:06:40Z</time>
      </trkpt>
      <trkpt lat="43.238804" lon="-3.358928">
        <ele>142.214</ele>
        <time>45984-04-02T03:56:40Z</time>
      </trkpt>
      <trkpt lat="43.240075" lon="-3.360133">
        <ele>154.508</ele>
        <time>45984-04-02T05:36:40Z</time>
      </trkpt>
      <trkpt lat="43.240192" lon="-3.360878">
        <ele>157.638</ele>
        <time>45984-04-02T06:10:00Z</time>
      </trkpt>
      <trkpt lat="43.240083" lon="-3.361190">
        <ele>159.472</ele>
        <time>45984-04-02T06:26:40Z</time>
      </trkpt>
      <trkpt lat="43.239205" lon="-3.361848">
        <ele>166.299</ele>
        <time>45984-04-02T07:33:20Z</time>
      </trkpt>
      <trkpt lat="43.239328" lon="-3.362846">
        <ele>171.652</ele>
        <time>45984-04-02T08:23:20Z</time>
      </trkpt>
      <trkpt lat="43.239233" lon="-3.363708">
        <ele>175.533</ele>
        <time>45984-04-02T09:13:20Z</time>
      </trkpt>
      <trkpt lat="43.239440" lon="-3.365525">
        <ele>181.941</ele>
        <time>45984-04-02T10:36:40Z</time>
      </trkpt>
      <trkpt lat="43.238917" lon="-3.367733">
        <ele>186.586</ele>
        <time>45984-04-02T12:33:20Z</time>
      </trkpt>
      <trkpt lat="43.238091" lon="-3.369261">
        <ele>189.971</ele>
        <time>45984-04-02T13:56:40Z</time>
      </trkpt>
      <trkpt lat="43.237284" lon="-3.370082">
        <ele>194.764</ele>
        <time>45984-04-02T15:03:20Z</time>
      </trkpt>
      <trkpt lat="43.236889" lon="-3.370965">
        <ele>200.006</ele>
        <time>45984-04-02T16:10:00Z</time>
      </trkpt>
      <trkpt lat="43.236207" lon="-3.371661">
        <ele>207.116</ele>
        <time>45984-04-02T17:00:00Z</time>
      </trkpt>
      <trkpt lat="43.236147" lon="-3.371973">
        <ele>207.908</ele>
        <time>45984-04-02T17:16:40Z</time>
      </trkpt>
      <trkpt lat="43.236363" lon="-3.372354">
        <ele>211.527</ele>
        <time>45984-04-02T17:33:20Z</time>
      </trkpt>
      <trkpt lat="43.237599" lon="-3.372435">
        <ele>220.331</ele>
        <time>45984-04-02T18:56:40Z</time>
      </trkpt>
      <trkpt lat="43.238105" lon="-3.372684">
        <ele>226.088</ele>
        <time>45984-04-02T19:30:00Z</time>
      </trkpt>
      <trkpt lat="43.238295" lon="-3.373101">
        <ele>229.741</ele>
        <time>45984-04-02T20:03:20Z</time>
      </trkpt>
      <trkpt lat="43.238032" lon="-3.373569">
        <ele>233.382</ele>
        <time>45984-04-02T20:36:40Z</time>
      </trkpt>
      <trkpt lat="43.238108" lon="-3.373993">
        <ele>236.180</ele>
        <time>45984-04-02T20:53:20Z</time>
      </trkpt>
      <trkpt lat="43.239745" lon="-3.376214">
        <ele>254.865</ele>
        <time>45984-04-02T23:23:20Z</time>
      </trkpt>
      <trkpt lat="43.239766" lon="-3.376452">
        <ele>255.860</ele>
        <time>45984-04-02T23:40:00Z</time>
      </trkpt>
      <trkpt lat="43.239466" lon="-3.376919">
        <ele>261.143</ele>
        <time>45984-04-03T00:13:20Z</time>
      </trkpt>
      <trkpt lat="43.238765" lon="-3.376944">
        <ele>266.364</ele>
        <time>45984-04-03T00:46:40Z</time>
      </trkpt>
      <trkpt lat="43.237769" lon="-3.378947">
        <ele>279.210</ele>
        <time>45984-04-03T03:00:00Z</time>
      </trkpt>
      <trkpt lat="43.237180" lon="-3.379345">
        <ele>284.108</ele>
        <time>45984-04-03T03:33:20Z</time>
      </trkpt>
      <trkpt lat="43.237162" lon="-3.379962">
        <ele>290.125</ele>
        <time>45984-04-03T04:06:40Z</time>
      </trkpt>
      <trkpt lat="43.237657" lon="-3.380248">
        <ele>294.629</ele>
        <time>45984-04-03T04:56:40Z</time>
      </trkpt>
      <trkpt lat="43.237303" lon="-3.380521">
        <ele>294.266</ele>
        <time>45984-04-03T05:13:20Z</time>
      </trkpt>
      <trkpt lat="43.237040" lon="-3.381212">
        <ele>295.899</ele>
        <time>45984-04-03T05:46:40Z</time>
      </trkpt>
      <trkpt lat="43.235086" lon="-3.379963">
        <ele>289.710</ele>
        <time>45984-04-03T08:16:40Z</time>
      </trkpt>
      <trkpt lat="43.234447" lon="-3.379133">
        <ele>280.958</ele>
        <time>45984-04-03T09:23:20Z</time>
      </trkpt>
      <trkpt lat="43.234087" lon="-3.379279">
        <ele>275.163</ele>
        <time>45984-04-03T09:40:00Z</time>
      </trkpt>
      <trkpt lat="43.233317" lon="-3.380219">
        <ele>255.848</ele>
        <time>45984-04-03T10:46:40Z</time>
      </trkpt>
      <trkpt lat="43.232718" lon="-3.380446">
        <ele>254.421</ele>
        <time>45984-04-03T11:36:40Z</time>
      </trkpt>
      <trkpt lat="43.232131" lon="-3.378841">
        <ele>266.441</ele>
        <time>45984-04-03T13:00:00Z</time>
      </trkpt>
      <trkpt lat="43.231847" lon="-3.379345">
        <ele>274.205</ele>
        <time>45984-04-03T13:33:20Z</time>
      </trkpt>
      <trkpt lat="43.231201" lon="-3.379319">
        <ele>282.408</ele>
        <time>45984-04-03T14:23:20Z</time>
      </trkpt>
      <trkpt lat="43.230785" lon="-3.380075">
        <ele>295.413</ele>
        <time>45984-04-03T15:13:20Z</time>
      </trkpt>
      <trkpt lat="43.230335" lon="-3.379893">
        <ele>296.887</ele>
        <time>45984-04-03T15:46:40Z</time>
      </trkpt>
      <trkpt lat="43.229617" lon="-3.378399">
        <ele>301.394</ele>
        <time>45984-04-03T17:10:00Z</time>
      </trkpt>
      <trkpt lat="43.229801" lon="-3.377247">
        <ele>298.787</ele>
        <time>45984-04-03T18:00:00Z</time>
      </trkpt>
      <trkpt lat="43.229500" lon="-3.376344">
        <ele>302.988</ele>
        <time>45984-04-03T18:50:00Z</time>
      </trkpt>
      <trkpt lat="43.229704" lon="-3.375534">
        <ele>300.746</ele>
        <time>45984-04-03T19:40:00Z</time>
      </trkpt>
      <trkpt lat="43.229501" lon="-3.374714">
        <ele>296.991</ele>
        <time>45984-04-03T20:30:00Z</time>
      </trkpt>
      <trkpt lat="43.228774" lon="-3.374143">
        <ele>291.176</ele>
        <time>45984-04-03T21:20:00Z</time>
      </trkpt>
      <trkpt lat="43.228375" lon="-3.373106">
        <ele>284.716</ele>
        <time>45984-04-03T22:10:00Z</time>
      </trkpt>
      <trkpt lat="43.227079" lon="-3.371877">
        <ele>272.976</ele>
        <time>45984-04-04T00:06:40Z</time>
      </trkpt>
      <trkpt lat="43.225461" lon="-3.371063">
        <ele>260.213</ele>
        <time>45984-04-04T02:03:20Z</time>
      </trkpt>
      <trkpt lat="43.224898" lon="-3.370077">
        <ele>252.408</ele>
        <time>45984-04-04T02:53:20Z</time>
      </trkpt>
      <trkpt lat="43.223392" lon="-3.371017">
        <ele>254.152</ele>
        <time>45984-04-04T04:50:00Z</time>
      </trkpt>
      <trkpt lat="43.222711" lon="-3.372620">
        <ele>255.026</ele>
        <time>45984-04-04T06:13:20Z</time>
      </trkpt>
      <trkpt lat="43.222664" lon="-3.373612">
        <ele>254.813</ele>
        <time>45984-04-04T07:03:20Z</time>
      </trkpt>
      <trkpt lat="43.222216" lon="-3.373999">
        <ele>252.436</ele>
        <time>45984-04-04T07:36:40Z</time>
      </trkpt>
      <trkpt lat="43.222276" lon="-3.374794">
        <ele>252.337</ele>
        <time>45984-04-04T08:10:00Z</time>
      </trkpt>
      <trkpt lat="43.221827" lon="-3.374902">
        <ele>256.875</ele>
        <time>45984-04-04T08:43:20Z</time>
      </trkpt>
      <trkpt lat="43.221382" lon="-3.375351">
        <ele>260.830</ele>
        <time>45984-04-04T09:33:20Z</time>
      </trkpt>
      <trkpt lat="43.221924" lon="-3.377309">
        <ele>283.165</ele>
        <time>45984-04-04T11:13:20Z</time>
      </trkpt>
      <trkpt lat="43.221772" lon="-3.377441">
        <ele>283.234</ele>
        <time>45984-04-04T11:30:00Z</time>
      </trkpt>
      <trkpt lat="43.221259" lon="-3.377275">
        <ele>282.055</ele>
        <time>45984-04-04T12:03:20Z</time>
      </trkpt>
      <trkpt lat="43.221115" lon="-3.382220">
        <ele>292.710</ele>
        <time>45984-04-04T15:56:40Z</time>
      </trkpt>
      <trkpt lat="43.220984" lon="-3.382731">
        <ele>297.308</ele>
        <time>45984-04-04T16:30:00Z</time>
      </trkpt>
      <trkpt lat="43.221097" lon="-3.384538">
        <ele>311.154</ele>
        <time>45984-04-04T17:53:20Z</time>
      </trkpt>
      <trkpt lat="43.221983" lon="-3.387165">
        <ele>335.398</ele>
        <time>45984-04-04T20:23:20Z</time>
      </trkpt>
      <trkpt lat="43.221756" lon="-3.387282">
        <ele>338.115</ele>
        <time>45984-04-04T20:40:00Z</time>
      </trkpt>
      <trkpt lat="43.221313" lon="-3.386894">
        <ele>340.758</ele>
        <time>45984-04-04T21:13:20Z</time>
      </trkpt>
      <trkpt lat="43.221064" lon="-3.386922">
        <ele>344.429</ele>
        <time>45984-04-04T21:30:00Z</time>
      </trkpt>
      <trkpt lat="43.221436" lon="-3.389871">
        <ele>367.417</ele>
        <time>45984-04-05T00:00:00Z</time>
      </trkpt>
      <trkpt lat="43.220758" lon="-3.391947">
        <ele>381.732</ele>
        <time>45984-04-05T01:56:40Z</time>
      </trkpt>
      <trkpt lat="43.220684" lon="-3.393280">
        <ele>390.437</ele>
        <time>45984-04-05T02:46:40Z</time>
      </trkpt>
      <trkpt lat="43.221060" lon="-3.397770">
        <ele>418.695</ele>
        <time>45984-04-05T06:40:00Z</time>
      </trkpt>
      <trkpt lat="43.221890" lon="-3.399234">
        <ele>423.749</ele>
        <time>45984-04-05T08:03:20Z</time>
      </trkpt>
      <trkpt lat="43.222005" lon="-3.400375">
        <ele>421.023</ele>
        <time>45984-04-05T09:10:00Z</time>
      </trkpt>
      <trkpt lat="43.221157" lon="-3.399962">
        <ele>412.408</ele>
        <time>45984-04-05T10:00:00Z</time>
      </trkpt>
      <trkpt lat="43.220286" lon="-3.401918">
        <ele>399.570</ele>
        <time>45984-04-05T11:56:40Z</time>
      </trkpt>
      <trkpt lat="43.219982" lon="-3.402079">
        <ele>397.334</ele>
        <time>45984-04-05T12:13:20Z</time>
      </trkpt>
      <trkpt lat="43.219919" lon="-3.400086">
        <ele>392.671</ele>
        <time>45984-04-05T13:53:20Z</time>
      </trkpt>
      <trkpt lat="43.218951" lon="-3.396850">
        <ele>377.944</ele>
        <time>45984-04-05T16:40:00Z</time>
      </trkpt>
      <trkpt lat="43.218303" lon="-3.396423">
        <ele>382.155</ele>
        <time>45984-04-05T17:30:00Z</time>
      </trkpt>
      <trkpt lat="43.218492" lon="-3.395306">
        <ele>387.643</ele>
        <time>45984-04-05T18:36:40Z</time>
      </trkpt>
      <trkpt lat="43.218261" lon="-3.391956">
        <ele>377.218</ele>
        <time>45984-04-05T21:23:20Z</time>
      </trkpt>
      <trkpt lat="43.218543" lon="-3.390387">
        <ele>374.863</ele>
        <time>45984-04-05T22:30:00Z</time>
      </trkpt>
      <trkpt lat="43.218430" lon="-3.388883">
        <ele>382.342</ele>
        <time>45984-04-05T23:53:20Z</time>
      </trkpt>
      <trkpt lat="43.218215" lon="-3.388452">
        <ele>383.022</ele>
        <time>45984-04-06T00:10:00Z</time>
      </trkpt>
      <trkpt lat="43.217322" lon="-3.388379">
        <ele>384.614</ele>
        <time>45984-04-06T01:16:40Z</time>
      </trkpt>
      <trkpt lat="43.215940" lon="-3.387370">
        <ele>394.508</ele>
        <time>45984-04-06T02:56:40Z</time>
      </trkpt>
      <trkpt lat="43.215890" lon="-3.387762">
        <ele>399.265</ele>
        <time>45984-04-06T03:13:20Z</time>
      </trkpt>
      <trkpt lat="43.214269" lon="-3.388529">
        <ele>396.879</ele>
        <time>45984-04-06T05:10:00Z</time>
      </trkpt>
      <trkpt lat="43.213470" lon="-3.389412">
        <ele>398.026</ele>
        <time>45984-04-06T06:16:40Z</time>
      </trkpt>
      <trkpt lat="43.212723" lon="-3.389474">
        <ele>389.979</ele>
        <time>45984-04-06T07:06:40Z</time>
      </trkpt>
      <trkpt lat="43.211335" lon="-3.390254">
        <ele>387.060</ele>
        <time>45984-04-06T09:03:20Z</time>
      </trkpt>
      <trkpt lat="43.210787" lon="-3.389426">
        <ele>390.968</ele>
        <time>45984-04-06T09:53:20Z</time>
      </trkpt>
      <trkpt lat="43.210128" lon="-3.389012">
        <ele>396.043</ele>
        <time>45984-04-06T10:43:20Z</time>
      </trkpt>
      <trkpt lat="43.209061" lon="-3.388758">
        <ele>405.838</ele>
        <time>45984-04-06T11:50:00Z</time>
      </trkpt>
      <trkpt lat="43.208340" lon="-3.388133">
        <ele>413.732</ele>
        <time>45984-04-06T12:40:00Z</time>
      </trkpt>
      <trkpt lat="43.207635" lon="-3.388211">
        <ele>420.292</ele>
        <time>45984-04-06T13:30:00Z</time>
      </trkpt>
      <trkpt lat="43.206944" lon="-3.388591">
        <ele>427.311</ele>
        <time>45984-04-06T14:20:00Z</time>
      </trkpt>
      <trkpt lat="43.206699" lon="-3.388985">
        <ele>429.708</ele>
        <time>45984-04-06T14:53:20Z</time>
      </trkpt>
      <trkpt lat="43.206199" lon="-3.390929">
        <ele>441.754</ele>
        <time>45984-04-06T16:33:20Z</time>
      </trkpt>
      <trkpt lat="43.206164" lon="-3.392223">
        <ele>449.028</ele>
        <time>45984-04-06T17:40:00Z</time>
      </trkpt>
      <trkpt lat="43.204664" lon="-3.392093">
        <ele>462.175</ele>
        <time>45984-04-06T19:20:00Z</time>
      </trkpt>
      <trkpt lat="43.204278" lon="-3.393418">
        <ele>472.148</ele>
        <time>45984-04-06T20:26:40Z</time>
      </trkpt>
      <trkpt lat="43.203808" lon="-3.393762">
        <ele>474.689</ele>
        <time>45984-04-06T21:00:00Z</time>
      </trkpt>
      <trkpt lat="43.202895" lon="-3.396116">
        <ele>477.717</ele>
        <time>45984-04-06T23:13:20Z</time>
      </trkpt>
      <trkpt lat="43.202878" lon="-3.397530">
        <ele>477.082</ele>
        <time>45984-04-07T00:20:00Z</time>
      </trkpt>
      <trkpt lat="43.202133" lon="-3.396879">
        <ele>480.917</ele>
        <time>45984-04-07T01:26:40Z</time>
      </trkpt>
      <trkpt lat="43.201767" lon="-3.397065">
        <ele>484.989</ele>
        <time>45984-04-07T02:00:00Z</time>
      </trkpt>
      <trkpt lat="43.202610" lon="-3.398387">
        <ele>498.906</ele>
        <time>45984-04-07T03:23:20Z</time>
      </trkpt>
      <trkpt lat="43.202810" lon="-3.399715">
        <ele>508.626</ele>
        <time>45984-04-07T04:30:00Z</time>
      </trkpt>
      <trkpt lat="43.203031" lon="-3.399734">
        <ele>511.808</ele>
        <time>45984-04-07T04:46:40Z</time>
      </trkpt>
      <trkpt lat="43.203378" lon="-3.399292">
        <ele>514.069</ele>
        <time>45984-04-07T05:20:00Z</time>
      </trkpt>
      <trkpt lat="43.203715" lon="-3.399287">
        <ele>517.823</ele>
        <time>45984-04-07T05:36:40Z</time>
      </trkpt>
      <trkpt lat="43.204240" lon="-3.400332">
        <ele>523.540</ele>
        <time>45984-04-07T06:43:20Z</time>
      </trkpt>
      <trkpt lat="43.204503" lon="-3.399852">
        <ele>526.033</ele>
        <time>45984-04-07T07:16:40Z</time>
      </trkpt>
      <trkpt lat="43.205182" lon="-3.399535">
        <ele>531.944</ele>
        <time>45984-04-07T07:50:00Z</time>
      </trkpt>
      <trkpt lat="43.205710" lon="-3.398735">
        <ele>531.272</ele>
        <time>45984-04-07T08:56:40Z</time>
      </trkpt>
      <trkpt lat="43.205977" lon="-3.399178">
        <ele>537.617</ele>
        <time>45984-04-07T09:13:20Z</time>
      </trkpt>
      <trkpt lat="43.205591" lon="-3.399904">
        <ele>549.922</ele>
        <time>45984-04-07T10:03:20Z</time>
      </trkpt>
      <trkpt lat="43.205496" lon="-3.400465">
        <ele>556.157</ele>
        <time>45984-04-07T10:36:40Z</time>
      </trkpt>
      <trkpt lat="43.205882" lon="-3.402282">
        <ele>571.200</ele>
        <time>45984-04-07T12:00:00Z</time>
      </trkpt>
      <trkpt lat="43.205225" lon="-3.402483">
        <ele>577.320</ele>
        <time>45984-04-07T12:50:00Z</time>
      </trkpt>
      <trkpt lat="43.204350" lon="-3.404316">
        <ele>597.208</ele>
        <time>45984-04-07T14:30:00Z</time>
      </trkpt>
      <trkpt lat="43.204422" lon="-3.406840">
        <ele>624.176</ele>
        <time>45984-04-07T16:43:20Z</time>
      </trkpt>
      <trkpt lat="43.204063" lon="-3.408156">
        <ele>632.640</ele>
        <time>45984-04-07T17:50:00Z</time>
      </trkpt>
      <trkpt lat="43.201985" lon="-3.407531">
        <ele>653.347</ele>
        <time>45984-04-07T20:20:00Z</time>
      </trkpt>
      <trkpt lat="43.200530" lon="-3.407697">
        <ele>653.330</ele>
        <time>45984-04-07T21:43:20Z</time>
      </trkpt>
      <trkpt lat="43.199577" lon="-3.408194">
        <ele>659.361</ele>
        <time>45984-04-07T23:06:40Z</time>
      </trkpt>
      <trkpt lat="43.197946" lon="-3.407489">
        <ele>651.799</ele>
        <time>45984-04-08T00:46:40Z</time>
      </trkpt>
      <trkpt lat="43.197135" lon="-3.406624">
        <ele>653.384</ele>
        <time>45984-04-08T02:10:00Z</time>
      </trkpt>
      <trkpt lat="43.195338" lon="-3.402426">
        <ele>614.969</ele>
        <time>45984-04-08T06:03:20Z</time>
      </trkpt>
      <trkpt lat="43.193716" lon="-3.401794">
        <ele>597.646</ele>
        <time>45984-04-08T08:00:00Z</time>
      </trkpt>
      <trkpt lat="43.193725" lon="-3.400875">
        <ele>599.588</ele>
        <time>45984-04-08T08:33:20Z</time>
      </trkpt>
      <trkpt lat="43.193379" lon="-3.399697">
        <ele>606.316</ele>
        <time>45984-04-08T09:40:00Z</time>
      </trkpt>
      <trkpt lat="43.193860" lon="-3.396926">
        <ele>603.408</ele>
        <time>45984-04-08T11:53:20Z</time>
      </trkpt>
      <trkpt lat="43.195182" lon="-3.394113">
        <ele>604.025</ele>
        <time>45984-04-08T14:40:00Z</time>
      </trkpt>
      <trkpt lat="43.195468" lon="-3.393143">
        <ele>599.839</ele>
        <time>45984-04-08T15:30:00Z</time>
      </trkpt>
      <trkpt lat="43.195297" lon="-3.392411">
        <ele>596.846</ele>
        <time>45984-04-08T16:20:00Z</time>
      </trkpt>
      <trkpt lat="43.195226" lon="-3.390327">
        <ele>575.179</ele>
        <time>45984-04-08T18:00:00Z</time>
      </trkpt>
      <trkpt lat="43.195714" lon="-3.386699">
        <ele>540.830</ele>
        <time>45984-04-08T21:03:20Z</time>
      </trkpt>
      <trkpt lat="43.196291" lon="-3.385880">
        <ele>529.278</ele>
        <time>45984-04-08T21:53:20Z</time>
      </trkpt>
      <trkpt lat="43.196064" lon="-3.385458">
        <ele>526.943</ele>
        <time>45984-04-08T22:26:40Z</time>
      </trkpt>
      <trkpt lat="43.195415" lon="-3.385641">
        <ele>520.398</ele>
        <time>45984-04-08T23:00:00Z</time>
      </trkpt>
      <trkpt lat="43.195658" lon="-3.384629">
        <ele>515.269</ele>
        <time>45984-04-08T23:50:00Z</time>
      </trkpt>
      <trkpt lat="43.195392" lon="-3.384289">
        <ele>511.704</ele>
        <time>45984-04-09T00:23:20Z</time>
      </trkpt>
      <trkpt lat="43.196179" lon="-3.382929">
        <ele>498.524</ele>
        <time>45984-04-09T01:46:40Z</time>
      </trkpt>
      <trkpt lat="43.195403" lon="-3.381183">
        <ele>481.208</ele>
        <time>45984-04-09T03:26:40Z</time>
      </trkpt>
      <trkpt lat="43.193228" lon="-3.381022">
        <ele>474.857</ele>
        <time>45984-04-09T05:56:40Z</time>
      </trkpt>
      <trkpt lat="43.193159" lon="-3.382313">
        <ele>481.391</ele>
        <time>45984-04-09T07:03:20Z</time>
      </trkpt>
      <trkpt lat="43.192783" lon="-3.383439">
        <ele>487.668</ele>
        <time>45984-04-09T07:53:20Z</time>
      </trkpt>
      <trkpt lat="43.191965" lon="-3.384208">
        <ele>491.341</ele>
        <time>45984-04-09T09:00:00Z</time>
      </trkpt>
      <trkpt lat="43.191296" lon="-3.384404">
        <ele>485.362</ele>
        <time>45984-04-09T09:50:00Z</time>
      </trkpt>
      <trkpt lat="43.190202" lon="-3.385148">
        <ele>487.120</ele>
        <time>45984-04-09T11:13:20Z</time>
      </trkpt>
      <trkpt lat="43.189474" lon="-3.385925">
        <ele>495.955</ele>
        <time>45984-04-09T12:20:00Z</time>
      </trkpt>
      <trkpt lat="43.189081" lon="-3.385243">
        <ele>501.060</ele>
        <time>45984-04-09T12:53:20Z</time>
      </trkpt>
      <trkpt lat="43.188332" lon="-3.385386">
        <ele>510.042</ele>
        <time>45984-04-09T13:43:20Z</time>
      </trkpt>
      <trkpt lat="43.187461" lon="-3.385952">
        <ele>510.322</ele>
        <time>45984-04-09T14:50:00Z</time>
      </trkpt>
      <trkpt lat="43.186400" lon="-3.385439">
        <ele>514.014</ele>
        <time>45984-04-09T16:13:20Z</time>
      </trkpt>
      <trkpt lat="43.185777" lon="-3.384293">
        <ele>520.308</ele>
        <time>45984-04-09T17:20:00Z</time>
      </trkpt>
      <trkpt lat="43.184506" lon="-3.383183">
        <ele>514.645</ele>
        <time>45984-04-09T19:00:00Z</time>
      </trkpt>
      <trkpt lat="43.183072" lon="-3.381437">
        <ele>495.999</ele>
        <time>45984-04-09T21:13:20Z</time>
      </trkpt>
      <trkpt lat="43.180817" lon="-3.383347">
        <ele>476.876</ele>
        <time>45984-04-10T00:16:40Z</time>
      </trkpt>
      <trkpt lat="43.180798" lon="-3.382930">
        <ele>472.929</ele>
        <time>45984-04-10T00:33:20Z</time>
      </trkpt>
      <trkpt lat="43.181073" lon="-3.382243">
        <ele>469.830</ele>
        <time>45984-04-10T01:06:40Z</time>
      </trkpt>
      <trkpt lat="43.181812" lon="-3.381213">
        <ele>467.378</ele>
        <time>45984-04-10T02:30:00Z</time>
      </trkpt>
      <trkpt lat="43.182475" lon="-3.378416">
        <ele>443.293</ele>
        <time>45984-04-10T04:43:20Z</time>
      </trkpt>
      <trkpt lat="43.181705" lon="-3.377321">
        <ele>438.648</ele>
        <time>45984-04-10T06:06:40Z</time>
      </trkpt>
      <trkpt lat="43.180513" lon="-3.377472">
        <ele>429.699</ele>
        <time>45984-04-10T07:30:00Z</time>
      </trkpt>
      <trkpt lat="43.180004" lon="-3.377069">
        <ele>421.907</ele>
        <time>45984-04-10T08:03:20Z</time>
      </trkpt>
      <trkpt lat="43.181242" lon="-3.376353">
        <ele>411.127</ele>
        <time>45984-04-10T09:26:40Z</time>
      </trkpt>
      <trkpt lat="43.181786" lon="-3.375649">
        <ele>410.208</ele>
        <time>45984-04-10T10:16:40Z</time>
      </trkpt>
      <trkpt lat="43.182282" lon="-3.373290">
        <ele>401.780</ele>
        <time>45984-04-10T12:30:00Z</time>
      </trkpt>
      <trkpt lat="43.182053" lon="-3.372589">
        <ele>394.414</ele>
        <time>45984-04-10T13:03:20Z</time>
      </trkpt>
      <trkpt lat="43.181047" lon="-3.373497">
        <ele>377.341</ele>
        <time>45984-04-10T14:26:40Z</time>
      </trkpt>
      <trkpt lat="43.180409" lon="-3.373443">
        <ele>367.874</ele>
        <time>45984-04-10T15:00:00Z</time>
      </trkpt>
      <trkpt lat="43.180716" lon="-3.371057">
        <ele>342.175</ele>
        <time>45984-04-10T17:13:20Z</time>
      </trkpt>
      <trkpt lat="43.181726" lon="-3.369533">
        <ele>342.593</ele>
        <time>45984-04-10T18:53:20Z</time>
      </trkpt>
      <trkpt lat="43.182342" lon="-3.369021">
        <ele>334.828</ele>
        <time>45984-04-10T19:43:20Z</time>
      </trkpt>
      <trkpt lat="43.183440" lon="-3.366756">
        <ele>290.943</ele>
        <time>45984-04-10T21:56:40Z</time>
      </trkpt>
      <trkpt lat="43.183903" lon="-3.366634">
        <ele>289.583</ele>
        <time>45984-04-10T22:30:00Z</time>
      </trkpt>
      <trkpt lat="43.184210" lon="-3.365945">
        <ele>284.425</ele>
        <time>45984-04-10T23:03:20Z</time>
      </trkpt>
      <trkpt lat="43.185120" lon="-3.365385">
        <ele>276.817</ele>
        <time>45984-04-11T00:10:00Z</time>
      </trkpt>
      <trkpt lat="43.185779" lon="-3.363283">
        <ele>264.908</ele>
        <time>45984-04-11T02:06:40Z</time>
      </trkpt>
      <trkpt lat="43.186558" lon="-3.361699">
        <ele>254.419</ele>
        <time>45984-04-11T03:46:40Z</time>
      </trkpt>
      <trkpt lat="43.186541" lon="-3.361266">
        <ele>254.423</ele>
        <time>45984-04-11T04:03:20Z</time>
      </trkpt>
      <trkpt lat="43.187459" lon="-3.359940">
        <ele>252.740</ele>
        <time>45984-04-11T05:26:40Z</time>
      </trkpt>
      <trkpt lat="43.188263" lon="-3.359803">
        <ele>252.773</ele>
        <time>45984-04-11T06:33:20Z</time>
      </trkpt>
      <trkpt lat="43.187707" lon="-3.358602">
        <ele>256.224</ele>
        <time>45984-04-11T07:40:00Z</time>
      </trkpt>
      <trkpt lat="43.187908" lon="-3.358556">
        <ele>255.422</ele>
        <time>45984-04-11T07:56:40Z</time>
      </trkpt>
      <trkpt lat="43.188621" lon="-3.359439">
        <ele>252.457</ele>
        <time>45984-04-11T09:03:20Z</time>
      </trkpt>
      <trkpt lat="43.190549" lon="-3.358594">
        <ele>246.752</ele>
        <time>45984-04-11T11:16:40Z</time>
      </trkpt>
      <trkpt lat="43.193494" lon="-3.358444">
        <ele>241.725</ele>
        <time>45984-04-11T14:36:40Z</time>
      </trkpt>
      <trkpt lat="43.194330" lon="-3.359040">
        <ele>239.326</ele>
        <time>45984-04-11T15:26:40Z</time>
      </trkpt>
      <trkpt lat="43.195490" lon="-3.358736">
        <ele>237.808</ele>
        <time>45984-04-11T16:50:00Z</time>
      </trkpt>
      <trkpt lat="43.195863" lon="-3.358184">
        <ele>236.708</ele>
        <time>45984-04-11T17:23:20Z</time>
      </trkpt>
      <trkpt lat="43.198210" lon="-3.358069">
        <ele>225.533</ele>
        <time>45984-04-11T20:10:00Z</time>
      </trkpt>
      <trkpt lat="43.200592" lon="-3.357158">
        <ele>221.167</ele>
        <time>45984-04-11T22:56:40Z</time>
      </trkpt>
      <trkpt lat="43.201230" lon="-3.357177">
        <ele>221.014</ele>
        <time>45984-04-11T23:30:00Z</time>
      </trkpt>
      <trkpt lat="43.202147" lon="-3.356591">
        <ele>218.077</ele>
        <time>45984-04-12T00:36:40Z</time>
      </trkpt>
      <trkpt lat="43.202629" lon="-3.356767">
        <ele>215.858</ele>
        <time>45984-04-12T01:10:00Z</time>
      </trkpt>
      <trkpt lat="43.203190" lon="-3.356437">
        <ele>213.716</ele>
        <time>45984-04-12T02:00:00Z</time>
      </trkpt>
      <trkpt lat="43.203436" lon="-3.356022">
        <ele>211.321</ele>
        <time>45984-04-12T02:16:40Z</time>
      </trkpt>
      <trkpt lat="43.204535" lon="-3.355823">
        <ele>207.466</ele>
        <time>45984-04-12T03:40:00Z</time>
      </trkpt>
      <trkpt lat="43.203372" lon="-3.355558">
        <ele>219.655</ele>
        <time>45984-04-12T05:03:20Z</time>
      </trkpt>
      <trkpt lat="43.202823" lon="-3.356115">
        <ele>224.407</ele>
        <time>45984-04-12T05:36:40Z</time>
      </trkpt>
      <trkpt lat="43.202135" lon="-3.356179">
        <ele>228.117</ele>
        <time>45984-04-12T06:26:40Z</time>
      </trkpt>
      <trkpt lat="43.202038" lon="-3.355451">
        <ele>235.308</ele>
        <time>45984-04-12T07:00:00Z</time>
      </trkpt>
      <trkpt lat="43.201818" lon="-3.355229">
        <ele>238.266</ele>
        <time>45984-04-12T07:33:20Z</time>
      </trkpt>
      <trkpt lat="43.201252" lon="-3.355271">
        <ele>241.770</ele>
        <time>45984-04-12T08:06:40Z</time>
      </trkpt>
      <trkpt lat="43.200908" lon="-3.355572">
        <ele>244.927</ele>
        <time>45984-04-12T08:40:00Z</time>
      </trkpt>
      <trkpt lat="43.200670" lon="-3.355510">
        <ele>247.570</ele>
        <time>45984-04-12T08:56:40Z</time>
      </trkpt>
      <trkpt lat="43.200633" lon="-3.355169">
        <ele>250.911</ele>
        <time>45984-04-12T09:13:20Z</time>
      </trkpt>
      <trkpt lat="43.201034" lon="-3.354534">
        <ele>253.769</ele>
        <time>45984-04-12T09:46:40Z</time>
      </trkpt>
      <trkpt lat="43.200792" lon="-3.354267">
        <ele>258.654</ele>
        <time>45984-04-12T10:03:20Z</time>
      </trkpt>
      <trkpt lat="43.200453" lon="-3.354553">
        <ele>260.339</ele>
        <time>45984-04-12T10:36:40Z</time>
      </trkpt>
      <trkpt lat="43.199921" lon="-3.354618">
        <ele>266.398</ele>
        <time>45984-04-12T11:10:00Z</time>
      </trkpt>
      <trkpt lat="43.199249" lon="-3.355091">
        <ele>272.115</ele>
        <time>45984-04-12T12:00:00Z</time>
      </trkpt>
      <trkpt lat="43.199054" lon="-3.355787">
        <ele>276.726</ele>
        <time>45984-04-12T12:50:00Z</time>
      </trkpt>
      <trkpt lat="43.198837" lon="-3.355975">
        <ele>279.408</ele>
        <time>45984-04-12T13:06:40Z</time>
      </trkpt>
      <trkpt lat="43.198327" lon="-3.354683">
        <ele>291.280</ele>
        <time>45984-04-12T14:13:20Z</time>
      </trkpt>
      <trkpt lat="43.198470" lon="-3.353577">
        <ele>298.144</ele>
        <time>45984-04-12T15:03:20Z</time>
      </trkpt>
      <trkpt lat="43.198255" lon="-3.353409">
        <ele>302.461</ele>
        <time>45984-04-12T15:36:40Z</time>
      </trkpt>
      <trkpt lat="43.197982" lon="-3.353809">
        <ele>305.964</ele>
        <time>45984-04-12T15:53:20Z</time>
      </trkpt>
      <trkpt lat="43.198013" lon="-3.355233">
        <ele>313.625</ele>
        <time>45984-04-12T17:00:00Z</time>
      </trkpt>
      <trkpt lat="43.197109" lon="-3.355516">
        <ele>320.553</ele>
        <time>45984-04-12T18:06:40Z</time>
      </trkpt>
      <trkpt lat="43.195503" lon="-3.355225">
        <ele>332.828</ele>
        <time>45984-04-12T20:03:20Z</time>
      </trkpt>
      <trkpt lat="43.194238" lon="-3.353982">
        <ele>345.373</ele>
        <time>45984-04-12T21:43:20Z</time>
      </trkpt>
      <trkpt lat="43.194434" lon="-3.353445">
        <ele>353.228</ele>
        <time>45984-04-12T22:16:40Z</time>
      </trkpt>
      <trkpt lat="43.195580" lon="-3.354201">
        <ele>360.089</ele>
        <time>45984-04-12T23:40:00Z</time>
      </trkpt>
      <trkpt lat="43.196002" lon="-3.353969">
        <ele>363.817</ele>
        <time>45984-04-13T00:13:20Z</time>
      </trkpt>
      <trkpt lat="43.195854" lon="-3.353490">
        <ele>368.908</ele>
        <time>45984-04-13T00:46:40Z</time>
      </trkpt>
      <trkpt lat="43.194435" lon="-3.351882">
        <ele>385.293</ele>
        <time>45984-04-13T02:43:20Z</time>
      </trkpt>
      <trkpt lat="43.194459" lon="-3.349958">
        <ele>397.397</ele>
        <time>45984-04-13T04:23:20Z</time>
      </trkpt>
      <trkpt lat="43.194764" lon="-3.349876">
        <ele>399.524</ele>
        <time>45984-04-13T04:40:00Z</time>
      </trkpt>
      <trkpt lat="43.195167" lon="-3.350727">
        <ele>403.087</ele>
        <time>45984-04-13T05:30:00Z</time>
      </trkpt>
      <trkpt lat="43.195489" lon="-3.350675">
        <ele>406.928</ele>
        <time>45984-04-13T05:46:40Z</time>
      </trkpt>
      <trkpt lat="43.195567" lon="-3.350418">
        <ele>409.526</ele>
        <time>45984-04-13T06:03:20Z</time>
      </trkpt>
      <trkpt lat="43.194746" lon="-3.347435">
        <ele>427.961</ele>
        <time>45984-04-13T08:33:20Z</time>
      </trkpt>
      <trkpt lat="43.194721" lon="-3.346707">
        <ele>433.326</ele>
        <time>45984-04-13T09:23:20Z</time>
      </trkpt>
      <trkpt lat="43.196728" lon="-3.345142">
        <ele>437.865</ele>
        <time>45984-04-13T11:53:20Z</time>
      </trkpt>
      <trkpt lat="43.197288" lon="-3.345183">
        <ele>439.368</ele>
        <time>45984-04-13T12:26:40Z</time>
      </trkpt>
      <trkpt lat="43.197820" lon="-3.345504">
        <ele>438.414</ele>
        <time>45984-04-13T13:16:40Z</time>
      </trkpt>
      <trkpt lat="43.198353" lon="-3.345006">
        <ele>435.108</ele>
        <time>45984-04-13T13:50:00Z</time>
      </trkpt>
      <trkpt lat="43.198713" lon="-3.343773">
        <ele>427.087</ele>
        <time>43769-08-27T21:26:40Z</time>
      </trkpt>
      <trkpt lat="43.198401" lon="-3.343547">
        <ele>423.071</ele>
        <time>10525032-03-02T15:26:40Z</time>
      </trkpt>
      <trkpt lat="43.197528" lon="-3.344325">
        <ele>415.168</ele>
        <time>46812-12-14T16:20:00Z</time>
      </trkpt>
      <trkpt lat="43.196905" lon="-3.343770">
        <ele>409.761</ele>
        <time>46812-12-16T01:40:00Z</time>
      </trkpt>
      <trkpt lat="43.196397" lon="-3.342208">
        <ele>391.282</ele>
        <time>46812-12-17T22:06:40Z</time>
      </trkpt>
      <trkpt lat="43.196873" lon="-3.342066">
        <ele>392.230</ele>
        <time>46812-12-18T09:13:20Z</time>
      </trkpt>
      <trkpt lat="43.197502" lon="-3.342257">
        <ele>390.585</ele>
        <time>46812-12-19T01:53:20Z</time>
      </trkpt>
      <trkpt lat="43.197694" lon="-3.341615">
        <ele>381.770</ele>
        <time>46812-12-19T18:33:20Z</time>
      </trkpt>
      <trkpt lat="43.198617" lon="-3.340818">
        <ele>379.061</ele>
        <time>46812-12-21T20:33:20Z</time>
      </trkpt>
      <trkpt lat="43.198848" lon="-3.339931">
        <ele>366.621</ele>
        <time>45984-04-13T19:23:20Z</time>
      </trkpt>
      <trkpt lat="43.199479" lon="-3.338918">
        <ele>358.713</ele>
        <time>45984-04-13T20:30:00Z</time>
      </trkpt>
      <trkpt lat="43.199743" lon="-3.337783">
        <ele>343.108</ele>
        <time>45984-04-13T21:20:00Z</time>
      </trkpt>
      <trkpt lat="43.199307" lon="-3.337575">
        <ele>334.297</ele>
        <time>45984-04-13T21:53:20Z</time>
      </trkpt>
      <trkpt lat="43.199199" lon="-3.336817">
        <ele>320.641</ele>
        <time>45984-04-13T22:26:40Z</time>
      </trkpt>
      <trkpt lat="43.198758" lon="-3.336117">
        <ele>302.158</ele>
        <time>45984-04-13T23:16:40Z</time>
      </trkpt>
      <trkpt lat="43.198778" lon="-3.334942">
        <ele>282.551</ele>
        <time>45984-04-14T00:23:20Z</time>
      </trkpt>
      <trkpt lat="43.199224" lon="-3.334368">
        <ele>277.062</ele>
        <time>45984-04-14T00:56:40Z</time>
      </trkpt>
      <trkpt lat="43.199609" lon="-3.333423">
        <ele>264.690</ele>
        <time>45984-04-14T01:46:40Z</time>
      </trkpt>
      <trkpt lat="43.200031" lon="-3.333365">
        <ele>258.665</ele>
        <time>45984-04-14T02:20:00Z</time>
      </trkpt>
      <trkpt lat="43.200433" lon="-3.332836">
        <ele>255.180</ele>
        <time>45984-04-14T02:53:20Z</time>
      </trkpt>
      <trkpt lat="43.200899" lon="-3.332709">
        <ele>257.071</ele>
        <time>45984-04-14T03:26:40Z</time>
      </trkpt>
      <trkpt lat="43.199900" lon="-3.332125">
        <ele>267.541</ele>
        <time>45984-04-14T04:50:00Z</time>
      </trkpt>
      <trkpt lat="43.199878" lon="-3.331591">
        <ele>271.015</ele>
        <time>45984-04-14T05:06:40Z</time>
      </trkpt>
      <trkpt lat="43.200274" lon="-3.330986">
        <ele>275.508</ele>
        <time>45984-04-14T05:56:40Z</time>
      </trkpt>
      <trkpt lat="43.201854" lon="-3.330340">
        <ele>286.098</ele>
        <time>45984-04-14T07:36:40Z</time>
      </trkpt>
      <trkpt lat="43.201313" lon="-3.329808">
        <ele>287.042</ele>
        <time>45984-04-14T08:26:40Z</time>
      </trkpt>
      <trkpt lat="43.202264" lon="-3.328630">
        <ele>281.299</ele>
        <time>45984-04-14T09:50:00Z</time>
      </trkpt>
      <trkpt lat="43.202692" lon="-3.328512">
        <ele>274.372</ele>
        <time>45984-04-14T10:23:20Z</time>
      </trkpt>
      <trkpt lat="43.202061" lon="-3.327673">
        <ele>268.963</ele>
        <time>45984-04-14T11:30:00Z</time>
      </trkpt>
      <trkpt lat="43.202273" lon="-3.327150">
        <ele>263.231</ele>
        <time>45984-04-14T12:03:20Z</time>
      </trkpt>
      <trkpt lat="43.202824" lon="-3.326893">
        <ele>259.986</ele>
        <time>45984-04-14T12:36:40Z</time>
      </trkpt>
      <trkpt lat="43.203098" lon="-3.325906">
        <ele>251.491</ele>
        <time>45984-04-14T13:26:40Z</time>
      </trkpt>
      <trkpt lat="43.202073" lon="-3.323724">
        <ele>270.293</ele>
        <time>46813-01-13T07:26:40Z</time>
      </trkpt>
      <trkpt lat="43.201148" lon="-3.319940">
        <ele>284.965</ele>
        <time>46813-01-18T15:13:20Z</time>
      </trkpt>
      <trkpt lat="43.200838" lon="-3.319422">
        <ele>291.521</ele>
        <time>46813-01-19T13:26:40Z</time>
      </trkpt>
      <trkpt lat="43.200917" lon="-3.318777">
        <ele>295.308</ele>
        <time>46813-01-20T17:13:20Z</time>
      </trkpt>
      <trkpt lat="43.200244" lon="-3.316927">
        <ele>311.880</ele>
        <time>46813-01-23T11:53:20Z</time>
      </trkpt>
      <trkpt lat="43.199855" lon="-3.316771">
        <ele>314.854</ele>
        <time>46813-01-24T10:06:40Z</time>
      </trkpt>
      <trkpt lat="43.200399" lon="-3.316728">
        <ele>321.471</ele>
        <time>46813-01-25T13:53:20Z</time>
      </trkpt>
      <trkpt lat="43.201816" lon="-3.319096">
        <ele>351.194</ele>
        <time>46813-01-29T23:26:40Z</time>
      </trkpt>
      <trkpt lat="43.202418" lon="-3.319455">
        <ele>363.465</ele>
        <time>46813-01-31T03:13:20Z</time>
      </trkpt>
      <trkpt lat="43.204468" lon="-3.321841">
        <ele>359.323</ele>
        <time>46813-02-04T07:13:20Z</time>
      </trkpt>
      <trkpt lat="43.205354" lon="-3.322219">
        <ele>370.358</ele>
        <time>46813-02-06T03:40:00Z</time>
      </trkpt>
      <trkpt lat="43.205534" lon="-3.322977">
        <ele>378.043</ele>
        <time>46813-02-07T13:00:00Z</time>
      </trkpt>
      <trkpt lat="43.206020" lon="-3.323493">
        <ele>385.325</ele>
        <time>46813-02-08T11:13:20Z</time>
      </trkpt>
      <trkpt lat="43.207738" lon="-3.324001">
        <ele>406.126</ele>
        <time>46813-02-11T00:20:00Z</time>
      </trkpt>
      <trkpt lat="43.209428" lon="-3.323306">
        <ele>418.908</ele>
        <time>46813-02-13T07:53:20Z</time>
      </trkpt>
      <trkpt lat="43.209859" lon="-3.322782">
        <ele>423.808</ele>
        <time>46813-02-14T00:33:20Z</time>
      </trkpt>
      <trkpt lat="43.211224" lon="-3.319550">
        <ele>431.693</ele>
        <time>45984-04-15T10:00:00Z</time>
      </trkpt>
      <trkpt lat="43.211085" lon="-3.318362">
        <ele>439.777</ele>
        <time>45984-04-15T11:06:40Z</time>
      </trkpt>
      <trkpt lat="43.211432" lon="-3.311140">
        <ele>489.954</ele>
        <time>45984-04-15T16:56:40Z</time>
      </trkpt>
      <trkpt lat="43.211132" lon="-3.309545">
        <ele>511.367</ele>
        <time>45984-04-15T18:20:00Z</time>
      </trkpt>
      <trkpt lat="43.210894" lon="-3.309042">
        <ele>518.028</ele>
        <time>45984-04-15T18:53:20Z</time>
      </trkpt>
      <trkpt lat="43.210267" lon="-3.308680">
        <ele>517.466</ele>
        <time>45984-04-15T19:26:40Z</time>
      </trkpt>
      <trkpt lat="43.209603" lon="-3.307648">
        <ele>510.511</ele>
        <time>45984-04-15T20:33:20Z</time>
      </trkpt>
      <trkpt lat="43.209575" lon="-3.306682">
        <ele>513.076</ele>
        <time>45984-04-15T21:23:20Z</time>
      </trkpt>
      <trkpt lat="43.209940" lon="-3.304599">
        <ele>509.367</ele>
        <time>45984-04-15T23:03:20Z</time>
      </trkpt>
      <trkpt lat="43.209479" lon="-3.303125">
        <ele>509.181</ele>
        <time>45984-04-16T00:26:40Z</time>
      </trkpt>
      <trkpt lat="43.209479" lon="-3.301805">
        <ele>514.019</ele>
        <time>45984-04-16T01:33:20Z</time>
      </trkpt>
      <trkpt lat="43.211158" lon="-3.301903">
        <ele>496.508</ele>
        <time>45984-04-16T03:30:00Z</time>
      </trkpt>
      <trkpt lat="43.212669" lon="-3.300020">
        <ele>486.127</ele>
        <time>45984-04-16T05:43:20Z</time>
      </trkpt>
      <trkpt lat="43.214278" lon="-3.300160">
        <ele>489.041</ele>
        <time>45984-04-16T07:40:00Z</time>
      </trkpt>
      <trkpt lat="43.215025" lon="-3.300854">
        <ele>489.788</ele>
        <time>45984-04-16T08:30:00Z</time>
      </trkpt>
      <trkpt lat="43.215763" lon="-3.301063">
        <ele>475.071</ele>
        <time>45984-04-16T09:20:00Z</time>
      </trkpt>
      <trkpt lat="43.216731" lon="-3.299991">
        <ele>467.752</ele>
        <time>45984-04-16T10:43:20Z</time>
      </trkpt>
      <trkpt lat="43.217526" lon="-3.300116">
        <ele>478.230</ele>
        <time>45984-04-16T11:50:00Z</time>
      </trkpt>
      <trkpt lat="43.218072" lon="-3.299454">
        <ele>480.135</ele>
        <time>45984-04-16T12:40:00Z</time>
      </trkpt>
      <trkpt lat="43.218512" lon="-3.299392">
        <ele>482.410</ele>
        <time>45984-04-16T12:56:40Z</time>
      </trkpt>
      <trkpt lat="43.219670" lon="-3.299915">
        <ele>497.199</ele>
        <time>45984-04-16T14:20:00Z</time>
      </trkpt>
      <trkpt lat="43.219997" lon="-3.300428">
        <ele>501.007</ele>
        <time>45984-04-16T14:53:20Z</time>
      </trkpt>
      <trkpt lat="43.220680" lon="-3.300404">
        <ele>508.227</ele>
        <time>45984-04-16T15:43:20Z</time>
      </trkpt>
      <trkpt lat="43.221840" lon="-3.299776">
        <ele>513.508</ele>
        <time>45984-04-16T17:06:40Z</time>
      </trkpt>
      <trkpt lat="43.223776" lon="-3.297674">
        <ele>528.970</ele>
        <time>45984-04-16T19:53:20Z</time>
      </trkpt>
      <trkpt lat="43.224557" lon="-3.297245">
        <ele>532.014</ele>
        <time>45984-04-16T21:00:00Z</time>
      </trkpt>
      <trkpt lat="43.225703" lon="-3.297593">
        <ele>527.291</ele>
        <time>45984-04-16T22:06:40Z</time>
      </trkpt>
      <trkpt lat="43.226465" lon="-3.297296">
        <ele>520.374</ele>
        <time>45984-04-16T23:13:20Z</time>
      </trkpt>
      <trkpt lat="43.227704" lon="-3.297449">
        <ele>513.075</ele>
        <time>45984-04-17T00:36:40Z</time>
      </trkpt>
      <trkpt lat="43.228494" lon="-3.297827">
        <ele>514.973</ele>
        <time>45984-04-17T01:26:40Z</time>
      </trkpt>
      <trkpt lat="43.229224" lon="-3.297793">
        <ele>502.628</ele>
        <time>45984-04-17T02:16:40Z</time>
      </trkpt>
      <trkpt lat="43.230437" lon="-3.297329">
        <ele>483.043</ele>
        <time>45984-04-17T03:40:00Z</time>
      </trkpt>
      <trkpt lat="43.231267" lon="-3.296309">
        <ele>463.958</ele>
        <time>45984-04-17T04:46:40Z</time>
      </trkpt>
      <trkpt lat="43.232114" lon="-3.297036">
        <ele>455.052</ele>
        <time>45984-04-17T05:53:20Z</time>
      </trkpt>
      <trkpt lat="43.232282" lon="-3.295242">
        <ele>441.117</ele>
        <time>45984-04-17T07:33:20Z</time>
      </trkpt>
      <trkpt lat="43.231107" lon="-3.294919">
        <ele>450.908</ele>
        <time>45984-04-17T08:56:40Z</time>
      </trkpt>
      <trkpt lat="43.230149" lon="-3.294127">
        <ele>460.196</ele>
        <time>45984-04-17T10:03:20Z</time>
      </trkpt>
      <trkpt lat="43.229929" lon="-3.292875">
        <ele>464.490</ele>
        <time>45984-04-17T11:10:00Z</time>
      </trkpt>
      <trkpt lat="43.229224" lon="-3.291309">
        <ele>480.057</ele>
        <time>45984-04-17T12:50:00Z</time>
      </trkpt>
      <trkpt lat="43.227990" lon="-3.291408">
        <ele>487.460</ele>
        <time>45984-04-17T14:13:20Z</time>
      </trkpt>
      <trkpt lat="43.229941" lon="-3.282937">
        <ele>413.411</ele>
        <time>45984-04-17T21:26:40Z</time>
      </trkpt>
      <trkpt lat="43.231666" lon="-3.277366">
        <ele>357.879</ele>
        <time>45984-04-18T02:10:00Z</time>
      </trkpt>
      <trkpt lat="43.231783" lon="-3.275551">
        <ele>347.594</ele>
        <time>45984-04-18T03:50:00Z</time>
      </trkpt>
      <trkpt lat="43.230891" lon="-3.275726">
        <ele>341.059</ele>
        <time>45984-04-18T04:40:00Z</time>
      </trkpt>
      <trkpt lat="43.230144" lon="-3.276963">
        <ele>344.134</ele>
        <time>45984-04-18T06:03:20Z</time>
      </trkpt>
      <trkpt lat="43.230039" lon="-3.277458">
        <ele>347.055</ele>
        <time>45984-04-18T06:36:40Z</time>
      </trkpt>
      <trkpt lat="43.229324" lon="-3.278236">
        <ele>346.610</ele>
        <time>45984-04-18T07:26:40Z</time>
      </trkpt>
      <trkpt lat="43.228768" lon="-3.278381">
        <ele>344.208</ele>
        <time>45984-04-18T08:16:40Z</time>
      </trkpt>
      <trkpt lat="43.228152" lon="-3.278182">
        <ele>343.044</ele>
        <time>45984-04-18T08:50:00Z</time>
      </trkpt>
      <trkpt lat="43.227908" lon="-3.275664">
        <ele>320.038</ele>
        <time>45984-04-18T11:03:20Z</time>
      </trkpt>
      <trkpt lat="43.227554" lon="-3.275519">
        <ele>317.285</ele>
        <time>45984-04-18T11:20:00Z</time>
      </trkpt>
      <trkpt lat="43.227601" lon="-3.273635">
        <ele>300.078</ele>
        <time>45984-04-18T13:00:00Z</time>
      </trkpt>
      <trkpt lat="43.226076" lon="-3.272552">
        <ele>289.789</ele>
        <time>45984-04-18T14:56:40Z</time>
      </trkpt>
      <trkpt lat="43.225928" lon="-3.271622">
        <ele>292.027</ele>
        <time>45984-04-18T15:30:00Z</time>
      </trkpt>
      <trkpt lat="43.224335" lon="-3.270180">
        <ele>272.052</ele>
        <time>45984-04-18T17:43:20Z</time>
      </trkpt>
      <trkpt lat="43.224272" lon="-3.269356">
        <ele>267.717</ele>
        <time>45984-04-18T18:33:20Z</time>
      </trkpt>
      <trkpt lat="43.224095" lon="-3.269001">
        <ele>261.659</ele>
        <time>45984-04-18T18:50:00Z</time>
      </trkpt>
      <trkpt lat="43.223651" lon="-3.269300">
        <ele>257.503</ele>
        <time>45984-04-18T19:23:20Z</time>
      </trkpt>
      <trkpt lat="43.223495" lon="-3.270270">
        <ele>251.223</ele>
        <time>45984-04-18T20:13:20Z</time>
      </trkpt>
      <trkpt lat="43.223252" lon="-3.270306">
        <ele>247.608</ele>
        <time>45984-04-18T20:30:00Z</time>
      </trkpt>
      <trkpt lat="43.223061" lon="-3.268231">
        <ele>232.566</ele>
        <time>45984-04-18T22:10:00Z</time>
      </trkpt>
      <trkpt lat="43.223490" lon="-3.267343">
        <ele>229.040</ele>
        <time>45984-04-18T23:00:00Z</time>
      </trkpt>
      <trkpt lat="43.222684" lon="-3.267204">
        <ele>231.617</ele>
        <time>45984-04-19T00:06:40Z</time>
      </trkpt>
      <trkpt lat="43.222644" lon="-3.266753">
        <ele>232.040</ele>
        <time>45984-04-19T00:23:20Z</time>
      </trkpt>
      <trkpt lat="43.222089" lon="-3.265434">
        <ele>237.781</ele>
        <time>45984-04-19T01:30:00Z</time>
      </trkpt>
      <trkpt lat="43.222152" lon="-3.263172">
        <ele>257.749</ele>
        <time>45984-04-19T03:26:40Z</time>
      </trkpt>
      <trkpt lat="43.222366" lon="-3.263207">
        <ele>262.064</ele>
        <time>45984-04-19T03:43:20Z</time>
      </trkpt>
      <trkpt lat="43.223014" lon="-3.264525">
        <ele>277.449</ele>
        <time>45984-04-19T05:06:40Z</time>
      </trkpt>
      <trkpt lat="43.223125" lon="-3.263107">
        <ele>285.972</ele>
        <time>45984-04-19T06:13:20Z</time>
      </trkpt>
      <trkpt lat="43.223878" lon="-3.261422">
        <ele>305.313</ele>
        <time>45984-04-19T07:53:20Z</time>
      </trkpt>
      <trkpt lat="43.224200" lon="-3.261086">
        <ele>311.414</ele>
        <time>45984-04-19T08:10:00Z</time>
      </trkpt>
      <trkpt lat="43.224843" lon="-3.260897">
        <ele>317.308</ele>
        <time>45984-04-19T09:00:00Z</time>
      </trkpt>
      <trkpt lat="43.225041" lon="-3.260471">
        <ele>322.258</ele>
        <time>45984-04-19T09:33:20Z</time>
      </trkpt>
      <trkpt lat="43.225593" lon="-3.260417">
        <ele>325.842</ele>
        <time>45984-04-19T10:06:40Z</time>
      </trkpt>
      <trkpt lat="43.226164" lon="-3.259361">
        <ele>334.839</ele>
        <time>45984-04-19T11:13:20Z</time>
      </trkpt>
      <trkpt lat="43.226466" lon="-3.257100">
        <ele>346.642</ele>
        <time>45984-04-19T12:53:20Z</time>
      </trkpt>
      <trkpt lat="43.226344" lon="-3.256604">
        <ele>352.013</ele>
        <time>45984-04-19T13:26:40Z</time>
      </trkpt>
      <trkpt lat="43.227167" lon="-3.253400">
        <ele>386.911</ele>
        <time>45984-04-19T16:13:20Z</time>
      </trkpt>
      <trkpt lat="43.227554" lon="-3.253469">
        <ele>391.056</ele>
        <time>45984-04-19T16:30:00Z</time>
      </trkpt>
      <trkpt lat="43.228276" lon="-3.254687">
        <ele>401.421</ele>
        <time>45984-04-19T17:53:20Z</time>
      </trkpt>
      <trkpt lat="43.229255" lon="-3.254938">
        <ele>398.731</ele>
        <time>45984-04-19T19:00:00Z</time>
      </trkpt>
      <trkpt lat="43.228755" lon="-3.254598">
        <ele>406.861</ele>
        <time>45984-04-19T19:33:20Z</time>
      </trkpt>
      <trkpt lat="43.228609" lon="-3.253821">
        <ele>415.607</ele>
        <time>45984-04-19T20:23:20Z</time>
      </trkpt>
      <trkpt lat="43.228935" lon="-3.251954">
        <ele>431.508</ele>
        <time>45984-04-19T21:46:40Z</time>
      </trkpt>
      <trkpt lat="43.229372" lon="-3.251494">
        <ele>437.794</ele>
        <time>45984-04-19T22:36:40Z</time>
      </trkpt>
      <trkpt lat="43.228718" lon="-3.249894">
        <ele>453.738</ele>
        <time>45984-04-20T00:00:00Z</time>
      </trkpt>
      <trkpt lat="43.229155" lon="-3.249749">
        <ele>458.975</ele>
        <time>45984-04-20T00:33:20Z</time>
      </trkpt>
      <trkpt lat="43.229932" lon="-3.248615">
        <ele>469.138</ele>
        <time>45984-04-20T01:56:40Z</time>
      </trkpt>
      <trkpt lat="43.229653" lon="-3.248220">
        <ele>475.669</ele>
        <time>45984-04-20T02:13:20Z</time>
      </trkpt>
      <trkpt lat="43.228840" lon="-3.247710">
        <ele>484.137</ele>
        <time>45984-04-20T03:20:00Z</time>
      </trkpt>
      <trkpt lat="43.228360" lon="-3.245682">
        <ele>492.772</ele>
        <time>45984-04-20T05:00:00Z</time>
      </trkpt>
      <trkpt lat="43.226867" lon="-3.244234">
        <ele>501.567</ele>
        <time>45984-04-20T07:13:20Z</time>
      </trkpt>
      <trkpt lat="43.226606" lon="-3.243333">
        <ele>509.393</ele>
        <time>45984-04-20T07:46:40Z</time>
      </trkpt>
      <trkpt lat="43.225989" lon="-3.243814">
        <ele>511.065</ele>
        <time>45984-04-20T08:36:40Z</time>
      </trkpt>
      <trkpt lat="43.225339" lon="-3.243957">
        <ele>515.721</ele>
        <time>45984-04-20T09:26:40Z</time>
      </trkpt>
      <trkpt lat="43.224399" lon="-3.245416">
        <ele>530.208</ele>
        <time>45984-04-20T11:06:40Z</time>
      </trkpt>
      <trkpt lat="43.224126" lon="-3.246157">
        <ele>534.650</ele>
        <time>45984-04-20T11:40:00Z</time>
      </trkpt>
      <trkpt lat="43.224025" lon="-3.247271">
        <ele>541.564</ele>
        <time>45984-04-20T12:30:00Z</time>
      </trkpt>
      <trkpt lat="43.223264" lon="-3.249619">
        <ele>529.271</ele>
        <time>45984-04-20T14:43:20Z</time>
      </trkpt>
      <trkpt lat="43.222728" lon="-3.250010">
        <ele>524.944</ele>
        <time>45984-04-20T15:16:40Z</time>
      </trkpt>
      <trkpt lat="43.221634" lon="-3.250129">
        <ele>531.415</ele>
        <time>45984-04-20T16:40:00Z</time>
      </trkpt>
      <trkpt lat="43.220814" lon="-3.249541">
        <ele>533.493</ele>
        <time>45984-04-20T17:46:40Z</time>
      </trkpt>
      <trkpt lat="43.220779" lon="-3.246862">
        <ele>544.838</ele>
        <time>45984-04-20T19:43:20Z</time>
      </trkpt>
      <trkpt lat="43.220356" lon="-3.245004">
        <ele>557.133</ele>
        <time>45984-04-20T21:23:20Z</time>
      </trkpt>
      <trkpt lat="43.220607" lon="-3.243485">
        <ele>565.696</ele>
        <time>45984-04-20T22:46:40Z</time>
      </trkpt>
      <trkpt lat="43.219441" lon="-3.243030">
        <ele>567.131</ele>
        <time>45984-04-21T00:10:00Z</time>
      </trkpt>
      <trkpt lat="43.218788" lon="-3.240743">
        <ele>565.224</ele>
        <time>45984-04-21T02:06:40Z</time>
      </trkpt>
      <trkpt lat="43.218311" lon="-3.240684">
        <ele>564.008</ele>
        <time>45984-04-21T02:40:00Z</time>
      </trkpt>
      <trkpt lat="43.216608" lon="-3.245020">
        <ele>565.470</ele>
        <time>45984-04-21T06:33:20Z</time>
      </trkpt>
      <trkpt lat="43.215942" lon="-3.245163">
        <ele>567.444</ele>
        <time>45984-04-21T07:23:20Z</time>
      </trkpt>
      <trkpt lat="43.214998" lon="-3.244563">
        <ele>572.871</ele>
        <time>45984-04-21T08:30:00Z</time>
      </trkpt>
      <trkpt lat="43.214570" lon="-3.244662">
        <ele>574.024</ele>
        <time>45984-04-21T09:03:20Z</time>
      </trkpt>
      <trkpt lat="43.212514" lon="-3.248490">
        <ele>602.075</ele>
        <time>45984-04-21T12:56:40Z</time>
      </trkpt>
      <trkpt lat="43.211935" lon="-3.249972">
        <ele>610.823</ele>
        <time>45984-04-21T14:20:00Z</time>
      </trkpt>
      <trkpt lat="43.211474" lon="-3.250566">
        <ele>615.588</ele>
        <time>45984-04-21T15:10:00Z</time>
      </trkpt>
      <trkpt lat="43.210724" lon="-3.250945">
        <ele>621.223</ele>
        <time>45984-04-21T16:00:00Z</time>
      </trkpt>
      <trkpt lat="43.210254" lon="-3.251776">
        <ele>625.497</ele>
        <time>45984-04-21T16:50:00Z</time>
      </trkpt>
      <trkpt lat="43.209768" lon="-3.251954">
        <ele>630.123</ele>
        <time>45984-04-21T17:23:20Z</time>
      </trkpt>
      <trkpt lat="43.209136" lon="-3.251658">
        <ele>635.525</ele>
        <time>45984-04-21T18:13:20Z</time>
      </trkpt>
      <trkpt lat="43.208356" lon="-3.250744">
        <ele>644.408</ele>
        <time>45984-04-21T19:20:00Z</time>
      </trkpt>
      <trkpt lat="43.207081" lon="-3.250761">
        <ele>658.250</ele>
        <time>45984-04-21T20:43:20Z</time>
      </trkpt>
      <trkpt lat="43.206307" lon="-3.251218">
        <ele>667.114</ele>
        <time>45984-04-21T21:33:20Z</time>
      </trkpt>
      <trkpt lat="43.206192" lon="-3.249479">
        <ele>668.861</ele>
        <time>45984-04-21T23:13:20Z</time>
      </trkpt>
      <trkpt lat="43.205231" lon="-3.248657">
        <ele>659.424</ele>
        <time>45984-04-22T00:20:00Z</time>
      </trkpt>
      <trkpt lat="43.203758" lon="-3.245471">
        <ele>632.155</ele>
        <time>45984-04-22T03:23:20Z</time>
      </trkpt>
      <trkpt lat="43.203333" lon="-3.244997">
        <ele>626.133</ele>
        <time>45984-04-22T03:56:40Z</time>
      </trkpt>
      <trkpt lat="43.202896" lon="-3.244962">
        <ele>622.128</ele>
        <time>45984-04-22T04:30:00Z</time>
      </trkpt>
      <trkpt lat="43.203084" lon="-3.244655">
        <ele>617.633</ele>
        <time>45984-04-22T04:46:40Z</time>
      </trkpt>
      <trkpt lat="43.203642" lon="-3.244699">
        <ele>612.476</ele>
        <time>45984-04-22T05:36:40Z</time>
      </trkpt>
      <trkpt lat="43.203937" lon="-3.244496">
        <ele>609.590</ele>
        <time>45984-04-22T05:53:20Z</time>
      </trkpt>
      <trkpt lat="43.204016" lon="-3.243888">
        <ele>605.319</ele>
        <time>45984-04-22T06:26:40Z</time>
      </trkpt>
      <trkpt lat="43.204809" lon="-3.242860">
        <ele>594.008</ele>
        <time>45984-04-22T07:33:20Z</time>
      </trkpt>
      <trkpt lat="43.204828" lon="-3.241517">
        <ele>585.678</ele>
        <time>45984-04-22T08:40:00Z</time>
      </trkpt>
      <trkpt lat="43.205796" lon="-3.240942">
        <ele>576.782</ele>
        <time>45984-04-22T09:46:40Z</time>
      </trkpt>
      <trkpt lat="43.206582" lon="-3.240959">
        <ele>571.089</ele>
        <time>45984-04-22T10:53:20Z</time>
      </trkpt>
      <trkpt lat="43.207020" lon="-3.239392">
        <ele>567.572</ele>
        <time>45984-04-22T12:16:40Z</time>
      </trkpt>
      <trkpt lat="43.207502" lon="-3.238935">
        <ele>566.243</ele>
        <time>45984-04-22T12:50:00Z</time>
      </trkpt>
      <trkpt lat="43.207640" lon="-3.237798">
        <ele>563.311</ele>
        <time>45984-04-22T13:40:00Z</time>
      </trkpt>
      <trkpt lat="43.207140" lon="-3.235499">
        <ele>557.116</ele>
        <time>45984-04-22T15:36:40Z</time>
      </trkpt>
      <trkpt lat="43.206846" lon="-3.235017">
        <ele>555.191</ele>
        <time>45984-04-22T16:10:00Z</time>
      </trkpt>
      <trkpt lat="43.206917" lon="-3.233576">
        <ele>551.517</ele>
        <time>45984-04-22T17:33:20Z</time>
      </trkpt>
      <trkpt lat="43.207209" lon="-3.232482">
        <ele>549.087</ele>
        <time>45984-04-22T18:23:20Z</time>
      </trkpt>
      <trkpt lat="43.207217" lon="-3.231472">
        <ele>546.815</ele>
        <time>45984-04-22T19:13:20Z</time>
      </trkpt>
      <trkpt lat="43.207594" lon="-3.229446">
        <ele>544.808</ele>
        <time>45984-04-22T20:53:20Z</time>
      </trkpt>
      <trkpt lat="43.207978" lon="-3.228607">
        <ele>546.462</ele>
        <time>45984-04-22T21:43:20Z</time>
      </trkpt>
      <trkpt lat="43.208039" lon="-3.227215">
        <ele>549.376</ele>
        <time>45984-04-22T22:50:00Z</time>
      </trkpt>
      <trkpt lat="43.208791" lon="-3.226109">
        <ele>552.743</ele>
        <time>45984-04-23T00:13:20Z</time>
      </trkpt>
      <trkpt lat="43.209303" lon="-3.225926">
        <ele>553.626</ele>
        <time>45984-04-23T00:46:40Z</time>
      </trkpt>
      <trkpt lat="43.208710" lon="-3.225910">
        <ele>546.837</ele>
        <time>45984-04-23T01:20:00Z</time>
      </trkpt>
      <trkpt lat="43.207702" lon="-3.226894">
        <ele>534.345</ele>
        <time>45984-04-23T02:43:20Z</time>
      </trkpt>
      <trkpt lat="43.207462" lon="-3.228256">
        <ele>525.130</ele>
        <time>45984-04-23T03:50:00Z</time>
      </trkpt>
      <trkpt lat="43.206805" lon="-3.229045">
        <ele>513.475</ele>
        <time>45984-04-23T04:56:40Z</time>
      </trkpt>
      <trkpt lat="43.206833" lon="-3.228366">
        <ele>507.735</ele>
        <time>45984-04-23T05:30:00Z</time>
      </trkpt>
      <trkpt lat="43.207036" lon="-3.227908">
        <ele>505.786</ele>
        <time>45984-04-23T05:46:40Z</time>
      </trkpt>
      <trkpt lat="43.206607" lon="-3.225631">
        <ele>490.614</ele>
        <time>45984-04-23T07:43:20Z</time>
      </trkpt>
      <trkpt lat="43.207177" lon="-3.224892">
        <ele>481.308</ele>
        <time>45984-04-23T08:50:00Z</time>
      </trkpt>
      <trkpt lat="43.206755" lon="-3.222566">
        <ele>466.954</ele>
        <time>45984-04-23T10:46:40Z</time>
      </trkpt>
      <trkpt lat="43.206075" lon="-3.221277">
        <ele>457.388</ele>
        <time>45984-04-23T11:53:20Z</time>
      </trkpt>
      <trkpt lat="43.205267" lon="-3.220412">
        <ele>448.995</ele>
        <time>45984-04-23T13:00:00Z</time>
      </trkpt>
      <trkpt lat="43.204962" lon="-3.220326">
        <ele>446.148</ele>
        <time>45984-04-23T13:33:20Z</time>
      </trkpt>
      <trkpt lat="43.204894" lon="-3.220962">
        <ele>441.569</ele>
        <time>45984-04-23T14:06:40Z</time>
      </trkpt>
      <trkpt lat="43.205847" lon="-3.223211">
        <ele>421.947</ele>
        <time>45984-04-23T16:20:00Z</time>
      </trkpt>
      <trkpt lat="43.205671" lon="-3.223471">
        <ele>418.382</ele>
        <time>45984-04-23T16:36:40Z</time>
      </trkpt>
      <trkpt lat="43.205387" lon="-3.223477">
        <ele>413.927</ele>
        <time>45984-04-23T16:53:20Z</time>
      </trkpt>
      <trkpt lat="43.205053" lon="-3.222776">
        <ele>409.512</ele>
        <time>45984-04-23T17:26:40Z</time>
      </trkpt>
      <trkpt lat="43.204243" lon="-3.222427">
        <ele>399.832</ele>
        <time>45984-04-23T18:33:20Z</time>
      </trkpt>
      <trkpt lat="43.203812" lon="-3.221154">
        <ele>389.905</ele>
        <time>45984-04-23T19:40:00Z</time>
      </trkpt>
      <trkpt lat="43.203003" lon="-3.220141">
        <ele>378.108</ele>
        <time>45984-04-23T20:46:40Z</time>
      </trkpt>
      <trkpt lat="43.203440" lon="-3.221682">
        <ele>371.082</ele>
        <time>45984-04-23T22:10:00Z</time>
      </trkpt>
      <trkpt lat="43.203593" lon="-3.223137">
        <ele>363.966</ele>
        <time>45984-04-23T23:16:40Z</time>
      </trkpt>
      <trkpt lat="43.203132" lon="-3.224180">
        <ele>355.023</ele>
        <time>45984-04-24T00:23:20Z</time>
      </trkpt>
      <trkpt lat="43.203094" lon="-3.225041">
        <ele>351.326</ele>
        <time>45984-04-24T01:13:20Z</time>
      </trkpt>
      <trkpt lat="43.202893" lon="-3.225281">
        <ele>353.357</ele>
        <time>45984-04-24T01:30:00Z</time>
      </trkpt>
      <trkpt lat="43.201942" lon="-3.225397">
        <ele>354.575</ele>
        <time>45984-04-24T02:20:00Z</time>
      </trkpt>
      <trkpt lat="43.201401" lon="-3.225190">
        <ele>353.620</ele>
        <time>45984-04-24T03:10:00Z</time>
      </trkpt>
      <trkpt lat="43.201416" lon="-3.228234">
        <ele>346.075</ele>
        <time>45984-04-24T05:40:00Z</time>
      </trkpt>
      <trkpt lat="43.201297" lon="-3.228431">
        <ele>342.076</ele>
        <time>45984-04-24T05:56:40Z</time>
      </trkpt>
      <trkpt lat="43.201001" lon="-3.226996">
        <ele>338.090</ele>
        <time>45984-04-24T07:03:20Z</time>
      </trkpt>
      <trkpt lat="43.200606" lon="-3.226330">
        <ele>334.319</ele>
        <time>45984-04-24T07:53:20Z</time>
      </trkpt>
      <trkpt lat="43.200567" lon="-3.224938">
        <ele>325.108</ele>
        <time>45984-04-24T09:00:00Z</time>
      </trkpt>
      <trkpt lat="43.201046" lon="-3.223711">
        <ele>316.028</ele>
        <time>45984-04-24T10:06:40Z</time>
      </trkpt>
      <trkpt lat="43.200985" lon="-3.223294">
        <ele>317.952</ele>
        <time>45984-04-24T10:23:20Z</time>
      </trkpt>
      <trkpt lat="43.201647" lon="-3.222999">
        <ele>314.939</ele>
        <time>45984-04-24T11:13:20Z</time>
      </trkpt>
      <trkpt lat="43.201704" lon="-3.222773">
        <ele>314.172</ele>
        <time>45984-04-24T11:30:00Z</time>
      </trkpt>
      <trkpt lat="43.200775" lon="-3.220001">
        <ele>316.453</ele>
        <time>45984-04-24T14:00:00Z</time>
      </trkpt>
      <trkpt lat="43.200239" lon="-3.217081">
        <ele>290.481</ele>
        <time>45984-04-24T16:13:20Z</time>
      </trkpt>
      <trkpt lat="43.200411" lon="-3.216248">
        <ele>281.756</ele>
        <time>45984-04-24T17:03:20Z</time>
      </trkpt>
      <trkpt lat="43.200331" lon="-3.215075">
        <ele>268.361</ele>
        <time>45984-04-24T17:53:20Z</time>
      </trkpt>
      <trkpt lat="43.199963" lon="-3.216133">
        <ele>264.962</ele>
        <time>45984-04-24T19:00:00Z</time>
      </trkpt>
      <trkpt lat="43.199778" lon="-3.216012">
        <ele>261.783</ele>
        <time>45984-04-24T19:16:40Z</time>
      </trkpt>
      <trkpt lat="43.199936" lon="-3.214487">
        <ele>253.211</ele>
        <time>45984-04-24T20:23:20Z</time>
      </trkpt>
      <trkpt lat="43.198885" lon="-3.213311">
        <ele>240.708</ele>
        <time>45984-04-24T22:03:20Z</time>
      </trkpt>
      <trkpt lat="43.198886" lon="-3.212590">
        <ele>237.147</ele>
        <time>45984-04-24T22:36:40Z</time>
      </trkpt>
      <trkpt lat="43.199425" lon="-3.212295">
        <ele>231.921</ele>
        <time>45984-04-24T23:10:00Z</time>
      </trkpt>
      <trkpt lat="43.199085" lon="-3.209129">
        <ele>213.048</ele>
        <time>45984-04-25T01:56:40Z</time>
      </trkpt>
      <trkpt lat="43.198675" lon="-3.207341">
        <ele>203.531</ele>
        <time>45984-04-25T03:20:00Z</time>
      </trkpt>
      <trkpt lat="43.197406" lon="-3.203438">
        <ele>178.862</ele>
        <time>45984-04-25T06:56:40Z</time>
      </trkpt>
      <trkpt lat="43.196668" lon="-3.202984">
        <ele>171.130</ele>
        <time>45984-04-25T07:46:40Z</time>
      </trkpt>
      <trkpt lat="43.196241" lon="-3.202396">
        <ele>168.225</ele>
        <time>45984-04-25T08:20:00Z</time>
      </trkpt>
      <trkpt lat="43.195635" lon="-3.200190">
        <ele>160.540</ele>
        <time>45984-04-25T10:16:40Z</time>
      </trkpt>
      <trkpt lat="43.194656" lon="-3.199043">
        <ele>156.327</ele>
        <time>45984-04-25T11:40:00Z</time>
      </trkpt>
      <trkpt lat="43.194260" lon="-3.198166">
        <ele>156.368</ele>
        <time>45984-04-25T12:30:00Z</time>
      </trkpt>
      <trkpt lat="43.193796" lon="-3.197797">
        <ele>155.114</ele>
        <time>45984-04-25T13:20:00Z</time>
      </trkpt>
      <trkpt lat="43.193330" lon="-3.198148">
        <ele>150.008</ele>
        <time>45984-04-25T13:53:20Z</time>
      </trkpt>
      <trkpt lat="43.192697" lon="-3.197100">
        <ele>148.873</ele>
        <time>45984-04-25T15:00:00Z</time>
      </trkpt>
      <trkpt lat="43.193123" lon="-3.196219">
        <ele>150.067</ele>
        <time>45984-04-25T15:50:00Z</time>
      </trkpt>
      <trkpt lat="43.192849" lon="-3.195985">
        <ele>148.274</ele>
        <time>45984-04-25T16:06:40Z</time>
      </trkpt>
      <trkpt lat="43.192948" lon="-3.195653">
        <ele>147.927</ele>
        <time>45984-04-25T16:23:20Z</time>
      </trkpt>
    </trkseg>
  </trk>
</gpx>
